<?xml version="1.0" encoding="UTF-8" standalone="no" ?>
<gpx xmlns="http://www.topografix.com/GPX/1/1" xmlns:xsi="http://www.w3.org/2001/XMLSchema-instance" xsi:schemaLocation="http://www.topografix.com/GPX/1/1 http://www.topografix.com/GPX/1/1/gpx.xsd" version="1.1" creator="VisuGPX - https://www.visugpx.com">
  <metadata>
    <name>GR20</name>
    <desc><![CDATA[GR20 - Juin 2015]]></desc>
  </metadata>
  <trk>
    <name><![CDATA[GR20 L'Onda - Petra Piana]]></name>
    <trkseg>
      <trkpt lat="42.1535" lon="9.07442">
        <ele>1384</ele>
        <time>2015-06-25T04:11:01Z</time>
      </trkpt>
      <trkpt lat="42.15349" lon="9.07439">
        <ele>1384.4</ele>
        <time>2015-06-25T04:11:04Z</time>
      </trkpt>
      <trkpt lat="42.15344" lon="9.07425">
        <ele>1384.8</ele>
        <time>2015-06-25T04:11:35Z</time>
      </trkpt>
      <trkpt lat="42.15345" lon="9.07424">
        <ele>1385</ele>
        <time>2015-06-25T04:11:39Z</time>
      </trkpt>
      <trkpt lat="42.15336" lon="9.07414">
        <ele>1385.4</ele>
        <time>2015-06-25T04:12:02Z</time>
      </trkpt>
      <trkpt lat="42.15342" lon="9.07406">
        <ele>1386.6</ele>
        <time>2015-06-25T04:12:22Z</time>
      </trkpt>
      <trkpt lat="42.15357" lon="9.07397">
        <ele>1387.8</ele>
        <time>2015-06-25T04:13:05Z</time>
      </trkpt>
      <trkpt lat="42.15375" lon="9.074">
        <ele>1387.2</ele>
        <time>2015-06-25T04:13:46Z</time>
      </trkpt>
      <trkpt lat="42.15383" lon="9.07402">
        <ele>1386.6</ele>
        <time>2015-06-25T04:13:58Z</time>
      </trkpt>
      <trkpt lat="42.15398" lon="9.07407">
        <ele>1385.4</ele>
        <time>2015-06-25T04:14:21Z</time>
      </trkpt>
      <trkpt lat="42.154" lon="9.07412">
        <ele>1384.4</ele>
        <time>2015-06-25T04:14:29Z</time>
      </trkpt>
      <trkpt lat="42.15405" lon="9.07416">
        <ele>1383</ele>
        <time>2015-06-25T04:14:45Z</time>
      </trkpt>
      <trkpt lat="42.15407" lon="9.07418">
        <ele>1382.4</ele>
        <time>2015-06-25T04:14:52Z</time>
      </trkpt>
      <trkpt lat="42.15413" lon="9.07419">
        <ele>1381.2</ele>
        <time>2015-06-25T04:15:00Z</time>
      </trkpt>
      <trkpt lat="42.1542" lon="9.07418">
        <ele>1380</ele>
        <time>2015-06-25T04:15:09Z</time>
      </trkpt>
      <trkpt lat="42.15421" lon="9.07419">
        <ele>1380</ele>
        <time>2015-06-25T04:15:11Z</time>
      </trkpt>
      <trkpt lat="42.15431" lon="9.0742">
        <ele>1378.4</ele>
        <time>2015-06-25T04:15:24Z</time>
      </trkpt>
      <trkpt lat="42.15439" lon="9.07418">
        <ele>1377.4</ele>
        <time>2015-06-25T04:15:35Z</time>
      </trkpt>
      <trkpt lat="42.15445" lon="9.07416">
        <ele>1376.6</ele>
        <time>2015-06-25T04:15:42Z</time>
      </trkpt>
      <trkpt lat="42.15472" lon="9.07417">
        <ele>1376</ele>
        <time>2015-06-25T04:16:15Z</time>
      </trkpt>
      <trkpt lat="42.15474" lon="9.07416">
        <ele>1376.2</ele>
        <time>2015-06-25T04:16:19Z</time>
      </trkpt>
      <trkpt lat="42.15491" lon="9.07416">
        <ele>1374.6</ele>
        <time>2015-06-25T04:16:43Z</time>
      </trkpt>
      <trkpt lat="42.15501" lon="9.0742">
        <ele>1373.8</ele>
        <time>2015-06-25T04:17:00Z</time>
      </trkpt>
      <trkpt lat="42.15508" lon="9.07425">
        <ele>1372.6</ele>
        <time>2015-06-25T04:17:19Z</time>
      </trkpt>
      <trkpt lat="42.15511" lon="9.07425">
        <ele>1371.8</ele>
        <time>2015-06-25T04:17:27Z</time>
      </trkpt>
      <trkpt lat="42.1552" lon="9.07425">
        <ele>1370.6</ele>
        <time>2015-06-25T04:17:38Z</time>
      </trkpt>
      <trkpt lat="42.15527" lon="9.07427">
        <ele>1369.4</ele>
        <time>2015-06-25T04:17:55Z</time>
      </trkpt>
      <trkpt lat="42.15533" lon="9.07427">
        <ele>1368.6</ele>
        <time>2015-06-25T04:18:03Z</time>
      </trkpt>
      <trkpt lat="42.15555" lon="9.07443">
        <ele>1366.8</ele>
        <time>2015-06-25T04:18:53Z</time>
      </trkpt>
      <trkpt lat="42.15553" lon="9.07446">
        <ele>1366.8</ele>
        <time>2015-06-25T04:18:58Z</time>
      </trkpt>
      <trkpt lat="42.15549" lon="9.07448">
        <ele>1365.4</ele>
        <time>2015-06-25T04:19:04Z</time>
      </trkpt>
      <trkpt lat="42.15548" lon="9.07451">
        <ele>1364.6</ele>
        <time>2015-06-25T04:19:09Z</time>
      </trkpt>
      <trkpt lat="42.15549" lon="9.07454">
        <ele>1363</ele>
        <time>2015-06-25T04:19:16Z</time>
      </trkpt>
      <trkpt lat="42.15551" lon="9.07456">
        <ele>1361.6</ele>
        <time>2015-06-25T04:19:25Z</time>
      </trkpt>
      <trkpt lat="42.15554" lon="9.07459">
        <ele>1360.8</ele>
        <time>2015-06-25T04:19:32Z</time>
      </trkpt>
      <trkpt lat="42.15557" lon="9.07464">
        <ele>1359.4</ele>
        <time>2015-06-25T04:19:42Z</time>
      </trkpt>
      <trkpt lat="42.15558" lon="9.07466">
        <ele>1358.6</ele>
        <time>2015-06-25T04:19:48Z</time>
      </trkpt>
      <trkpt lat="42.15557" lon="9.07471">
        <ele>1356.4</ele>
        <time>2015-06-25T04:20:06Z</time>
      </trkpt>
      <trkpt lat="42.15558" lon="9.07474">
        <ele>1356</ele>
        <time>2015-06-25T04:20:12Z</time>
      </trkpt>
      <trkpt lat="42.1556" lon="9.07475">
        <ele>1355</ele>
        <time>2015-06-25T04:20:17Z</time>
      </trkpt>
      <trkpt lat="42.15565" lon="9.0748">
        <ele>1353.4</ele>
        <time>2015-06-25T04:20:26Z</time>
      </trkpt>
      <trkpt lat="42.15569" lon="9.07483">
        <ele>1352.4</ele>
        <time>2015-06-25T04:20:32Z</time>
      </trkpt>
      <trkpt lat="42.15563" lon="9.07486">
        <ele>1351.2</ele>
        <time>2015-06-25T04:20:41Z</time>
      </trkpt>
      <trkpt lat="42.15562" lon="9.07489">
        <ele>1351.2</ele>
        <time>2015-06-25T04:20:45Z</time>
      </trkpt>
      <trkpt lat="42.15562" lon="9.07488">
        <ele>1350.4</ele>
        <time>2015-06-25T04:20:51Z</time>
      </trkpt>
      <trkpt lat="42.15561" lon="9.0749">
        <ele>1349</ele>
        <time>2015-06-25T04:20:58Z</time>
      </trkpt>
      <trkpt lat="42.15563" lon="9.07491">
        <ele>1348</ele>
        <time>2015-06-25T04:21:04Z</time>
      </trkpt>
      <trkpt lat="42.15568" lon="9.07498">
        <ele>1346.6</ele>
        <time>2015-06-25T04:21:12Z</time>
      </trkpt>
      <trkpt lat="42.15573" lon="9.07503">
        <ele>1345.6</ele>
        <time>2015-06-25T04:21:18Z</time>
      </trkpt>
      <trkpt lat="42.15576" lon="9.07506">
        <ele>1344.8</ele>
        <time>2015-06-25T04:21:22Z</time>
      </trkpt>
      <trkpt lat="42.15577" lon="9.07507">
        <ele>1344.8</ele>
        <time>2015-06-25T04:21:23Z</time>
      </trkpt>
      <trkpt lat="42.15579" lon="9.07511">
        <ele>1343.4</ele>
        <time>2015-06-25T04:21:29Z</time>
      </trkpt>
      <trkpt lat="42.1558" lon="9.07515">
        <ele>1342</ele>
        <time>2015-06-25T04:21:36Z</time>
      </trkpt>
      <trkpt lat="42.15584" lon="9.07519">
        <ele>1340.6</ele>
        <time>2015-06-25T04:21:44Z</time>
      </trkpt>
      <trkpt lat="42.15591" lon="9.07524">
        <ele>1339.4</ele>
        <time>2015-06-25T04:21:51Z</time>
      </trkpt>
      <trkpt lat="42.15593" lon="9.07528">
        <ele>1339</ele>
        <time>2015-06-25T04:21:55Z</time>
      </trkpt>
      <trkpt lat="42.15596" lon="9.07529">
        <ele>1338.4</ele>
        <time>2015-06-25T04:21:57Z</time>
      </trkpt>
      <trkpt lat="42.156" lon="9.07532">
        <ele>1337.2</ele>
        <time>2015-06-25T04:22:03Z</time>
      </trkpt>
      <trkpt lat="42.15604" lon="9.07538">
        <ele>1335.2</ele>
        <time>2015-06-25T04:22:14Z</time>
      </trkpt>
      <trkpt lat="42.15609" lon="9.07545">
        <ele>1333.6</ele>
        <time>2015-06-25T04:22:37Z</time>
      </trkpt>
      <trkpt lat="42.15609" lon="9.07545">
        <ele>1333</ele>
        <time>2015-06-25T04:22:59Z</time>
      </trkpt>
      <trkpt lat="42.15618" lon="9.07549">
        <ele>1330.8</ele>
        <time>2015-06-25T04:23:23Z</time>
      </trkpt>
      <trkpt lat="42.1562" lon="9.07553">
        <ele>1330.2</ele>
        <time>2015-06-25T04:23:32Z</time>
      </trkpt>
      <trkpt lat="42.15623" lon="9.07555">
        <ele>1329</ele>
        <time>2015-06-25T04:23:40Z</time>
      </trkpt>
      <trkpt lat="42.15644" lon="9.07556">
        <ele>1328.2</ele>
        <time>2015-06-25T04:24:15Z</time>
      </trkpt>
      <trkpt lat="42.15649" lon="9.07562">
        <ele>1328.6</ele>
        <time>2015-06-25T04:24:34Z</time>
      </trkpt>
      <trkpt lat="42.1565" lon="9.07565">
        <ele>1328</ele>
        <time>2015-06-25T04:24:37Z</time>
      </trkpt>
      <trkpt lat="42.15653" lon="9.07567">
        <ele>1327.4</ele>
        <time>2015-06-25T04:24:41Z</time>
      </trkpt>
      <trkpt lat="42.15659" lon="9.07576">
        <ele>1325.8</ele>
        <time>2015-06-25T04:24:52Z</time>
      </trkpt>
      <trkpt lat="42.15662" lon="9.07578">
        <ele>1325</ele>
        <time>2015-06-25T04:24:59Z</time>
      </trkpt>
      <trkpt lat="42.15665" lon="9.07584">
        <ele>1323.8</ele>
        <time>2015-06-25T04:25:07Z</time>
      </trkpt>
      <trkpt lat="42.15668" lon="9.07589">
        <ele>1323</ele>
        <time>2015-06-25T04:25:13Z</time>
      </trkpt>
      <trkpt lat="42.1567" lon="9.0759">
        <ele>1322.6</ele>
        <time>2015-06-25T04:25:16Z</time>
      </trkpt>
      <trkpt lat="42.15672" lon="9.07593">
        <ele>1322.4</ele>
        <time>2015-06-25T04:25:18Z</time>
      </trkpt>
      <trkpt lat="42.15672" lon="9.07594">
        <ele>1322.2</ele>
        <time>2015-06-25T04:25:19Z</time>
      </trkpt>
      <trkpt lat="42.15675" lon="9.07596">
        <ele>1322</ele>
        <time>2015-06-25T04:25:23Z</time>
      </trkpt>
      <trkpt lat="42.15677" lon="9.07599">
        <ele>1321.4</ele>
        <time>2015-06-25T04:25:28Z</time>
      </trkpt>
      <trkpt lat="42.15679" lon="9.07603">
        <ele>1320.8</ele>
        <time>2015-06-25T04:25:33Z</time>
      </trkpt>
      <trkpt lat="42.15682" lon="9.0761">
        <ele>1319.2</ele>
        <time>2015-06-25T04:25:42Z</time>
      </trkpt>
      <trkpt lat="42.15686" lon="9.07617">
        <ele>1317.8</ele>
        <time>2015-06-25T04:25:50Z</time>
      </trkpt>
      <trkpt lat="42.15689" lon="9.07619">
        <ele>1317.2</ele>
        <time>2015-06-25T04:25:54Z</time>
      </trkpt>
      <trkpt lat="42.15697" lon="9.07626">
        <ele>1315.2</ele>
        <time>2015-06-25T04:26:13Z</time>
      </trkpt>
      <trkpt lat="42.15698" lon="9.07631">
        <ele>1314.4</ele>
        <time>2015-06-25T04:26:19Z</time>
      </trkpt>
      <trkpt lat="42.15702" lon="9.07638">
        <ele>1312.6</ele>
        <time>2015-06-25T04:26:31Z</time>
      </trkpt>
      <trkpt lat="42.15703" lon="9.07642">
        <ele>1311.6</ele>
        <time>2015-06-25T04:26:38Z</time>
      </trkpt>
      <trkpt lat="42.15706" lon="9.07647">
        <ele>1310.2</ele>
        <time>2015-06-25T04:26:46Z</time>
      </trkpt>
      <trkpt lat="42.15708" lon="9.07652">
        <ele>1309</ele>
        <time>2015-06-25T04:26:54Z</time>
      </trkpt>
      <trkpt lat="42.1571" lon="9.07657">
        <ele>1308.2</ele>
        <time>2015-06-25T04:27:00Z</time>
      </trkpt>
      <trkpt lat="42.15713" lon="9.07661">
        <ele>1307.6</ele>
        <time>2015-06-25T04:27:04Z</time>
      </trkpt>
      <trkpt lat="42.15715" lon="9.07663">
        <ele>1307.2</ele>
        <time>2015-06-25T04:27:06Z</time>
      </trkpt>
      <trkpt lat="42.15719" lon="9.07671">
        <ele>1305.8</ele>
        <time>2015-06-25T04:27:17Z</time>
      </trkpt>
      <trkpt lat="42.15727" lon="9.07678">
        <ele>1304.2</ele>
        <time>2015-06-25T04:27:42Z</time>
      </trkpt>
      <trkpt lat="42.15732" lon="9.07683">
        <ele>1303</ele>
        <time>2015-06-25T04:27:52Z</time>
      </trkpt>
      <trkpt lat="42.15732" lon="9.07691">
        <ele>1301.8</ele>
        <time>2015-06-25T04:28:03Z</time>
      </trkpt>
      <trkpt lat="42.15735" lon="9.07695">
        <ele>1301.2</ele>
        <time>2015-06-25T04:28:09Z</time>
      </trkpt>
      <trkpt lat="42.15741" lon="9.07702">
        <ele>1299.2</ele>
        <time>2015-06-25T04:28:30Z</time>
      </trkpt>
      <trkpt lat="42.15746" lon="9.07706">
        <ele>1298.2</ele>
        <time>2015-06-25T04:28:41Z</time>
      </trkpt>
      <trkpt lat="42.15753" lon="9.07714">
        <ele>1296.8</ele>
        <time>2015-06-25T04:29:10Z</time>
      </trkpt>
      <trkpt lat="42.15758" lon="9.07721">
        <ele>1296</ele>
        <time>2015-06-25T04:29:21Z</time>
      </trkpt>
      <trkpt lat="42.15765" lon="9.07727">
        <ele>1294.6</ele>
        <time>2015-06-25T04:29:31Z</time>
      </trkpt>
      <trkpt lat="42.15771" lon="9.07733">
        <ele>1293.2</ele>
        <time>2015-06-25T04:29:41Z</time>
      </trkpt>
      <trkpt lat="42.15795" lon="9.07745">
        <ele>1291.6</ele>
        <time>2015-06-25T04:30:24Z</time>
      </trkpt>
      <trkpt lat="42.15799" lon="9.07748">
        <ele>1291.2</ele>
        <time>2015-06-25T04:30:32Z</time>
      </trkpt>
      <trkpt lat="42.15801" lon="9.07754">
        <ele>1290</ele>
        <time>2015-06-25T04:30:41Z</time>
      </trkpt>
      <trkpt lat="42.15806" lon="9.07761">
        <ele>1288.4</ele>
        <time>2015-06-25T04:30:52Z</time>
      </trkpt>
      <trkpt lat="42.15815" lon="9.07768">
        <ele>1287.2</ele>
        <time>2015-06-25T04:31:07Z</time>
      </trkpt>
      <trkpt lat="42.15843" lon="9.07778">
        <ele>1287</ele>
        <time>2015-06-25T04:31:51Z</time>
      </trkpt>
      <trkpt lat="42.15845" lon="9.07781">
        <ele>1286.6</ele>
        <time>2015-06-25T04:31:57Z</time>
      </trkpt>
      <trkpt lat="42.15858" lon="9.07791">
        <ele>1284.8</ele>
        <time>2015-06-25T04:32:22Z</time>
      </trkpt>
      <trkpt lat="42.15863" lon="9.07793">
        <ele>1284.6</ele>
        <time>2015-06-25T04:32:27Z</time>
      </trkpt>
      <trkpt lat="42.1587" lon="9.07797">
        <ele>1284</ele>
        <time>2015-06-25T04:32:37Z</time>
      </trkpt>
      <trkpt lat="42.15879" lon="9.07804">
        <ele>1283.8</ele>
        <time>2015-06-25T04:32:49Z</time>
      </trkpt>
      <trkpt lat="42.15884" lon="9.07805">
        <ele>1283.6</ele>
        <time>2015-06-25T04:32:53Z</time>
      </trkpt>
      <trkpt lat="42.15887" lon="9.07805">
        <ele>1283.4</ele>
        <time>2015-06-25T04:32:59Z</time>
      </trkpt>
      <trkpt lat="42.15893" lon="9.07808">
        <ele>1282.2</ele>
        <time>2015-06-25T04:33:06Z</time>
      </trkpt>
      <trkpt lat="42.15906" lon="9.07808">
        <ele>1281.8</ele>
        <time>2015-06-25T04:33:25Z</time>
      </trkpt>
      <trkpt lat="42.15909" lon="9.0781">
        <ele>1281.4</ele>
        <time>2015-06-25T04:33:29Z</time>
      </trkpt>
      <trkpt lat="42.15911" lon="9.07811">
        <ele>1281</ele>
        <time>2015-06-25T04:33:33Z</time>
      </trkpt>
      <trkpt lat="42.15912" lon="9.07812">
        <ele>1280.8</ele>
        <time>2015-06-25T04:33:35Z</time>
      </trkpt>
      <trkpt lat="42.15915" lon="9.07814">
        <ele>1280</ele>
        <time>2015-06-25T04:33:42Z</time>
      </trkpt>
      <trkpt lat="42.15935" lon="9.07827">
        <ele>1278.8</ele>
        <time>2015-06-25T04:34:19Z</time>
      </trkpt>
      <trkpt lat="42.15938" lon="9.0783">
        <ele>1278</ele>
        <time>2015-06-25T04:34:25Z</time>
      </trkpt>
      <trkpt lat="42.15942" lon="9.07832">
        <ele>1276.6</ele>
        <time>2015-06-25T04:34:32Z</time>
      </trkpt>
      <trkpt lat="42.15947" lon="9.07835">
        <ele>1275</ele>
        <time>2015-06-25T04:34:43Z</time>
      </trkpt>
      <trkpt lat="42.15951" lon="9.0784">
        <ele>1274</ele>
        <time>2015-06-25T04:34:52Z</time>
      </trkpt>
      <trkpt lat="42.15954" lon="9.07844">
        <ele>1273</ele>
        <time>2015-06-25T04:35:00Z</time>
      </trkpt>
      <trkpt lat="42.15958" lon="9.0785">
        <ele>1272.2</ele>
        <time>2015-06-25T04:35:09Z</time>
      </trkpt>
      <trkpt lat="42.15961" lon="9.07857">
        <ele>1270.8</ele>
        <time>2015-06-25T04:35:18Z</time>
      </trkpt>
      <trkpt lat="42.15966" lon="9.07863">
        <ele>1269.6</ele>
        <time>2015-06-25T04:35:26Z</time>
      </trkpt>
      <trkpt lat="42.15968" lon="9.07864">
        <ele>1269.4</ele>
        <time>2015-06-25T04:35:28Z</time>
      </trkpt>
      <trkpt lat="42.15969" lon="9.07865">
        <ele>1269.2</ele>
        <time>2015-06-25T04:35:30Z</time>
      </trkpt>
      <trkpt lat="42.15972" lon="9.07866">
        <ele>1269.2</ele>
        <time>2015-06-25T04:35:34Z</time>
      </trkpt>
      <trkpt lat="42.15977" lon="9.0787">
        <ele>1269.2</ele>
        <time>2015-06-25T04:35:42Z</time>
      </trkpt>
      <trkpt lat="42.15977" lon="9.07872">
        <ele>1269.2</ele>
        <time>2015-06-25T04:35:44Z</time>
      </trkpt>
      <trkpt lat="42.15978" lon="9.07874">
        <ele>1268.8</ele>
        <time>2015-06-25T04:35:46Z</time>
      </trkpt>
      <trkpt lat="42.15979" lon="9.07876">
        <ele>1268.6</ele>
        <time>2015-06-25T04:35:48Z</time>
      </trkpt>
      <trkpt lat="42.15979" lon="9.07877">
        <ele>1268.6</ele>
        <time>2015-06-25T04:35:49Z</time>
      </trkpt>
      <trkpt lat="42.15983" lon="9.07878">
        <ele>1267.4</ele>
        <time>2015-06-25T04:35:55Z</time>
      </trkpt>
      <trkpt lat="42.15986" lon="9.07881">
        <ele>1266.2</ele>
        <time>2015-06-25T04:36:03Z</time>
      </trkpt>
      <trkpt lat="42.15987" lon="9.07883">
        <ele>1265.6</ele>
        <time>2015-06-25T04:36:08Z</time>
      </trkpt>
      <trkpt lat="42.15989" lon="9.07886">
        <ele>1264.8</ele>
        <time>2015-06-25T04:36:12Z</time>
      </trkpt>
      <trkpt lat="42.15991" lon="9.0789">
        <ele>1263.8</ele>
        <time>2015-06-25T04:36:16Z</time>
      </trkpt>
      <trkpt lat="42.16" lon="9.07898">
        <ele>1261.4</ele>
        <time>2015-06-25T04:36:33Z</time>
      </trkpt>
      <trkpt lat="42.16006" lon="9.07904">
        <ele>1260.6</ele>
        <time>2015-06-25T04:36:42Z</time>
      </trkpt>
      <trkpt lat="42.16007" lon="9.07909">
        <ele>1259.8</ele>
        <time>2015-06-25T04:36:49Z</time>
      </trkpt>
      <trkpt lat="42.1601" lon="9.07915">
        <ele>1258.4</ele>
        <time>2015-06-25T04:36:56Z</time>
      </trkpt>
      <trkpt lat="42.16015" lon="9.07924">
        <ele>1257</ele>
        <time>2015-06-25T04:37:07Z</time>
      </trkpt>
      <trkpt lat="42.16016" lon="9.07927">
        <ele>1256.2</ele>
        <time>2015-06-25T04:37:20Z</time>
      </trkpt>
      <trkpt lat="42.16019" lon="9.07936">
        <ele>1255.2</ele>
        <time>2015-06-25T04:37:30Z</time>
      </trkpt>
      <trkpt lat="42.16018" lon="9.07941">
        <ele>1254.2</ele>
        <time>2015-06-25T04:37:37Z</time>
      </trkpt>
      <trkpt lat="42.16021" lon="9.07949">
        <ele>1252.6</ele>
        <time>2015-06-25T04:37:45Z</time>
      </trkpt>
      <trkpt lat="42.16021" lon="9.0795">
        <ele>1252.6</ele>
        <time>2015-06-25T04:37:46Z</time>
      </trkpt>
      <trkpt lat="42.16024" lon="9.07953">
        <ele>1252.2</ele>
        <time>2015-06-25T04:37:51Z</time>
      </trkpt>
      <trkpt lat="42.16026" lon="9.07957">
        <ele>1251.6</ele>
        <time>2015-06-25T04:37:54Z</time>
      </trkpt>
      <trkpt lat="42.16029" lon="9.07963">
        <ele>1251</ele>
        <time>2015-06-25T04:38:01Z</time>
      </trkpt>
      <trkpt lat="42.16034" lon="9.0797">
        <ele>1249.4</ele>
        <time>2015-06-25T04:38:11Z</time>
      </trkpt>
      <trkpt lat="42.16036" lon="9.07978">
        <ele>1248.4</ele>
        <time>2015-06-25T04:38:25Z</time>
      </trkpt>
      <trkpt lat="42.1604" lon="9.07983">
        <ele>1247.6</ele>
        <time>2015-06-25T04:38:32Z</time>
      </trkpt>
      <trkpt lat="42.16046" lon="9.0799">
        <ele>1246.4</ele>
        <time>2015-06-25T04:38:44Z</time>
      </trkpt>
      <trkpt lat="42.1605" lon="9.07998">
        <ele>1245.2</ele>
        <time>2015-06-25T04:38:54Z</time>
      </trkpt>
      <trkpt lat="42.16053" lon="9.08003">
        <ele>1244.2</ele>
        <time>2015-06-25T04:39:02Z</time>
      </trkpt>
      <trkpt lat="42.16052" lon="9.08009">
        <ele>1243</ele>
        <time>2015-06-25T04:39:12Z</time>
      </trkpt>
      <trkpt lat="42.16051" lon="9.08013">
        <ele>1241.8</ele>
        <time>2015-06-25T04:39:19Z</time>
      </trkpt>
      <trkpt lat="42.16051" lon="9.08019">
        <ele>1241</ele>
        <time>2015-06-25T04:39:25Z</time>
      </trkpt>
      <trkpt lat="42.16054" lon="9.08024">
        <ele>1239.6</ele>
        <time>2015-06-25T04:39:32Z</time>
      </trkpt>
      <trkpt lat="42.16056" lon="9.08028">
        <ele>1238.8</ele>
        <time>2015-06-25T04:39:37Z</time>
      </trkpt>
      <trkpt lat="42.16061" lon="9.08034">
        <ele>1237.2</ele>
        <time>2015-06-25T04:39:47Z</time>
      </trkpt>
      <trkpt lat="42.16061" lon="9.08038">
        <ele>1236.2</ele>
        <time>2015-06-25T04:39:54Z</time>
      </trkpt>
      <trkpt lat="42.16063" lon="9.08042">
        <ele>1235.2</ele>
        <time>2015-06-25T04:40:01Z</time>
      </trkpt>
      <trkpt lat="42.16068" lon="9.0805">
        <ele>1233.8</ele>
        <time>2015-06-25T04:40:11Z</time>
      </trkpt>
      <trkpt lat="42.16069" lon="9.0805">
        <ele>1233.6</ele>
        <time>2015-06-25T04:40:13Z</time>
      </trkpt>
      <trkpt lat="42.16074" lon="9.08057">
        <ele>1232.6</ele>
        <time>2015-06-25T04:40:24Z</time>
      </trkpt>
      <trkpt lat="42.16079" lon="9.08063">
        <ele>1231.6</ele>
        <time>2015-06-25T04:40:32Z</time>
      </trkpt>
      <trkpt lat="42.16085" lon="9.08069">
        <ele>1230</ele>
        <time>2015-06-25T04:40:42Z</time>
      </trkpt>
      <trkpt lat="42.16088" lon="9.08074">
        <ele>1229.4</ele>
        <time>2015-06-25T04:40:48Z</time>
      </trkpt>
      <trkpt lat="42.1609" lon="9.08077">
        <ele>1229</ele>
        <time>2015-06-25T04:40:51Z</time>
      </trkpt>
      <trkpt lat="42.16092" lon="9.08079">
        <ele>1228.2</ele>
        <time>2015-06-25T04:40:54Z</time>
      </trkpt>
      <trkpt lat="42.16092" lon="9.08083">
        <ele>1227.4</ele>
        <time>2015-06-25T04:40:59Z</time>
      </trkpt>
      <trkpt lat="42.16095" lon="9.08088">
        <ele>1226</ele>
        <time>2015-06-25T04:41:06Z</time>
      </trkpt>
      <trkpt lat="42.16098" lon="9.08094">
        <ele>1224.8</ele>
        <time>2015-06-25T04:41:14Z</time>
      </trkpt>
      <trkpt lat="42.16101" lon="9.08099">
        <ele>1223.4</ele>
        <time>2015-06-25T04:41:23Z</time>
      </trkpt>
      <trkpt lat="42.16101" lon="9.08101">
        <ele>1223</ele>
        <time>2015-06-25T04:41:28Z</time>
      </trkpt>
      <trkpt lat="42.16096" lon="9.08106">
        <ele>1221.4</ele>
        <time>2015-06-25T04:41:36Z</time>
      </trkpt>
      <trkpt lat="42.16094" lon="9.08109">
        <ele>1220.6</ele>
        <time>2015-06-25T04:41:41Z</time>
      </trkpt>
      <trkpt lat="42.16094" lon="9.08113">
        <ele>1219.6</ele>
        <time>2015-06-25T04:41:46Z</time>
      </trkpt>
      <trkpt lat="42.16097" lon="9.08118">
        <ele>1218.2</ele>
        <time>2015-06-25T04:41:52Z</time>
      </trkpt>
      <trkpt lat="42.161" lon="9.08122">
        <ele>1217</ele>
        <time>2015-06-25T04:41:58Z</time>
      </trkpt>
      <trkpt lat="42.16103" lon="9.08125">
        <ele>1216</ele>
        <time>2015-06-25T04:42:03Z</time>
      </trkpt>
      <trkpt lat="42.16104" lon="9.08128">
        <ele>1214.4</ele>
        <time>2015-06-25T04:42:09Z</time>
      </trkpt>
      <trkpt lat="42.16106" lon="9.0813">
        <ele>1213.6</ele>
        <time>2015-06-25T04:42:14Z</time>
      </trkpt>
      <trkpt lat="42.16108" lon="9.08134">
        <ele>1212.6</ele>
        <time>2015-06-25T04:42:19Z</time>
      </trkpt>
      <trkpt lat="42.16111" lon="9.08136">
        <ele>1211</ele>
        <time>2015-06-25T04:42:25Z</time>
      </trkpt>
      <trkpt lat="42.16112" lon="9.08137">
        <ele>1210.8</ele>
        <time>2015-06-25T04:42:26Z</time>
      </trkpt>
      <trkpt lat="42.16115" lon="9.08139">
        <ele>1210</ele>
        <time>2015-06-25T04:42:31Z</time>
      </trkpt>
      <trkpt lat="42.16117" lon="9.08142">
        <ele>1209.4</ele>
        <time>2015-06-25T04:42:35Z</time>
      </trkpt>
      <trkpt lat="42.1612" lon="9.08146">
        <ele>1208.8</ele>
        <time>2015-06-25T04:42:41Z</time>
      </trkpt>
      <trkpt lat="42.16118" lon="9.08154">
        <ele>1207.6</ele>
        <time>2015-06-25T04:42:48Z</time>
      </trkpt>
      <trkpt lat="42.16117" lon="9.08156">
        <ele>1206.8</ele>
        <time>2015-06-25T04:42:51Z</time>
      </trkpt>
      <trkpt lat="42.16116" lon="9.08158">
        <ele>1206.4</ele>
        <time>2015-06-25T04:42:55Z</time>
      </trkpt>
      <trkpt lat="42.16114" lon="9.08162">
        <ele>1205.4</ele>
        <time>2015-06-25T04:43:01Z</time>
      </trkpt>
      <trkpt lat="42.16111" lon="9.08163">
        <ele>1204.2</ele>
        <time>2015-06-25T04:43:07Z</time>
      </trkpt>
      <trkpt lat="42.16108" lon="9.08164">
        <ele>1203.2</ele>
        <time>2015-06-25T04:43:13Z</time>
      </trkpt>
      <trkpt lat="42.16103" lon="9.08165">
        <ele>1202</ele>
        <time>2015-06-25T04:43:19Z</time>
      </trkpt>
      <trkpt lat="42.16095" lon="9.08164">
        <ele>1200</ele>
        <time>2015-06-25T04:43:29Z</time>
      </trkpt>
      <trkpt lat="42.1609" lon="9.08162">
        <ele>1199.6</ele>
        <time>2015-06-25T04:43:34Z</time>
      </trkpt>
      <trkpt lat="42.16085" lon="9.08163">
        <ele>1198.2</ele>
        <time>2015-06-25T04:43:48Z</time>
      </trkpt>
      <trkpt lat="42.16083" lon="9.08163">
        <ele>1197.4</ele>
        <time>2015-06-25T04:43:55Z</time>
      </trkpt>
      <trkpt lat="42.16079" lon="9.08159">
        <ele>1195.8</ele>
        <time>2015-06-25T04:44:03Z</time>
      </trkpt>
      <trkpt lat="42.16074" lon="9.08153">
        <ele>1195.4</ele>
        <time>2015-06-25T04:44:10Z</time>
      </trkpt>
      <trkpt lat="42.16069" lon="9.08146">
        <ele>1195.2</ele>
        <time>2015-06-25T04:44:19Z</time>
      </trkpt>
      <trkpt lat="42.16067" lon="9.08138">
        <ele>1195.2</ele>
        <time>2015-06-25T04:44:49Z</time>
      </trkpt>
      <trkpt lat="42.16064" lon="9.08131">
        <ele>1195.4</ele>
        <time>2015-06-25T04:45:00Z</time>
      </trkpt>
      <trkpt lat="42.16058" lon="9.08132">
        <ele>1196.8</ele>
        <time>2015-06-25T04:45:28Z</time>
      </trkpt>
      <trkpt lat="42.1606" lon="9.08134">
        <ele>1197.8</ele>
        <time>2015-06-25T04:46:28Z</time>
      </trkpt>
      <trkpt lat="42.16069" lon="9.08132">
        <ele>1197.8</ele>
        <time>2015-06-25T04:46:47Z</time>
      </trkpt>
      <trkpt lat="42.16068" lon="9.08137">
        <ele>1198.4</ele>
        <time>2015-06-25T04:47:10Z</time>
      </trkpt>
      <trkpt lat="42.16078" lon="9.08142">
        <ele>1197.2</ele>
        <time>2015-06-25T04:47:41Z</time>
      </trkpt>
      <trkpt lat="42.16082" lon="9.08141">
        <ele>1197.2</ele>
        <time>2015-06-25T04:47:44Z</time>
      </trkpt>
      <trkpt lat="42.16083" lon="9.0814">
        <ele>1196.8</ele>
        <time>2015-06-25T04:47:46Z</time>
      </trkpt>
      <trkpt lat="42.16084" lon="9.08139">
        <ele>1196</ele>
        <time>2015-06-25T04:47:54Z</time>
      </trkpt>
      <trkpt lat="42.16068" lon="9.08153">
        <ele>1195.4</ele>
        <time>2015-06-25T04:48:48Z</time>
      </trkpt>
      <trkpt lat="42.16076" lon="9.08161">
        <ele>1197</ele>
        <time>2015-06-25T04:49:00Z</time>
      </trkpt>
      <trkpt lat="42.16077" lon="9.08161">
        <ele>1197.2</ele>
        <time>2015-06-25T04:49:02Z</time>
      </trkpt>
      <trkpt lat="42.16076" lon="9.08163">
        <ele>1198</ele>
        <time>2015-06-25T04:49:09Z</time>
      </trkpt>
      <trkpt lat="42.16074" lon="9.08168">
        <ele>1198.8</ele>
        <time>2015-06-25T04:49:17Z</time>
      </trkpt>
      <trkpt lat="42.16078" lon="9.08172">
        <ele>1199.8</ele>
        <time>2015-06-25T04:49:25Z</time>
      </trkpt>
      <trkpt lat="42.16085" lon="9.08191">
        <ele>1199</ele>
        <time>2015-06-25T04:49:46Z</time>
      </trkpt>
      <trkpt lat="42.16083" lon="9.08202">
        <ele>1198.2</ele>
        <time>2015-06-25T04:49:54Z</time>
      </trkpt>
      <trkpt lat="42.16073" lon="9.08217">
        <ele>1196.8</ele>
        <time>2015-06-25T04:50:06Z</time>
      </trkpt>
      <trkpt lat="42.16058" lon="9.08238">
        <ele>1195.6</ele>
        <time>2015-06-25T04:50:25Z</time>
      </trkpt>
      <trkpt lat="42.16058" lon="9.08243">
        <ele>1195.4</ele>
        <time>2015-06-25T04:50:29Z</time>
      </trkpt>
      <trkpt lat="42.16057" lon="9.0825">
        <ele>1195</ele>
        <time>2015-06-25T04:50:35Z</time>
      </trkpt>
      <trkpt lat="42.16056" lon="9.08254">
        <ele>1193.6</ele>
        <time>2015-06-25T04:50:42Z</time>
      </trkpt>
      <trkpt lat="42.16054" lon="9.08257">
        <ele>1193</ele>
        <time>2015-06-25T04:50:47Z</time>
      </trkpt>
      <trkpt lat="42.16053" lon="9.08262">
        <ele>1191.6</ele>
        <time>2015-06-25T04:50:54Z</time>
      </trkpt>
      <trkpt lat="42.16052" lon="9.08266">
        <ele>1191.2</ele>
        <time>2015-06-25T04:50:57Z</time>
      </trkpt>
      <trkpt lat="42.16052" lon="9.08267">
        <ele>1191</ele>
        <time>2015-06-25T04:50:59Z</time>
      </trkpt>
      <trkpt lat="42.16052" lon="9.08272">
        <ele>1190.4</ele>
        <time>2015-06-25T04:51:03Z</time>
      </trkpt>
      <trkpt lat="42.16052" lon="9.08276">
        <ele>1189.8</ele>
        <time>2015-06-25T04:51:06Z</time>
      </trkpt>
      <trkpt lat="42.16051" lon="9.08282">
        <ele>1189.2</ele>
        <time>2015-06-25T04:51:11Z</time>
      </trkpt>
      <trkpt lat="42.16051" lon="9.08283">
        <ele>1189.2</ele>
        <time>2015-06-25T04:51:12Z</time>
      </trkpt>
      <trkpt lat="42.1605" lon="9.08285">
        <ele>1188.8</ele>
        <time>2015-06-25T04:51:15Z</time>
      </trkpt>
      <trkpt lat="42.1605" lon="9.08294">
        <ele>1188</ele>
        <time>2015-06-25T04:51:24Z</time>
      </trkpt>
      <trkpt lat="42.16049" lon="9.083">
        <ele>1187.2</ele>
        <time>2015-06-25T04:51:31Z</time>
      </trkpt>
      <trkpt lat="42.16046" lon="9.08307">
        <ele>1185.8</ele>
        <time>2015-06-25T04:51:39Z</time>
      </trkpt>
      <trkpt lat="42.16045" lon="9.08311">
        <ele>1185.4</ele>
        <time>2015-06-25T04:51:42Z</time>
      </trkpt>
      <trkpt lat="42.16044" lon="9.08316">
        <ele>1185</ele>
        <time>2015-06-25T04:51:46Z</time>
      </trkpt>
      <trkpt lat="42.16045" lon="9.0832">
        <ele>1184.6</ele>
        <time>2015-06-25T04:51:49Z</time>
      </trkpt>
      <trkpt lat="42.16046" lon="9.08324">
        <ele>1184</ele>
        <time>2015-06-25T04:51:53Z</time>
      </trkpt>
      <trkpt lat="42.16044" lon="9.08336">
        <ele>1183.4</ele>
        <time>2015-06-25T04:52:05Z</time>
      </trkpt>
      <trkpt lat="42.16046" lon="9.08345">
        <ele>1182</ele>
        <time>2015-06-25T04:52:17Z</time>
      </trkpt>
      <trkpt lat="42.1605" lon="9.08349">
        <ele>1181.4</ele>
        <time>2015-06-25T04:52:25Z</time>
      </trkpt>
      <trkpt lat="42.16052" lon="9.08352">
        <ele>1180.4</ele>
        <time>2015-06-25T04:52:31Z</time>
      </trkpt>
      <trkpt lat="42.16052" lon="9.08354">
        <ele>1180</ele>
        <time>2015-06-25T04:52:34Z</time>
      </trkpt>
      <trkpt lat="42.16053" lon="9.08355">
        <ele>1179.6</ele>
        <time>2015-06-25T04:52:36Z</time>
      </trkpt>
      <trkpt lat="42.16055" lon="9.08362">
        <ele>1177.6</ele>
        <time>2015-06-25T04:52:45Z</time>
      </trkpt>
      <trkpt lat="42.16056" lon="9.08372">
        <ele>1176.6</ele>
        <time>2015-06-25T04:52:56Z</time>
      </trkpt>
      <trkpt lat="42.16055" lon="9.0838">
        <ele>1175.6</ele>
        <time>2015-06-25T04:53:05Z</time>
      </trkpt>
      <trkpt lat="42.16056" lon="9.08386">
        <ele>1175</ele>
        <time>2015-06-25T04:53:10Z</time>
      </trkpt>
      <trkpt lat="42.16057" lon="9.08397">
        <ele>1173.6</ele>
        <time>2015-06-25T04:53:19Z</time>
      </trkpt>
      <trkpt lat="42.16056" lon="9.08402">
        <ele>1172.6</ele>
        <time>2015-06-25T04:53:25Z</time>
      </trkpt>
      <trkpt lat="42.16058" lon="9.08406">
        <ele>1171.4</ele>
        <time>2015-06-25T04:53:31Z</time>
      </trkpt>
      <trkpt lat="42.16062" lon="9.0841">
        <ele>1170</ele>
        <time>2015-06-25T04:53:40Z</time>
      </trkpt>
      <trkpt lat="42.16066" lon="9.08416">
        <ele>1169.2</ele>
        <time>2015-06-25T04:53:46Z</time>
      </trkpt>
      <trkpt lat="42.16069" lon="9.08418">
        <ele>1168.2</ele>
        <time>2015-06-25T04:53:51Z</time>
      </trkpt>
      <trkpt lat="42.16072" lon="9.08419">
        <ele>1166.8</ele>
        <time>2015-06-25T04:53:58Z</time>
      </trkpt>
      <trkpt lat="42.16077" lon="9.08422">
        <ele>1165.4</ele>
        <time>2015-06-25T04:54:06Z</time>
      </trkpt>
      <trkpt lat="42.16078" lon="9.08426">
        <ele>1164.6</ele>
        <time>2015-06-25T04:54:12Z</time>
      </trkpt>
      <trkpt lat="42.16081" lon="9.08443">
        <ele>1162.8</ele>
        <time>2015-06-25T04:54:28Z</time>
      </trkpt>
      <trkpt lat="42.16084" lon="9.08449">
        <ele>1162.6</ele>
        <time>2015-06-25T04:54:34Z</time>
      </trkpt>
      <trkpt lat="42.16084" lon="9.0845">
        <ele>1162.2</ele>
        <time>2015-06-25T04:54:35Z</time>
      </trkpt>
      <trkpt lat="42.16085" lon="9.08455">
        <ele>1161</ele>
        <time>2015-06-25T04:54:41Z</time>
      </trkpt>
      <trkpt lat="42.16086" lon="9.08459">
        <ele>1160</ele>
        <time>2015-06-25T04:54:49Z</time>
      </trkpt>
      <trkpt lat="42.16087" lon="9.08465">
        <ele>1159.4</ele>
        <time>2015-06-25T04:54:53Z</time>
      </trkpt>
      <trkpt lat="42.16087" lon="9.08471">
        <ele>1158.4</ele>
        <time>2015-06-25T04:55:00Z</time>
      </trkpt>
      <trkpt lat="42.16087" lon="9.0848">
        <ele>1157.4</ele>
        <time>2015-06-25T04:55:08Z</time>
      </trkpt>
      <trkpt lat="42.16089" lon="9.08489">
        <ele>1156.2</ele>
        <time>2015-06-25T04:55:17Z</time>
      </trkpt>
      <trkpt lat="42.1609" lon="9.08497">
        <ele>1155.2</ele>
        <time>2015-06-25T04:55:24Z</time>
      </trkpt>
      <trkpt lat="42.16089" lon="9.08508">
        <ele>1154</ele>
        <time>2015-06-25T04:55:33Z</time>
      </trkpt>
      <trkpt lat="42.16089" lon="9.08514">
        <ele>1153.4</ele>
        <time>2015-06-25T04:55:38Z</time>
      </trkpt>
      <trkpt lat="42.1609" lon="9.08519">
        <ele>1153</ele>
        <time>2015-06-25T04:55:42Z</time>
      </trkpt>
      <trkpt lat="42.1609" lon="9.08523">
        <ele>1152.8</ele>
        <time>2015-06-25T04:55:46Z</time>
      </trkpt>
      <trkpt lat="42.1609" lon="9.08526">
        <ele>1152.8</ele>
        <time>2015-06-25T04:55:49Z</time>
      </trkpt>
      <trkpt lat="42.16091" lon="9.0853">
        <ele>1152</ele>
        <time>2015-06-25T04:55:53Z</time>
      </trkpt>
      <trkpt lat="42.16092" lon="9.08531">
        <ele>1151.8</ele>
        <time>2015-06-25T04:55:55Z</time>
      </trkpt>
      <trkpt lat="42.16093" lon="9.08532">
        <ele>1151.6</ele>
        <time>2015-06-25T04:55:56Z</time>
      </trkpt>
      <trkpt lat="42.16093" lon="9.08534">
        <ele>1151.6</ele>
        <time>2015-06-25T04:55:57Z</time>
      </trkpt>
      <trkpt lat="42.16099" lon="9.08549">
        <ele>1150.2</ele>
        <time>2015-06-25T04:56:08Z</time>
      </trkpt>
      <trkpt lat="42.16103" lon="9.08562">
        <ele>1149.4</ele>
        <time>2015-06-25T04:56:21Z</time>
      </trkpt>
      <trkpt lat="42.16104" lon="9.08572">
        <ele>1148.4</ele>
        <time>2015-06-25T04:56:30Z</time>
      </trkpt>
      <trkpt lat="42.16105" lon="9.0858">
        <ele>1147.6</ele>
        <time>2015-06-25T04:56:37Z</time>
      </trkpt>
      <trkpt lat="42.16105" lon="9.08589">
        <ele>1146.2</ele>
        <time>2015-06-25T04:56:45Z</time>
      </trkpt>
      <trkpt lat="42.16107" lon="9.08594">
        <ele>1145.2</ele>
        <time>2015-06-25T04:56:53Z</time>
      </trkpt>
      <trkpt lat="42.1611" lon="9.08599">
        <ele>1144</ele>
        <time>2015-06-25T04:57:03Z</time>
      </trkpt>
      <trkpt lat="42.16112" lon="9.08607">
        <ele>1143</ele>
        <time>2015-06-25T04:57:12Z</time>
      </trkpt>
      <trkpt lat="42.16115" lon="9.08612">
        <ele>1142.8</ele>
        <time>2015-06-25T04:57:17Z</time>
      </trkpt>
      <trkpt lat="42.16116" lon="9.08617">
        <ele>1142.4</ele>
        <time>2015-06-25T04:57:20Z</time>
      </trkpt>
      <trkpt lat="42.16117" lon="9.08621">
        <ele>1142.2</ele>
        <time>2015-06-25T04:57:23Z</time>
      </trkpt>
      <trkpt lat="42.16117" lon="9.08623">
        <ele>1141.8</ele>
        <time>2015-06-25T04:57:25Z</time>
      </trkpt>
      <trkpt lat="42.16122" lon="9.08652">
        <ele>1140.4</ele>
        <time>2015-06-25T04:57:44Z</time>
      </trkpt>
      <trkpt lat="42.16123" lon="9.08667">
        <ele>1139.6</ele>
        <time>2015-06-25T04:57:55Z</time>
      </trkpt>
      <trkpt lat="42.1613" lon="9.0868">
        <ele>1138.2</ele>
        <time>2015-06-25T04:58:05Z</time>
      </trkpt>
      <trkpt lat="42.16133" lon="9.0869">
        <ele>1137.4</ele>
        <time>2015-06-25T04:58:13Z</time>
      </trkpt>
      <trkpt lat="42.16133" lon="9.08708">
        <ele>1136</ele>
        <time>2015-06-25T04:58:24Z</time>
      </trkpt>
      <trkpt lat="42.16138" lon="9.08719">
        <ele>1135</ele>
        <time>2015-06-25T04:58:33Z</time>
      </trkpt>
      <trkpt lat="42.16144" lon="9.08729">
        <ele>1133.8</ele>
        <time>2015-06-25T04:58:41Z</time>
      </trkpt>
      <trkpt lat="42.16143" lon="9.08743">
        <ele>1132.6</ele>
        <time>2015-06-25T04:58:52Z</time>
      </trkpt>
      <trkpt lat="42.1614" lon="9.08756">
        <ele>1131.6</ele>
        <time>2015-06-25T04:59:03Z</time>
      </trkpt>
      <trkpt lat="42.16138" lon="9.08769">
        <ele>1130.2</ele>
        <time>2015-06-25T04:59:13Z</time>
      </trkpt>
      <trkpt lat="42.16133" lon="9.08784">
        <ele>1129.4</ele>
        <time>2015-06-25T04:59:26Z</time>
      </trkpt>
      <trkpt lat="42.1613" lon="9.08796">
        <ele>1128.6</ele>
        <time>2015-06-25T04:59:34Z</time>
      </trkpt>
      <trkpt lat="42.16131" lon="9.08807">
        <ele>1127.4</ele>
        <time>2015-06-25T04:59:42Z</time>
      </trkpt>
      <trkpt lat="42.16129" lon="9.08813">
        <ele>1126.6</ele>
        <time>2015-06-25T04:59:48Z</time>
      </trkpt>
      <trkpt lat="42.16128" lon="9.08818">
        <ele>1125.4</ele>
        <time>2015-06-25T04:59:54Z</time>
      </trkpt>
      <trkpt lat="42.16124" lon="9.08821">
        <ele>1124.2</ele>
        <time>2015-06-25T05:00:02Z</time>
      </trkpt>
      <trkpt lat="42.16123" lon="9.08833">
        <ele>1123.2</ele>
        <time>2015-06-25T05:00:12Z</time>
      </trkpt>
      <trkpt lat="42.16127" lon="9.08848">
        <ele>1122.4</ele>
        <time>2015-06-25T05:00:23Z</time>
      </trkpt>
      <trkpt lat="42.1613" lon="9.08861">
        <ele>1122.2</ele>
        <time>2015-06-25T05:00:30Z</time>
      </trkpt>
      <trkpt lat="42.16132" lon="9.0887">
        <ele>1121.4</ele>
        <time>2015-06-25T05:00:36Z</time>
      </trkpt>
      <trkpt lat="42.16134" lon="9.08882">
        <ele>1119.8</ele>
        <time>2015-06-25T05:00:45Z</time>
      </trkpt>
      <trkpt lat="42.16136" lon="9.08887">
        <ele>1119</ele>
        <time>2015-06-25T05:00:51Z</time>
      </trkpt>
      <trkpt lat="42.16139" lon="9.08891">
        <ele>1118.2</ele>
        <time>2015-06-25T05:00:55Z</time>
      </trkpt>
      <trkpt lat="42.16141" lon="9.08894">
        <ele>1117.8</ele>
        <time>2015-06-25T05:00:59Z</time>
      </trkpt>
      <trkpt lat="42.16145" lon="9.089">
        <ele>1116.6</ele>
        <time>2015-06-25T05:01:05Z</time>
      </trkpt>
      <trkpt lat="42.16148" lon="9.08908">
        <ele>1115.8</ele>
        <time>2015-06-25T05:01:11Z</time>
      </trkpt>
      <trkpt lat="42.16152" lon="9.08915">
        <ele>1114.4</ele>
        <time>2015-06-25T05:01:18Z</time>
      </trkpt>
      <trkpt lat="42.16156" lon="9.08922">
        <ele>1113.4</ele>
        <time>2015-06-25T05:01:24Z</time>
      </trkpt>
      <trkpt lat="42.16155" lon="9.08929">
        <ele>1112</ele>
        <time>2015-06-25T05:01:32Z</time>
      </trkpt>
      <trkpt lat="42.16156" lon="9.08934">
        <ele>1110.8</ele>
        <time>2015-06-25T05:01:39Z</time>
      </trkpt>
      <trkpt lat="42.16151" lon="9.08948">
        <ele>1109.2</ele>
        <time>2015-06-25T05:02:38Z</time>
      </trkpt>
      <trkpt lat="42.16159" lon="9.08959">
        <ele>1108</ele>
        <time>2015-06-25T05:02:52Z</time>
      </trkpt>
      <trkpt lat="42.16168" lon="9.08969">
        <ele>1107.4</ele>
        <time>2015-06-25T05:03:02Z</time>
      </trkpt>
      <trkpt lat="42.16171" lon="9.08977">
        <ele>1106.4</ele>
        <time>2015-06-25T05:03:10Z</time>
      </trkpt>
      <trkpt lat="42.16177" lon="9.08987">
        <ele>1105.2</ele>
        <time>2015-06-25T05:03:19Z</time>
      </trkpt>
      <trkpt lat="42.16179" lon="9.08989">
        <ele>1104.8</ele>
        <time>2015-06-25T05:03:21Z</time>
      </trkpt>
      <trkpt lat="42.16184" lon="9.08996">
        <ele>1104.4</ele>
        <time>2015-06-25T05:03:26Z</time>
      </trkpt>
      <trkpt lat="42.16187" lon="9.08999">
        <ele>1104.2</ele>
        <time>2015-06-25T05:03:29Z</time>
      </trkpt>
      <trkpt lat="42.16188" lon="9.09003">
        <ele>1104.2</ele>
        <time>2015-06-25T05:03:32Z</time>
      </trkpt>
      <trkpt lat="42.16188" lon="9.09004">
        <ele>1104</ele>
        <time>2015-06-25T05:03:33Z</time>
      </trkpt>
      <trkpt lat="42.16188" lon="9.09009">
        <ele>1103.6</ele>
        <time>2015-06-25T05:03:36Z</time>
      </trkpt>
      <trkpt lat="42.1619" lon="9.09017">
        <ele>1103.2</ele>
        <time>2015-06-25T05:03:41Z</time>
      </trkpt>
      <trkpt lat="42.16191" lon="9.09022">
        <ele>1103</ele>
        <time>2015-06-25T05:03:44Z</time>
      </trkpt>
      <trkpt lat="42.16194" lon="9.09033">
        <ele>1102.4</ele>
        <time>2015-06-25T05:03:53Z</time>
      </trkpt>
      <trkpt lat="42.16198" lon="9.09039">
        <ele>1102.2</ele>
        <time>2015-06-25T05:03:58Z</time>
      </trkpt>
      <trkpt lat="42.16203" lon="9.09053">
        <ele>1101</ele>
        <time>2015-06-25T05:04:08Z</time>
      </trkpt>
      <trkpt lat="42.16205" lon="9.09061">
        <ele>1100.2</ele>
        <time>2015-06-25T05:04:15Z</time>
      </trkpt>
      <trkpt lat="42.16208" lon="9.09069">
        <ele>1099.2</ele>
        <time>2015-06-25T05:04:22Z</time>
      </trkpt>
      <trkpt lat="42.1621" lon="9.09072">
        <ele>1098.6</ele>
        <time>2015-06-25T05:04:26Z</time>
      </trkpt>
      <trkpt lat="42.16211" lon="9.09073">
        <ele>1098</ele>
        <time>2015-06-25T05:04:29Z</time>
      </trkpt>
      <trkpt lat="42.16213" lon="9.09076">
        <ele>1096.8</ele>
        <time>2015-06-25T05:04:37Z</time>
      </trkpt>
      <trkpt lat="42.16215" lon="9.0908">
        <ele>1095.8</ele>
        <time>2015-06-25T05:04:43Z</time>
      </trkpt>
      <trkpt lat="42.16217" lon="9.09087">
        <ele>1095</ele>
        <time>2015-06-25T05:04:48Z</time>
      </trkpt>
      <trkpt lat="42.16218" lon="9.09088">
        <ele>1095</ele>
        <time>2015-06-25T05:04:49Z</time>
      </trkpt>
      <trkpt lat="42.16218" lon="9.09091">
        <ele>1094.4</ele>
        <time>2015-06-25T05:04:52Z</time>
      </trkpt>
      <trkpt lat="42.16221" lon="9.09093">
        <ele>1094</ele>
        <time>2015-06-25T05:04:55Z</time>
      </trkpt>
      <trkpt lat="42.16221" lon="9.09093">
        <ele>1093.8</ele>
        <time>2015-06-25T05:04:56Z</time>
      </trkpt>
      <trkpt lat="42.16222" lon="9.09095">
        <ele>1093.4</ele>
        <time>2015-06-25T05:04:58Z</time>
      </trkpt>
      <trkpt lat="42.16224" lon="9.09102">
        <ele>1093</ele>
        <time>2015-06-25T05:05:02Z</time>
      </trkpt>
      <trkpt lat="42.16228" lon="9.09106">
        <ele>1092.4</ele>
        <time>2015-06-25T05:05:06Z</time>
      </trkpt>
      <trkpt lat="42.16228" lon="9.09107">
        <ele>1092.4</ele>
        <time>2015-06-25T05:05:07Z</time>
      </trkpt>
      <trkpt lat="42.16229" lon="9.09108">
        <ele>1092.4</ele>
        <time>2015-06-25T05:05:09Z</time>
      </trkpt>
      <trkpt lat="42.16231" lon="9.09111">
        <ele>1091.8</ele>
        <time>2015-06-25T05:05:14Z</time>
      </trkpt>
      <trkpt lat="42.16233" lon="9.09123">
        <ele>1090.8</ele>
        <time>2015-06-25T05:05:22Z</time>
      </trkpt>
      <trkpt lat="42.16235" lon="9.09131">
        <ele>1089.8</ele>
        <time>2015-06-25T05:05:29Z</time>
      </trkpt>
      <trkpt lat="42.16238" lon="9.09137">
        <ele>1089</ele>
        <time>2015-06-25T05:05:35Z</time>
      </trkpt>
      <trkpt lat="42.16239" lon="9.09139">
        <ele>1088.6</ele>
        <time>2015-06-25T05:05:37Z</time>
      </trkpt>
      <trkpt lat="42.16241" lon="9.09146">
        <ele>1087.8</ele>
        <time>2015-06-25T05:05:41Z</time>
      </trkpt>
      <trkpt lat="42.16242" lon="9.09147">
        <ele>1087.6</ele>
        <time>2015-06-25T05:05:42Z</time>
      </trkpt>
      <trkpt lat="42.16244" lon="9.09152">
        <ele>1087</ele>
        <time>2015-06-25T05:05:47Z</time>
      </trkpt>
      <trkpt lat="42.16246" lon="9.09157">
        <ele>1086</ele>
        <time>2015-06-25T05:05:51Z</time>
      </trkpt>
      <trkpt lat="42.16246" lon="9.09159">
        <ele>1085.6</ele>
        <time>2015-06-25T05:05:53Z</time>
      </trkpt>
      <trkpt lat="42.16247" lon="9.0916">
        <ele>1085.6</ele>
        <time>2015-06-25T05:05:54Z</time>
      </trkpt>
      <trkpt lat="42.16248" lon="9.09162">
        <ele>1084.8</ele>
        <time>2015-06-25T05:05:58Z</time>
      </trkpt>
      <trkpt lat="42.1625" lon="9.09169">
        <ele>1083.4</ele>
        <time>2015-06-25T05:06:05Z</time>
      </trkpt>
      <trkpt lat="42.16255" lon="9.09176">
        <ele>1082.4</ele>
        <time>2015-06-25T05:06:12Z</time>
      </trkpt>
      <trkpt lat="42.16261" lon="9.09186">
        <ele>1081.2</ele>
        <time>2015-06-25T05:06:21Z</time>
      </trkpt>
      <trkpt lat="42.16267" lon="9.09192">
        <ele>1080</ele>
        <time>2015-06-25T05:06:29Z</time>
      </trkpt>
      <trkpt lat="42.16267" lon="9.09193">
        <ele>1080</ele>
        <time>2015-06-25T05:06:30Z</time>
      </trkpt>
      <trkpt lat="42.1627" lon="9.09202">
        <ele>1079</ele>
        <time>2015-06-25T05:06:39Z</time>
      </trkpt>
      <trkpt lat="42.16273" lon="9.09208">
        <ele>1078.2</ele>
        <time>2015-06-25T05:06:47Z</time>
      </trkpt>
      <trkpt lat="42.16274" lon="9.09214">
        <ele>1077.2</ele>
        <time>2015-06-25T05:06:55Z</time>
      </trkpt>
      <trkpt lat="42.16275" lon="9.09216">
        <ele>1077</ele>
        <time>2015-06-25T05:06:56Z</time>
      </trkpt>
      <trkpt lat="42.16277" lon="9.09224">
        <ele>1076.2</ele>
        <time>2015-06-25T05:07:04Z</time>
      </trkpt>
      <trkpt lat="42.16281" lon="9.09229">
        <ele>1075.2</ele>
        <time>2015-06-25T05:07:11Z</time>
      </trkpt>
      <trkpt lat="42.16287" lon="9.09237">
        <ele>1074.2</ele>
        <time>2015-06-25T05:07:19Z</time>
      </trkpt>
      <trkpt lat="42.16289" lon="9.09245">
        <ele>1073</ele>
        <time>2015-06-25T05:07:28Z</time>
      </trkpt>
      <trkpt lat="42.16292" lon="9.09253">
        <ele>1072</ele>
        <time>2015-06-25T05:07:41Z</time>
      </trkpt>
      <trkpt lat="42.16293" lon="9.09262">
        <ele>1071</ele>
        <time>2015-06-25T05:07:50Z</time>
      </trkpt>
      <trkpt lat="42.16298" lon="9.0927">
        <ele>1070</ele>
        <time>2015-06-25T05:07:59Z</time>
      </trkpt>
      <trkpt lat="42.16301" lon="9.09274">
        <ele>1069.6</ele>
        <time>2015-06-25T05:08:04Z</time>
      </trkpt>
      <trkpt lat="42.16303" lon="9.09277">
        <ele>1069.4</ele>
        <time>2015-06-25T05:08:07Z</time>
      </trkpt>
      <trkpt lat="42.16305" lon="9.09279">
        <ele>1069</ele>
        <time>2015-06-25T05:08:09Z</time>
      </trkpt>
      <trkpt lat="42.16311" lon="9.09289">
        <ele>1068</ele>
        <time>2015-06-25T05:08:19Z</time>
      </trkpt>
      <trkpt lat="42.16315" lon="9.09297">
        <ele>1066.8</ele>
        <time>2015-06-25T05:08:29Z</time>
      </trkpt>
      <trkpt lat="42.16315" lon="9.09297">
        <ele>1065.6</ele>
        <time>2015-06-25T05:08:48Z</time>
      </trkpt>
      <trkpt lat="42.16313" lon="9.09302">
        <ele>1065.8</ele>
        <time>2015-06-25T05:10:50Z</time>
      </trkpt>
      <trkpt lat="42.16321" lon="9.09312">
        <ele>1065.8</ele>
        <time>2015-06-25T05:12:32Z</time>
      </trkpt>
      <trkpt lat="42.16328" lon="9.09323">
        <ele>1064.8</ele>
        <time>2015-06-25T05:12:45Z</time>
      </trkpt>
      <trkpt lat="42.16333" lon="9.09331">
        <ele>1063.8</ele>
        <time>2015-06-25T05:12:54Z</time>
      </trkpt>
      <trkpt lat="42.16338" lon="9.09337">
        <ele>1063.2</ele>
        <time>2015-06-25T05:13:02Z</time>
      </trkpt>
      <trkpt lat="42.16342" lon="9.09346">
        <ele>1062</ele>
        <time>2015-06-25T05:13:11Z</time>
      </trkpt>
      <trkpt lat="42.16348" lon="9.09355">
        <ele>1060.8</ele>
        <time>2015-06-25T05:13:21Z</time>
      </trkpt>
      <trkpt lat="42.16352" lon="9.09362">
        <ele>1060</ele>
        <time>2015-06-25T05:13:30Z</time>
      </trkpt>
      <trkpt lat="42.16358" lon="9.09371">
        <ele>1058.8</ele>
        <time>2015-06-25T05:13:42Z</time>
      </trkpt>
      <trkpt lat="42.16363" lon="9.09373">
        <ele>1057.8</ele>
        <time>2015-06-25T05:13:52Z</time>
      </trkpt>
      <trkpt lat="42.16365" lon="9.09375">
        <ele>1057.8</ele>
        <time>2015-06-25T05:13:54Z</time>
      </trkpt>
      <trkpt lat="42.16377" lon="9.09384">
        <ele>1056.6</ele>
        <time>2015-06-25T05:14:05Z</time>
      </trkpt>
      <trkpt lat="42.16392" lon="9.09398">
        <ele>1055.6</ele>
        <time>2015-06-25T05:14:21Z</time>
      </trkpt>
      <trkpt lat="42.16406" lon="9.09414">
        <ele>1054.6</ele>
        <time>2015-06-25T05:14:34Z</time>
      </trkpt>
      <trkpt lat="42.16411" lon="9.09427">
        <ele>1053.6</ele>
        <time>2015-06-25T05:14:44Z</time>
      </trkpt>
      <trkpt lat="42.16415" lon="9.09436">
        <ele>1052.8</ele>
        <time>2015-06-25T05:14:52Z</time>
      </trkpt>
      <trkpt lat="42.16419" lon="9.09444">
        <ele>1051.6</ele>
        <time>2015-06-25T05:15:00Z</time>
      </trkpt>
      <trkpt lat="42.16423" lon="9.09453">
        <ele>1050.8</ele>
        <time>2015-06-25T05:15:08Z</time>
      </trkpt>
      <trkpt lat="42.16428" lon="9.09463">
        <ele>1049.4</ele>
        <time>2015-06-25T05:15:17Z</time>
      </trkpt>
      <trkpt lat="42.16431" lon="9.09472">
        <ele>1048.2</ele>
        <time>2015-06-25T05:15:27Z</time>
      </trkpt>
      <trkpt lat="42.16436" lon="9.09488">
        <ele>1047.2</ele>
        <time>2015-06-25T05:15:39Z</time>
      </trkpt>
      <trkpt lat="42.16441" lon="9.09496">
        <ele>1046.4</ele>
        <time>2015-06-25T05:15:47Z</time>
      </trkpt>
      <trkpt lat="42.16445" lon="9.09505">
        <ele>1045.6</ele>
        <time>2015-06-25T05:15:55Z</time>
      </trkpt>
      <trkpt lat="42.1645" lon="9.09516">
        <ele>1044.2</ele>
        <time>2015-06-25T05:16:04Z</time>
      </trkpt>
      <trkpt lat="42.16458" lon="9.09524">
        <ele>1043</ele>
        <time>2015-06-25T05:16:14Z</time>
      </trkpt>
      <trkpt lat="42.16468" lon="9.09536">
        <ele>1042</ele>
        <time>2015-06-25T05:16:27Z</time>
      </trkpt>
      <trkpt lat="42.16477" lon="9.09553">
        <ele>1040.6</ele>
        <time>2015-06-25T05:16:41Z</time>
      </trkpt>
      <trkpt lat="42.16478" lon="9.0956">
        <ele>1040.4</ele>
        <time>2015-06-25T05:16:47Z</time>
      </trkpt>
      <trkpt lat="42.1648" lon="9.09563">
        <ele>1039.8</ele>
        <time>2015-06-25T05:16:51Z</time>
      </trkpt>
      <trkpt lat="42.16482" lon="9.09574">
        <ele>1038.6</ele>
        <time>2015-06-25T05:17:03Z</time>
      </trkpt>
      <trkpt lat="42.16486" lon="9.09582">
        <ele>1037.4</ele>
        <time>2015-06-25T05:17:15Z</time>
      </trkpt>
      <trkpt lat="42.16489" lon="9.09594">
        <ele>1036.4</ele>
        <time>2015-06-25T05:17:28Z</time>
      </trkpt>
      <trkpt lat="42.16491" lon="9.09607">
        <ele>1035.4</ele>
        <time>2015-06-25T05:17:39Z</time>
      </trkpt>
      <trkpt lat="42.16496" lon="9.09622">
        <ele>1034.4</ele>
        <time>2015-06-25T05:17:52Z</time>
      </trkpt>
      <trkpt lat="42.16499" lon="9.09641">
        <ele>1033</ele>
        <time>2015-06-25T05:18:06Z</time>
      </trkpt>
      <trkpt lat="42.16502" lon="9.09667">
        <ele>1032</ele>
        <time>2015-06-25T05:18:24Z</time>
      </trkpt>
      <trkpt lat="42.16501" lon="9.09686">
        <ele>1031</ele>
        <time>2015-06-25T05:18:36Z</time>
      </trkpt>
      <trkpt lat="42.16501" lon="9.09695">
        <ele>1030.2</ele>
        <time>2015-06-25T05:18:43Z</time>
      </trkpt>
      <trkpt lat="42.16505" lon="9.09709">
        <ele>1028.8</ele>
        <time>2015-06-25T05:18:52Z</time>
      </trkpt>
      <trkpt lat="42.16509" lon="9.0972">
        <ele>1028</ele>
        <time>2015-06-25T05:19:01Z</time>
      </trkpt>
      <trkpt lat="42.16523" lon="9.09735">
        <ele>1026.2</ele>
        <time>2015-06-25T05:19:22Z</time>
      </trkpt>
      <trkpt lat="42.16527" lon="9.09741">
        <ele>1026</ele>
        <time>2015-06-25T05:19:29Z</time>
      </trkpt>
      <trkpt lat="42.16532" lon="9.09752">
        <ele>1024.6</ele>
        <time>2015-06-25T05:19:37Z</time>
      </trkpt>
      <trkpt lat="42.16536" lon="9.09758">
        <ele>1023.4</ele>
        <time>2015-06-25T05:19:45Z</time>
      </trkpt>
      <trkpt lat="42.16544" lon="9.09771">
        <ele>1022.4</ele>
        <time>2015-06-25T05:19:56Z</time>
      </trkpt>
      <trkpt lat="42.16555" lon="9.09786">
        <ele>1021.4</ele>
        <time>2015-06-25T05:20:06Z</time>
      </trkpt>
      <trkpt lat="42.16559" lon="9.09793">
        <ele>1020.2</ele>
        <time>2015-06-25T05:20:14Z</time>
      </trkpt>
      <trkpt lat="42.16562" lon="9.09799">
        <ele>1019.4</ele>
        <time>2015-06-25T05:20:21Z</time>
      </trkpt>
      <trkpt lat="42.16568" lon="9.0981">
        <ele>1018</ele>
        <time>2015-06-25T05:20:32Z</time>
      </trkpt>
      <trkpt lat="42.1657" lon="9.09818">
        <ele>1017</ele>
        <time>2015-06-25T05:20:40Z</time>
      </trkpt>
      <trkpt lat="42.16573" lon="9.09822">
        <ele>1015.8</ele>
        <time>2015-06-25T05:20:48Z</time>
      </trkpt>
      <trkpt lat="42.16579" lon="9.09829">
        <ele>1015</ele>
        <time>2015-06-25T05:20:57Z</time>
      </trkpt>
      <trkpt lat="42.16579" lon="9.0983">
        <ele>1014.8</ele>
        <time>2015-06-25T05:20:59Z</time>
      </trkpt>
      <trkpt lat="42.16579" lon="9.09837">
        <ele>1013.8</ele>
        <time>2015-06-25T05:21:06Z</time>
      </trkpt>
      <trkpt lat="42.16581" lon="9.09854">
        <ele>1012.4</ele>
        <time>2015-06-25T05:21:19Z</time>
      </trkpt>
      <trkpt lat="42.16586" lon="9.09864">
        <ele>1011.8</ele>
        <time>2015-06-25T05:21:26Z</time>
      </trkpt>
      <trkpt lat="42.16591" lon="9.09874">
        <ele>1010.8</ele>
        <time>2015-06-25T05:21:34Z</time>
      </trkpt>
      <trkpt lat="42.16594" lon="9.09886">
        <ele>1009.8</ele>
        <time>2015-06-25T05:21:43Z</time>
      </trkpt>
      <trkpt lat="42.16595" lon="9.09896">
        <ele>1008.8</ele>
        <time>2015-06-25T05:21:52Z</time>
      </trkpt>
      <trkpt lat="42.16595" lon="9.09904">
        <ele>1007.8</ele>
        <time>2015-06-25T05:21:59Z</time>
      </trkpt>
      <trkpt lat="42.16594" lon="9.09913">
        <ele>1006.8</ele>
        <time>2015-06-25T05:22:06Z</time>
      </trkpt>
      <trkpt lat="42.16596" lon="9.09925">
        <ele>1005.8</ele>
        <time>2015-06-25T05:22:13Z</time>
      </trkpt>
      <trkpt lat="42.166" lon="9.09934">
        <ele>1005</ele>
        <time>2015-06-25T05:22:19Z</time>
      </trkpt>
      <trkpt lat="42.16604" lon="9.09942">
        <ele>1003.6</ele>
        <time>2015-06-25T05:22:26Z</time>
      </trkpt>
      <trkpt lat="42.16607" lon="9.09947">
        <ele>1002.8</ele>
        <time>2015-06-25T05:22:32Z</time>
      </trkpt>
      <trkpt lat="42.1661" lon="9.09952">
        <ele>1001</ele>
        <time>2015-06-25T05:22:46Z</time>
      </trkpt>
      <trkpt lat="42.16613" lon="9.09961">
        <ele>1000.4</ele>
        <time>2015-06-25T05:22:58Z</time>
      </trkpt>
      <trkpt lat="42.16614" lon="9.09975">
        <ele>998.8</ele>
        <time>2015-06-25T05:23:09Z</time>
      </trkpt>
      <trkpt lat="42.16619" lon="9.09992">
        <ele>998.4</ele>
        <time>2015-06-25T05:23:23Z</time>
      </trkpt>
      <trkpt lat="42.1662" lon="9.09994">
        <ele>998.2</ele>
        <time>2015-06-25T05:23:25Z</time>
      </trkpt>
      <trkpt lat="42.1662" lon="9.09996">
        <ele>998</ele>
        <time>2015-06-25T05:23:27Z</time>
      </trkpt>
      <trkpt lat="42.16621" lon="9.09997">
        <ele>997.8</ele>
        <time>2015-06-25T05:23:28Z</time>
      </trkpt>
      <trkpt lat="42.16621" lon="9.10002">
        <ele>996.6</ele>
        <time>2015-06-25T05:23:34Z</time>
      </trkpt>
      <trkpt lat="42.16624" lon="9.10004">
        <ele>995.4</ele>
        <time>2015-06-25T05:23:40Z</time>
      </trkpt>
      <trkpt lat="42.16627" lon="9.10005">
        <ele>994</ele>
        <time>2015-06-25T05:23:47Z</time>
      </trkpt>
      <trkpt lat="42.16633" lon="9.10008">
        <ele>992.8</ele>
        <time>2015-06-25T05:23:55Z</time>
      </trkpt>
      <trkpt lat="42.16633" lon="9.10009">
        <ele>992.8</ele>
        <time>2015-06-25T05:23:56Z</time>
      </trkpt>
      <trkpt lat="42.16636" lon="9.10011">
        <ele>992.4</ele>
        <time>2015-06-25T05:23:58Z</time>
      </trkpt>
      <trkpt lat="42.16641" lon="9.10015">
        <ele>992</ele>
        <time>2015-06-25T05:24:02Z</time>
      </trkpt>
      <trkpt lat="42.16648" lon="9.10021">
        <ele>991</ele>
        <time>2015-06-25T05:24:10Z</time>
      </trkpt>
      <trkpt lat="42.16652" lon="9.10021">
        <ele>990.6</ele>
        <time>2015-06-25T05:24:15Z</time>
      </trkpt>
      <trkpt lat="42.16656" lon="9.10021">
        <ele>990.2</ele>
        <time>2015-06-25T05:24:20Z</time>
      </trkpt>
      <trkpt lat="42.16658" lon="9.10022">
        <ele>990</ele>
        <time>2015-06-25T05:24:22Z</time>
      </trkpt>
      <trkpt lat="42.16662" lon="9.10022">
        <ele>989.6</ele>
        <time>2015-06-25T05:24:27Z</time>
      </trkpt>
      <trkpt lat="42.16664" lon="9.10023">
        <ele>989</ele>
        <time>2015-06-25T05:24:30Z</time>
      </trkpt>
      <trkpt lat="42.1667" lon="9.10025">
        <ele>987.4</ele>
        <time>2015-06-25T05:24:51Z</time>
      </trkpt>
      <trkpt lat="42.16677" lon="9.10024">
        <ele>986.6</ele>
        <time>2015-06-25T05:25:06Z</time>
      </trkpt>
      <trkpt lat="42.1668" lon="9.10025">
        <ele>985.8</ele>
        <time>2015-06-25T05:25:13Z</time>
      </trkpt>
      <trkpt lat="42.16685" lon="9.10029">
        <ele>984.8</ele>
        <time>2015-06-25T05:25:20Z</time>
      </trkpt>
      <trkpt lat="42.16686" lon="9.10029">
        <ele>984.8</ele>
        <time>2015-06-25T05:25:21Z</time>
      </trkpt>
      <trkpt lat="42.16692" lon="9.10032">
        <ele>983</ele>
        <time>2015-06-25T05:25:39Z</time>
      </trkpt>
      <trkpt lat="42.16696" lon="9.10033">
        <ele>982.4</ele>
        <time>2015-06-25T05:25:46Z</time>
      </trkpt>
      <trkpt lat="42.16702" lon="9.10033">
        <ele>981.2</ele>
        <time>2015-06-25T05:25:54Z</time>
      </trkpt>
      <trkpt lat="42.16707" lon="9.10035">
        <ele>980.2</ele>
        <time>2015-06-25T05:26:01Z</time>
      </trkpt>
      <trkpt lat="42.16713" lon="9.10038">
        <ele>979</ele>
        <time>2015-06-25T05:26:09Z</time>
      </trkpt>
      <trkpt lat="42.16718" lon="9.10041">
        <ele>978</ele>
        <time>2015-06-25T05:26:16Z</time>
      </trkpt>
      <trkpt lat="42.16723" lon="9.10042">
        <ele>976.8</ele>
        <time>2015-06-25T05:26:23Z</time>
      </trkpt>
      <trkpt lat="42.16727" lon="9.10045">
        <ele>975.6</ele>
        <time>2015-06-25T05:26:30Z</time>
      </trkpt>
      <trkpt lat="42.16731" lon="9.10049">
        <ele>974.4</ele>
        <time>2015-06-25T05:26:39Z</time>
      </trkpt>
      <trkpt lat="42.16736" lon="9.10051">
        <ele>973.4</ele>
        <time>2015-06-25T05:26:46Z</time>
      </trkpt>
      <trkpt lat="42.16739" lon="9.10053">
        <ele>972.2</ele>
        <time>2015-06-25T05:26:53Z</time>
      </trkpt>
      <trkpt lat="42.16743" lon="9.10055">
        <ele>971.4</ele>
        <time>2015-06-25T05:26:59Z</time>
      </trkpt>
      <trkpt lat="42.16747" lon="9.10058">
        <ele>970.2</ele>
        <time>2015-06-25T05:27:05Z</time>
      </trkpt>
      <trkpt lat="42.16753" lon="9.10062">
        <ele>968.8</ele>
        <time>2015-06-25T05:27:13Z</time>
      </trkpt>
      <trkpt lat="42.16754" lon="9.10063">
        <ele>968.6</ele>
        <time>2015-06-25T05:27:14Z</time>
      </trkpt>
      <trkpt lat="42.16758" lon="9.10067">
        <ele>967.8</ele>
        <time>2015-06-25T05:27:19Z</time>
      </trkpt>
      <trkpt lat="42.16762" lon="9.1007">
        <ele>966.4</ele>
        <time>2015-06-25T05:27:27Z</time>
      </trkpt>
      <trkpt lat="42.16767" lon="9.10075">
        <ele>965.6</ele>
        <time>2015-06-25T05:27:34Z</time>
      </trkpt>
      <trkpt lat="42.16774" lon="9.10082">
        <ele>964.2</ele>
        <time>2015-06-25T05:27:43Z</time>
      </trkpt>
      <trkpt lat="42.16783" lon="9.1009">
        <ele>962.8</ele>
        <time>2015-06-25T05:27:55Z</time>
      </trkpt>
      <trkpt lat="42.16787" lon="9.10098">
        <ele>962.2</ele>
        <time>2015-06-25T05:28:04Z</time>
      </trkpt>
      <trkpt lat="42.16788" lon="9.10107">
        <ele>961</ele>
        <time>2015-06-25T05:28:13Z</time>
      </trkpt>
      <trkpt lat="42.16792" lon="9.10117">
        <ele>960</ele>
        <time>2015-06-25T05:28:20Z</time>
      </trkpt>
      <trkpt lat="42.16796" lon="9.10127">
        <ele>958.6</ele>
        <time>2015-06-25T05:28:28Z</time>
      </trkpt>
      <trkpt lat="42.168" lon="9.10127">
        <ele>957.4</ele>
        <time>2015-06-25T05:28:38Z</time>
      </trkpt>
      <trkpt lat="42.16803" lon="9.10124">
        <ele>956.6</ele>
        <time>2015-06-25T05:28:44Z</time>
      </trkpt>
      <trkpt lat="42.16805" lon="9.10118">
        <ele>955.2</ele>
        <time>2015-06-25T05:28:54Z</time>
      </trkpt>
      <trkpt lat="42.16806" lon="9.10115">
        <ele>954.4</ele>
        <time>2015-06-25T05:29:01Z</time>
      </trkpt>
      <trkpt lat="42.1681" lon="9.10112">
        <ele>953.6</ele>
        <time>2015-06-25T05:29:06Z</time>
      </trkpt>
      <trkpt lat="42.1681" lon="9.10111">
        <ele>953.4</ele>
        <time>2015-06-25T05:29:07Z</time>
      </trkpt>
      <trkpt lat="42.16812" lon="9.10108">
        <ele>952.6</ele>
        <time>2015-06-25T05:29:12Z</time>
      </trkpt>
      <trkpt lat="42.16813" lon="9.10108">
        <ele>952</ele>
        <time>2015-06-25T05:29:14Z</time>
      </trkpt>
      <trkpt lat="42.16822" lon="9.101">
        <ele>950.6</ele>
        <time>2015-06-25T05:29:38Z</time>
      </trkpt>
      <trkpt lat="42.16837" lon="9.10078">
        <ele>951.6</ele>
        <time>2015-06-25T05:31:09Z</time>
      </trkpt>
      <trkpt lat="42.16839" lon="9.10077">
        <ele>952.8</ele>
        <time>2015-06-25T05:31:27Z</time>
      </trkpt>
      <trkpt lat="42.16841" lon="9.10075">
        <ele>953.4</ele>
        <time>2015-06-25T05:31:36Z</time>
      </trkpt>
      <trkpt lat="42.16844" lon="9.10078">
        <ele>954.4</ele>
        <time>2015-06-25T05:31:52Z</time>
      </trkpt>
      <trkpt lat="42.16852" lon="9.1008">
        <ele>955.6</ele>
        <time>2015-06-25T05:32:05Z</time>
      </trkpt>
      <trkpt lat="42.1686" lon="9.10077">
        <ele>956.8</ele>
        <time>2015-06-25T05:32:22Z</time>
      </trkpt>
      <trkpt lat="42.16862" lon="9.10069">
        <ele>957.8</ele>
        <time>2015-06-25T05:32:35Z</time>
      </trkpt>
      <trkpt lat="42.16866" lon="9.10064">
        <ele>959</ele>
        <time>2015-06-25T05:32:49Z</time>
      </trkpt>
      <trkpt lat="42.16875" lon="9.10048">
        <ele>959.6</ele>
        <time>2015-06-25T05:33:13Z</time>
      </trkpt>
      <trkpt lat="42.16884" lon="9.10039">
        <ele>961.6</ele>
        <time>2015-06-25T05:33:28Z</time>
      </trkpt>
      <trkpt lat="42.16889" lon="9.10028">
        <ele>962.2</ele>
        <time>2015-06-25T05:33:45Z</time>
      </trkpt>
      <trkpt lat="42.16888" lon="9.10023">
        <ele>963.2</ele>
        <time>2015-06-25T05:33:55Z</time>
      </trkpt>
      <trkpt lat="42.16885" lon="9.10017">
        <ele>964.2</ele>
        <time>2015-06-25T05:34:05Z</time>
      </trkpt>
      <trkpt lat="42.16885" lon="9.10009">
        <ele>965.6</ele>
        <time>2015-06-25T05:34:16Z</time>
      </trkpt>
      <trkpt lat="42.16888" lon="9.10004">
        <ele>966.6</ele>
        <time>2015-06-25T05:34:27Z</time>
      </trkpt>
      <trkpt lat="42.16893" lon="9.10003">
        <ele>967.6</ele>
        <time>2015-06-25T05:34:37Z</time>
      </trkpt>
      <trkpt lat="42.16896" lon="9.10001">
        <ele>968.2</ele>
        <time>2015-06-25T05:34:41Z</time>
      </trkpt>
      <trkpt lat="42.16899" lon="9.09997">
        <ele>969</ele>
        <time>2015-06-25T05:34:47Z</time>
      </trkpt>
      <trkpt lat="42.16901" lon="9.09993">
        <ele>970.2</ele>
        <time>2015-06-25T05:34:58Z</time>
      </trkpt>
      <trkpt lat="42.16902" lon="9.09993">
        <ele>970.6</ele>
        <time>2015-06-25T05:35:04Z</time>
      </trkpt>
      <trkpt lat="42.16907" lon="9.09993">
        <ele>971.4</ele>
        <time>2015-06-25T05:35:08Z</time>
      </trkpt>
      <trkpt lat="42.16909" lon="9.09986">
        <ele>972.6</ele>
        <time>2015-06-25T05:35:16Z</time>
      </trkpt>
      <trkpt lat="42.16916" lon="9.09983">
        <ele>973.6</ele>
        <time>2015-06-25T05:35:29Z</time>
      </trkpt>
      <trkpt lat="42.16921" lon="9.09981">
        <ele>974.8</ele>
        <time>2015-06-25T05:35:39Z</time>
      </trkpt>
      <trkpt lat="42.16924" lon="9.09979">
        <ele>975.8</ele>
        <time>2015-06-25T05:35:48Z</time>
      </trkpt>
      <trkpt lat="42.16933" lon="9.09978">
        <ele>977.2</ele>
        <time>2015-06-25T05:36:00Z</time>
      </trkpt>
      <trkpt lat="42.1694" lon="9.09977">
        <ele>978.4</ele>
        <time>2015-06-25T05:36:12Z</time>
      </trkpt>
      <trkpt lat="42.16943" lon="9.0997">
        <ele>979.6</ele>
        <time>2015-06-25T05:36:24Z</time>
      </trkpt>
      <trkpt lat="42.16945" lon="9.09966">
        <ele>980.4</ele>
        <time>2015-06-25T05:36:30Z</time>
      </trkpt>
      <trkpt lat="42.16946" lon="9.09965">
        <ele>980.6</ele>
        <time>2015-06-25T05:36:32Z</time>
      </trkpt>
      <trkpt lat="42.16947" lon="9.0996">
        <ele>982.2</ele>
        <time>2015-06-25T05:36:44Z</time>
      </trkpt>
      <trkpt lat="42.16951" lon="9.09958">
        <ele>983.2</ele>
        <time>2015-06-25T05:36:54Z</time>
      </trkpt>
      <trkpt lat="42.16956" lon="9.09958">
        <ele>984.4</ele>
        <time>2015-06-25T05:37:04Z</time>
      </trkpt>
      <trkpt lat="42.16962" lon="9.09957">
        <ele>985.4</ele>
        <time>2015-06-25T05:37:13Z</time>
      </trkpt>
      <trkpt lat="42.16964" lon="9.09957">
        <ele>985.6</ele>
        <time>2015-06-25T05:37:14Z</time>
      </trkpt>
      <trkpt lat="42.16971" lon="9.09955">
        <ele>987</ele>
        <time>2015-06-25T05:37:24Z</time>
      </trkpt>
      <trkpt lat="42.16972" lon="9.09954">
        <ele>987</ele>
        <time>2015-06-25T05:37:25Z</time>
      </trkpt>
      <trkpt lat="42.16976" lon="9.09954">
        <ele>988</ele>
        <time>2015-06-25T05:37:34Z</time>
      </trkpt>
      <trkpt lat="42.1698" lon="9.09956">
        <ele>989.2</ele>
        <time>2015-06-25T05:37:43Z</time>
      </trkpt>
      <trkpt lat="42.16984" lon="9.09955">
        <ele>990.2</ele>
        <time>2015-06-25T05:37:52Z</time>
      </trkpt>
      <trkpt lat="42.16988" lon="9.09953">
        <ele>991</ele>
        <time>2015-06-25T05:37:59Z</time>
      </trkpt>
      <trkpt lat="42.16992" lon="9.09951">
        <ele>992.4</ele>
        <time>2015-06-25T05:38:07Z</time>
      </trkpt>
      <trkpt lat="42.16994" lon="9.09948">
        <ele>993.8</ele>
        <time>2015-06-25T05:38:17Z</time>
      </trkpt>
      <trkpt lat="42.16996" lon="9.09947">
        <ele>994.6</ele>
        <time>2015-06-25T05:38:24Z</time>
      </trkpt>
      <trkpt lat="42.17001" lon="9.09945">
        <ele>996</ele>
        <time>2015-06-25T05:38:33Z</time>
      </trkpt>
      <trkpt lat="42.17006" lon="9.09942">
        <ele>997.2</ele>
        <time>2015-06-25T05:38:42Z</time>
      </trkpt>
      <trkpt lat="42.17009" lon="9.09939">
        <ele>998.2</ele>
        <time>2015-06-25T05:38:51Z</time>
      </trkpt>
      <trkpt lat="42.17011" lon="9.09937">
        <ele>999</ele>
        <time>2015-06-25T05:38:57Z</time>
      </trkpt>
      <trkpt lat="42.17015" lon="9.09936">
        <ele>1000.8</ele>
        <time>2015-06-25T05:39:07Z</time>
      </trkpt>
      <trkpt lat="42.17019" lon="9.09936">
        <ele>1001.6</ele>
        <time>2015-06-25T05:39:16Z</time>
      </trkpt>
      <trkpt lat="42.17025" lon="9.09937">
        <ele>1003.2</ele>
        <time>2015-06-25T05:39:26Z</time>
      </trkpt>
      <trkpt lat="42.17028" lon="9.09936">
        <ele>1004</ele>
        <time>2015-06-25T05:39:35Z</time>
      </trkpt>
      <trkpt lat="42.1703" lon="9.09931">
        <ele>1005</ele>
        <time>2015-06-25T05:39:43Z</time>
      </trkpt>
      <trkpt lat="42.17032" lon="9.09932">
        <ele>1005.2</ele>
        <time>2015-06-25T05:39:46Z</time>
      </trkpt>
      <trkpt lat="42.17037" lon="9.09932">
        <ele>1006.2</ele>
        <time>2015-06-25T05:39:54Z</time>
      </trkpt>
      <trkpt lat="42.17039" lon="9.09926">
        <ele>1007.4</ele>
        <time>2015-06-25T05:40:02Z</time>
      </trkpt>
      <trkpt lat="42.1704" lon="9.09924">
        <ele>1007.6</ele>
        <time>2015-06-25T05:40:06Z</time>
      </trkpt>
      <trkpt lat="42.17045" lon="9.09921">
        <ele>1009</ele>
        <time>2015-06-25T05:40:17Z</time>
      </trkpt>
      <trkpt lat="42.17052" lon="9.09919">
        <ele>1010.2</ele>
        <time>2015-06-25T05:40:28Z</time>
      </trkpt>
      <trkpt lat="42.1706" lon="9.09918">
        <ele>1011.4</ele>
        <time>2015-06-25T05:40:44Z</time>
      </trkpt>
      <trkpt lat="42.17062" lon="9.09915">
        <ele>1012.4</ele>
        <time>2015-06-25T05:40:53Z</time>
      </trkpt>
      <trkpt lat="42.17065" lon="9.09913">
        <ele>1013.2</ele>
        <time>2015-06-25T05:41:02Z</time>
      </trkpt>
      <trkpt lat="42.17075" lon="9.09903">
        <ele>1014.8</ele>
        <time>2015-06-25T05:41:19Z</time>
      </trkpt>
      <trkpt lat="42.17106" lon="9.09864">
        <ele>1015.8</ele>
        <time>2015-06-25T05:42:16Z</time>
      </trkpt>
      <trkpt lat="42.1711" lon="9.09853">
        <ele>1016</ele>
        <time>2015-06-25T05:42:26Z</time>
      </trkpt>
      <trkpt lat="42.17128" lon="9.09831">
        <ele>1017</ele>
        <time>2015-06-25T05:43:07Z</time>
      </trkpt>
      <trkpt lat="42.1715" lon="9.09818">
        <ele>1017.8</ele>
        <time>2015-06-25T05:43:40Z</time>
      </trkpt>
      <trkpt lat="42.1715" lon="9.09818">
        <ele>1018</ele>
        <time>2015-06-25T05:43:42Z</time>
      </trkpt>
      <trkpt lat="42.17165" lon="9.09817">
        <ele>1019</ele>
        <time>2015-06-25T05:44:19Z</time>
      </trkpt>
      <trkpt lat="42.17169" lon="9.09813">
        <ele>1019.8</ele>
        <time>2015-06-25T05:44:29Z</time>
      </trkpt>
      <trkpt lat="42.17172" lon="9.09796">
        <ele>1021.2</ele>
        <time>2015-06-25T05:44:46Z</time>
      </trkpt>
      <trkpt lat="42.17183" lon="9.09762">
        <ele>1022.2</ele>
        <time>2015-06-25T05:45:19Z</time>
      </trkpt>
      <trkpt lat="42.17192" lon="9.0975">
        <ele>1023.4</ele>
        <time>2015-06-25T05:45:35Z</time>
      </trkpt>
      <trkpt lat="42.17201" lon="9.09754">
        <ele>1024.4</ele>
        <time>2015-06-25T05:45:50Z</time>
      </trkpt>
      <trkpt lat="42.17212" lon="9.09747">
        <ele>1025.6</ele>
        <time>2015-06-25T05:46:07Z</time>
      </trkpt>
      <trkpt lat="42.17224" lon="9.0974">
        <ele>1026.8</ele>
        <time>2015-06-25T05:46:24Z</time>
      </trkpt>
      <trkpt lat="42.1723" lon="9.09737">
        <ele>1027</ele>
        <time>2015-06-25T05:46:33Z</time>
      </trkpt>
      <trkpt lat="42.17242" lon="9.09723">
        <ele>1028.8</ele>
        <time>2015-06-25T05:46:54Z</time>
      </trkpt>
      <trkpt lat="42.17251" lon="9.09714">
        <ele>1029.4</ele>
        <time>2015-06-25T05:47:07Z</time>
      </trkpt>
      <trkpt lat="42.17256" lon="9.09715">
        <ele>1030</ele>
        <time>2015-06-25T05:47:13Z</time>
      </trkpt>
      <trkpt lat="42.1726" lon="9.09714">
        <ele>1030.6</ele>
        <time>2015-06-25T05:47:18Z</time>
      </trkpt>
      <trkpt lat="42.17264" lon="9.09711">
        <ele>1030.8</ele>
        <time>2015-06-25T05:47:22Z</time>
      </trkpt>
      <trkpt lat="42.17266" lon="9.09709">
        <ele>1031</ele>
        <time>2015-06-25T05:47:25Z</time>
      </trkpt>
      <trkpt lat="42.17287" lon="9.09689">
        <ele>1031.2</ele>
        <time>2015-06-25T05:47:57Z</time>
      </trkpt>
      <trkpt lat="42.17325" lon="9.09656">
        <ele>1030.6</ele>
        <time>2015-06-25T05:48:39Z</time>
      </trkpt>
      <trkpt lat="42.17352" lon="9.0961">
        <ele>1029.6</ele>
        <time>2015-06-25T05:49:23Z</time>
      </trkpt>
      <trkpt lat="42.17368" lon="9.09552">
        <ele>1029.8</ele>
        <time>2015-06-25T05:50:10Z</time>
      </trkpt>
      <trkpt lat="42.17375" lon="9.09536">
        <ele>1029</ele>
        <time>2015-06-25T05:50:26Z</time>
      </trkpt>
      <trkpt lat="42.17376" lon="9.09533">
        <ele>1028.8</ele>
        <time>2015-06-25T05:50:28Z</time>
      </trkpt>
      <trkpt lat="42.1739" lon="9.09512">
        <ele>1028.4</ele>
        <time>2015-06-25T05:50:48Z</time>
      </trkpt>
      <trkpt lat="42.17402" lon="9.09497">
        <ele>1030.2</ele>
        <time>2015-06-25T05:51:04Z</time>
      </trkpt>
      <trkpt lat="42.1741" lon="9.09484">
        <ele>1030.8</ele>
        <time>2015-06-25T05:51:22Z</time>
      </trkpt>
      <trkpt lat="42.17412" lon="9.09475">
        <ele>1031.4</ele>
        <time>2015-06-25T05:51:31Z</time>
      </trkpt>
      <trkpt lat="42.17414" lon="9.09473">
        <ele>1031.8</ele>
        <time>2015-06-25T05:51:35Z</time>
      </trkpt>
      <trkpt lat="42.17416" lon="9.0947">
        <ele>1032</ele>
        <time>2015-06-25T05:51:38Z</time>
      </trkpt>
      <trkpt lat="42.17418" lon="9.09469">
        <ele>1032.4</ele>
        <time>2015-06-25T05:51:40Z</time>
      </trkpt>
      <trkpt lat="42.1742" lon="9.09465">
        <ele>1033.4</ele>
        <time>2015-06-25T05:51:48Z</time>
      </trkpt>
      <trkpt lat="42.17421" lon="9.09458">
        <ele>1034.4</ele>
        <time>2015-06-25T05:51:59Z</time>
      </trkpt>
      <trkpt lat="42.17428" lon="9.0945">
        <ele>1035.2</ele>
        <time>2015-06-25T05:52:09Z</time>
      </trkpt>
      <trkpt lat="42.17433" lon="9.09445">
        <ele>1035.8</ele>
        <time>2015-06-25T05:52:16Z</time>
      </trkpt>
      <trkpt lat="42.17437" lon="9.09439">
        <ele>1037.2</ele>
        <time>2015-06-25T05:52:26Z</time>
      </trkpt>
      <trkpt lat="42.17432" lon="9.09385">
        <ele>1037.2</ele>
        <time>2015-06-25T05:53:32Z</time>
      </trkpt>
      <trkpt lat="42.17431" lon="9.09383">
        <ele>1037.4</ele>
        <time>2015-06-25T05:53:37Z</time>
      </trkpt>
      <trkpt lat="42.17432" lon="9.09373">
        <ele>1038.6</ele>
        <time>2015-06-25T05:53:49Z</time>
      </trkpt>
      <trkpt lat="42.17431" lon="9.09314">
        <ele>1039.2</ele>
        <time>2015-06-25T05:54:36Z</time>
      </trkpt>
      <trkpt lat="42.17432" lon="9.09308">
        <ele>1038.8</ele>
        <time>2015-06-25T05:54:43Z</time>
      </trkpt>
      <trkpt lat="42.17432" lon="9.09303">
        <ele>1038</ele>
        <time>2015-06-25T05:54:47Z</time>
      </trkpt>
      <trkpt lat="42.17431" lon="9.09296">
        <ele>1037.4</ele>
        <time>2015-06-25T05:54:53Z</time>
      </trkpt>
      <trkpt lat="42.1743" lon="9.09291">
        <ele>1037.2</ele>
        <time>2015-06-25T05:54:56Z</time>
      </trkpt>
      <trkpt lat="42.17431" lon="9.09286">
        <ele>1037</ele>
        <time>2015-06-25T05:55:01Z</time>
      </trkpt>
      <trkpt lat="42.17431" lon="9.09277">
        <ele>1036.6</ele>
        <time>2015-06-25T05:55:08Z</time>
      </trkpt>
      <trkpt lat="42.17431" lon="9.0927">
        <ele>1036.4</ele>
        <time>2015-06-25T05:55:12Z</time>
      </trkpt>
      <trkpt lat="42.17435" lon="9.09246">
        <ele>1034.4</ele>
        <time>2015-06-25T05:55:29Z</time>
      </trkpt>
      <trkpt lat="42.17444" lon="9.09225">
        <ele>1033.4</ele>
        <time>2015-06-25T05:55:45Z</time>
      </trkpt>
      <trkpt lat="42.17455" lon="9.09214">
        <ele>1032.4</ele>
        <time>2015-06-25T05:55:57Z</time>
      </trkpt>
      <trkpt lat="42.17466" lon="9.09202">
        <ele>1031</ele>
        <time>2015-06-25T05:56:10Z</time>
      </trkpt>
      <trkpt lat="42.17477" lon="9.0919">
        <ele>1029.8</ele>
        <time>2015-06-25T05:56:22Z</time>
      </trkpt>
      <trkpt lat="42.17497" lon="9.09166">
        <ele>1027.6</ele>
        <time>2015-06-25T05:56:55Z</time>
      </trkpt>
      <trkpt lat="42.17502" lon="9.09152">
        <ele>1027.2</ele>
        <time>2015-06-25T05:57:15Z</time>
      </trkpt>
      <trkpt lat="42.17512" lon="9.0914">
        <ele>1027.6</ele>
        <time>2015-06-25T05:57:25Z</time>
      </trkpt>
      <trkpt lat="42.17514" lon="9.09138">
        <ele>1027.8</ele>
        <time>2015-06-25T05:57:29Z</time>
      </trkpt>
      <trkpt lat="42.17519" lon="9.09132">
        <ele>1028.4</ele>
        <time>2015-06-25T05:57:38Z</time>
      </trkpt>
      <trkpt lat="42.17528" lon="9.09123">
        <ele>1028.8</ele>
        <time>2015-06-25T05:57:49Z</time>
      </trkpt>
      <trkpt lat="42.1754" lon="9.09111">
        <ele>1029.2</ele>
        <time>2015-06-25T05:58:03Z</time>
      </trkpt>
      <trkpt lat="42.17554" lon="9.09095">
        <ele>1029.8</ele>
        <time>2015-06-25T05:58:22Z</time>
      </trkpt>
      <trkpt lat="42.17581" lon="9.0906">
        <ele>1030.4</ele>
        <time>2015-06-25T05:58:59Z</time>
      </trkpt>
      <trkpt lat="42.17613" lon="9.09016">
        <ele>1030.6</ele>
        <time>2015-06-25T05:59:36Z</time>
      </trkpt>
      <trkpt lat="42.17614" lon="9.09014">
        <ele>1030.6</ele>
        <time>2015-06-25T05:59:37Z</time>
      </trkpt>
      <trkpt lat="42.17626" lon="9.08985">
        <ele>1031</ele>
        <time>2015-06-25T05:59:59Z</time>
      </trkpt>
      <trkpt lat="42.17628" lon="9.0898">
        <ele>1031.2</ele>
        <time>2015-06-25T06:00:03Z</time>
      </trkpt>
      <trkpt lat="42.17638" lon="9.08963">
        <ele>1032</ele>
        <time>2015-06-25T06:00:24Z</time>
      </trkpt>
      <trkpt lat="42.17641" lon="9.08948">
        <ele>1032.8</ele>
        <time>2015-06-25T06:00:39Z</time>
      </trkpt>
      <trkpt lat="42.17645" lon="9.08937">
        <ele>1033.4</ele>
        <time>2015-06-25T06:00:51Z</time>
      </trkpt>
      <trkpt lat="42.17655" lon="9.08909">
        <ele>1034.6</ele>
        <time>2015-06-25T06:01:15Z</time>
      </trkpt>
      <trkpt lat="42.17655" lon="9.08907">
        <ele>1034.6</ele>
        <time>2015-06-25T06:01:17Z</time>
      </trkpt>
      <trkpt lat="42.1766" lon="9.08882">
        <ele>1035.2</ele>
        <time>2015-06-25T06:01:38Z</time>
      </trkpt>
      <trkpt lat="42.17667" lon="9.0886">
        <ele>1035.8</ele>
        <time>2015-06-25T06:01:58Z</time>
      </trkpt>
      <trkpt lat="42.17669" lon="9.08853">
        <ele>1036.2</ele>
        <time>2015-06-25T06:02:04Z</time>
      </trkpt>
      <trkpt lat="42.17669" lon="9.08845">
        <ele>1036.8</ele>
        <time>2015-06-25T06:02:15Z</time>
      </trkpt>
      <trkpt lat="42.17672" lon="9.08829">
        <ele>1037.6</ele>
        <time>2015-06-25T06:02:27Z</time>
      </trkpt>
      <trkpt lat="42.17675" lon="9.08819">
        <ele>1037.8</ele>
        <time>2015-06-25T06:02:33Z</time>
      </trkpt>
      <trkpt lat="42.17682" lon="9.08805">
        <ele>1038.6</ele>
        <time>2015-06-25T06:02:48Z</time>
      </trkpt>
      <trkpt lat="42.17686" lon="9.088">
        <ele>1039.4</ele>
        <time>2015-06-25T06:02:55Z</time>
      </trkpt>
      <trkpt lat="42.17687" lon="9.08798">
        <ele>1039.6</ele>
        <time>2015-06-25T06:02:57Z</time>
      </trkpt>
      <trkpt lat="42.17693" lon="9.08786">
        <ele>1040.8</ele>
        <time>2015-06-25T06:03:09Z</time>
      </trkpt>
      <trkpt lat="42.17694" lon="9.08783">
        <ele>1041</ele>
        <time>2015-06-25T06:03:11Z</time>
      </trkpt>
      <trkpt lat="42.17696" lon="9.08781">
        <ele>1041.2</ele>
        <time>2015-06-25T06:03:14Z</time>
      </trkpt>
      <trkpt lat="42.17698" lon="9.08776">
        <ele>1041.4</ele>
        <time>2015-06-25T06:03:18Z</time>
      </trkpt>
      <trkpt lat="42.17704" lon="9.08763">
        <ele>1042.6</ele>
        <time>2015-06-25T06:03:32Z</time>
      </trkpt>
      <trkpt lat="42.17713" lon="9.08752">
        <ele>1043.6</ele>
        <time>2015-06-25T06:03:44Z</time>
      </trkpt>
      <trkpt lat="42.17715" lon="9.08752">
        <ele>1043.6</ele>
        <time>2015-06-25T06:03:46Z</time>
      </trkpt>
      <trkpt lat="42.17723" lon="9.08745">
        <ele>1044.8</ele>
        <time>2015-06-25T06:03:57Z</time>
      </trkpt>
      <trkpt lat="42.17734" lon="9.08741">
        <ele>1045.8</ele>
        <time>2015-06-25T06:04:11Z</time>
      </trkpt>
      <trkpt lat="42.17741" lon="9.08732">
        <ele>1047</ele>
        <time>2015-06-25T06:04:24Z</time>
      </trkpt>
      <trkpt lat="42.1775" lon="9.08714">
        <ele>1048.2</ele>
        <time>2015-06-25T06:04:47Z</time>
      </trkpt>
      <trkpt lat="42.17753" lon="9.0871">
        <ele>1048.2</ele>
        <time>2015-06-25T06:04:50Z</time>
      </trkpt>
      <trkpt lat="42.17757" lon="9.08706">
        <ele>1048</ele>
        <time>2015-06-25T06:04:54Z</time>
      </trkpt>
      <trkpt lat="42.17758" lon="9.08704">
        <ele>1048.2</ele>
        <time>2015-06-25T06:04:57Z</time>
      </trkpt>
      <trkpt lat="42.17768" lon="9.08687">
        <ele>1049</ele>
        <time>2015-06-25T06:05:16Z</time>
      </trkpt>
      <trkpt lat="42.1777" lon="9.08686">
        <ele>1049</ele>
        <time>2015-06-25T06:05:18Z</time>
      </trkpt>
      <trkpt lat="42.17773" lon="9.08684">
        <ele>1049</ele>
        <time>2015-06-25T06:05:21Z</time>
      </trkpt>
      <trkpt lat="42.17775" lon="9.08682">
        <ele>1049.2</ele>
        <time>2015-06-25T06:05:23Z</time>
      </trkpt>
      <trkpt lat="42.17799" lon="9.08632">
        <ele>1050</ele>
        <time>2015-06-25T06:06:07Z</time>
      </trkpt>
      <trkpt lat="42.17802" lon="9.08612">
        <ele>1051</ele>
        <time>2015-06-25T06:06:26Z</time>
      </trkpt>
      <trkpt lat="42.17804" lon="9.08604">
        <ele>1051.2</ele>
        <time>2015-06-25T06:06:31Z</time>
      </trkpt>
      <trkpt lat="42.17807" lon="9.08593">
        <ele>1051.8</ele>
        <time>2015-06-25T06:06:43Z</time>
      </trkpt>
      <trkpt lat="42.17808" lon="9.08576">
        <ele>1052.4</ele>
        <time>2015-06-25T06:06:58Z</time>
      </trkpt>
      <trkpt lat="42.17812" lon="9.08567">
        <ele>1053.2</ele>
        <time>2015-06-25T06:07:11Z</time>
      </trkpt>
      <trkpt lat="42.17813" lon="9.08566">
        <ele>1053.2</ele>
        <time>2015-06-25T06:07:12Z</time>
      </trkpt>
      <trkpt lat="42.17814" lon="9.08565">
        <ele>1053.4</ele>
        <time>2015-06-25T06:07:13Z</time>
      </trkpt>
      <trkpt lat="42.17816" lon="9.08551">
        <ele>1054.4</ele>
        <time>2015-06-25T06:07:28Z</time>
      </trkpt>
      <trkpt lat="42.17814" lon="9.08546">
        <ele>1054.6</ele>
        <time>2015-06-25T06:07:32Z</time>
      </trkpt>
      <trkpt lat="42.17815" lon="9.08544">
        <ele>1054.6</ele>
        <time>2015-06-25T06:07:34Z</time>
      </trkpt>
      <trkpt lat="42.17817" lon="9.08538">
        <ele>1055</ele>
        <time>2015-06-25T06:07:38Z</time>
      </trkpt>
      <trkpt lat="42.17829" lon="9.08509">
        <ele>1055.6</ele>
        <time>2015-06-25T06:07:57Z</time>
      </trkpt>
      <trkpt lat="42.17838" lon="9.08485">
        <ele>1056.8</ele>
        <time>2015-06-25T06:08:21Z</time>
      </trkpt>
      <trkpt lat="42.17849" lon="9.08465">
        <ele>1058</ele>
        <time>2015-06-25T06:08:42Z</time>
      </trkpt>
      <trkpt lat="42.17868" lon="9.08416">
        <ele>1059</ele>
        <time>2015-06-25T06:09:23Z</time>
      </trkpt>
      <trkpt lat="42.17868" lon="9.0841">
        <ele>1059.4</ele>
        <time>2015-06-25T06:09:29Z</time>
      </trkpt>
      <trkpt lat="42.17877" lon="9.08391">
        <ele>1060.2</ele>
        <time>2015-06-25T06:09:50Z</time>
      </trkpt>
      <trkpt lat="42.17882" lon="9.08377">
        <ele>1060.8</ele>
        <time>2015-06-25T06:10:02Z</time>
      </trkpt>
      <trkpt lat="42.17893" lon="9.08343">
        <ele>1061.8</ele>
        <time>2015-06-25T06:10:27Z</time>
      </trkpt>
      <trkpt lat="42.17903" lon="9.08303">
        <ele>1063.2</ele>
        <time>2015-06-25T06:11:00Z</time>
      </trkpt>
      <trkpt lat="42.17906" lon="9.08292">
        <ele>1063.4</ele>
        <time>2015-06-25T06:11:08Z</time>
      </trkpt>
      <trkpt lat="42.1791" lon="9.08282">
        <ele>1063.6</ele>
        <time>2015-06-25T06:11:20Z</time>
      </trkpt>
      <trkpt lat="42.17911" lon="9.08277">
        <ele>1064.6</ele>
        <time>2015-06-25T06:11:27Z</time>
      </trkpt>
      <trkpt lat="42.17911" lon="9.08272">
        <ele>1065</ele>
        <time>2015-06-25T06:11:30Z</time>
      </trkpt>
      <trkpt lat="42.17918" lon="9.08259">
        <ele>1066.4</ele>
        <time>2015-06-25T06:11:42Z</time>
      </trkpt>
      <trkpt lat="42.1792" lon="9.08237">
        <ele>1067.2</ele>
        <time>2015-06-25T06:12:01Z</time>
      </trkpt>
      <trkpt lat="42.17921" lon="9.08229">
        <ele>1068.4</ele>
        <time>2015-06-25T06:12:08Z</time>
      </trkpt>
      <trkpt lat="42.17921" lon="9.08226">
        <ele>1068.6</ele>
        <time>2015-06-25T06:12:11Z</time>
      </trkpt>
      <trkpt lat="42.17926" lon="9.08217">
        <ele>1069.2</ele>
        <time>2015-06-25T06:12:23Z</time>
      </trkpt>
      <trkpt lat="42.17935" lon="9.08199">
        <ele>1070</ele>
        <time>2015-06-25T06:12:41Z</time>
      </trkpt>
      <trkpt lat="42.17938" lon="9.08183">
        <ele>1071.4</ele>
        <time>2015-06-25T06:12:53Z</time>
      </trkpt>
      <trkpt lat="42.1794" lon="9.08164">
        <ele>1072.6</ele>
        <time>2015-06-25T06:13:12Z</time>
      </trkpt>
      <trkpt lat="42.1794" lon="9.0815">
        <ele>1073.8</ele>
        <time>2015-06-25T06:13:27Z</time>
      </trkpt>
      <trkpt lat="42.17941" lon="9.08148">
        <ele>1073.8</ele>
        <time>2015-06-25T06:13:28Z</time>
      </trkpt>
      <trkpt lat="42.17953" lon="9.08123">
        <ele>1075.2</ele>
        <time>2015-06-25T06:13:54Z</time>
      </trkpt>
      <trkpt lat="42.17968" lon="9.08115">
        <ele>1076.4</ele>
        <time>2015-06-25T06:14:09Z</time>
      </trkpt>
      <trkpt lat="42.17979" lon="9.08102">
        <ele>1077.6</ele>
        <time>2015-06-25T06:14:29Z</time>
      </trkpt>
      <trkpt lat="42.17987" lon="9.08098">
        <ele>1078.6</ele>
        <time>2015-06-25T06:14:38Z</time>
      </trkpt>
      <trkpt lat="42.18005" lon="9.08089">
        <ele>1080.2</ele>
        <time>2015-06-25T06:15:02Z</time>
      </trkpt>
      <trkpt lat="42.18015" lon="9.08081">
        <ele>1081</ele>
        <time>2015-06-25T06:15:16Z</time>
      </trkpt>
      <trkpt lat="42.1802" lon="9.08078">
        <ele>1081.4</ele>
        <time>2015-06-25T06:15:21Z</time>
      </trkpt>
      <trkpt lat="42.18037" lon="9.08067">
        <ele>1082.6</ele>
        <time>2015-06-25T06:15:43Z</time>
      </trkpt>
      <trkpt lat="42.18053" lon="9.08055">
        <ele>1084</ele>
        <time>2015-06-25T06:16:04Z</time>
      </trkpt>
      <trkpt lat="42.18062" lon="9.08051">
        <ele>1085</ele>
        <time>2015-06-25T06:16:21Z</time>
      </trkpt>
      <trkpt lat="42.1807" lon="9.08044">
        <ele>1086</ele>
        <time>2015-06-25T06:16:35Z</time>
      </trkpt>
      <trkpt lat="42.18076" lon="9.08042">
        <ele>1086.8</ele>
        <time>2015-06-25T06:16:43Z</time>
      </trkpt>
      <trkpt lat="42.1808" lon="9.08039">
        <ele>1087.4</ele>
        <time>2015-06-25T06:16:48Z</time>
      </trkpt>
      <trkpt lat="42.18086" lon="9.08031">
        <ele>1088.6</ele>
        <time>2015-06-25T06:17:01Z</time>
      </trkpt>
      <trkpt lat="42.18087" lon="9.08027">
        <ele>1088.6</ele>
        <time>2015-06-25T06:17:05Z</time>
      </trkpt>
      <trkpt lat="42.1809" lon="9.0802">
        <ele>1089.4</ele>
        <time>2015-06-25T06:17:13Z</time>
      </trkpt>
      <trkpt lat="42.18093" lon="9.08011">
        <ele>1090.6</ele>
        <time>2015-06-25T06:17:23Z</time>
      </trkpt>
      <trkpt lat="42.18101" lon="9.08">
        <ele>1090.6</ele>
        <time>2015-06-25T06:17:37Z</time>
      </trkpt>
      <trkpt lat="42.18104" lon="9.07997">
        <ele>1090.8</ele>
        <time>2015-06-25T06:17:41Z</time>
      </trkpt>
      <trkpt lat="42.18115" lon="9.07986">
        <ele>1091.6</ele>
        <time>2015-06-25T06:17:55Z</time>
      </trkpt>
      <trkpt lat="42.18121" lon="9.07975">
        <ele>1092.6</ele>
        <time>2015-06-25T06:18:11Z</time>
      </trkpt>
      <trkpt lat="42.18128" lon="9.07964">
        <ele>1093.4</ele>
        <time>2015-06-25T06:18:24Z</time>
      </trkpt>
      <trkpt lat="42.1813" lon="9.07962">
        <ele>1093.6</ele>
        <time>2015-06-25T06:18:26Z</time>
      </trkpt>
      <trkpt lat="42.18134" lon="9.07953">
        <ele>1094.6</ele>
        <time>2015-06-25T06:18:34Z</time>
      </trkpt>
      <trkpt lat="42.18138" lon="9.07942">
        <ele>1096</ele>
        <time>2015-06-25T06:18:45Z</time>
      </trkpt>
      <trkpt lat="42.18141" lon="9.07939">
        <ele>1097</ele>
        <time>2015-06-25T06:18:55Z</time>
      </trkpt>
      <trkpt lat="42.18141" lon="9.07931">
        <ele>1098</ele>
        <time>2015-06-25T06:19:06Z</time>
      </trkpt>
      <trkpt lat="42.18141" lon="9.07922">
        <ele>1099.4</ele>
        <time>2015-06-25T06:19:18Z</time>
      </trkpt>
      <trkpt lat="42.18142" lon="9.07916">
        <ele>1100.2</ele>
        <time>2015-06-25T06:19:29Z</time>
      </trkpt>
      <trkpt lat="42.18144" lon="9.07908">
        <ele>1101.6</ele>
        <time>2015-06-25T06:19:41Z</time>
      </trkpt>
      <trkpt lat="42.18146" lon="9.079">
        <ele>1102.6</ele>
        <time>2015-06-25T06:19:51Z</time>
      </trkpt>
      <trkpt lat="42.1815" lon="9.07895">
        <ele>1103.8</ele>
        <time>2015-06-25T06:20:03Z</time>
      </trkpt>
      <trkpt lat="42.18151" lon="9.07891">
        <ele>1105</ele>
        <time>2015-06-25T06:20:13Z</time>
      </trkpt>
      <trkpt lat="42.18153" lon="9.07885">
        <ele>1106</ele>
        <time>2015-06-25T06:20:24Z</time>
      </trkpt>
      <trkpt lat="42.18153" lon="9.0788">
        <ele>1106.8</ele>
        <time>2015-06-25T06:20:30Z</time>
      </trkpt>
      <trkpt lat="42.18156" lon="9.07874">
        <ele>1107</ele>
        <time>2015-06-25T06:20:37Z</time>
      </trkpt>
      <trkpt lat="42.1816" lon="9.07867">
        <ele>1108.4</ele>
        <time>2015-06-25T06:20:49Z</time>
      </trkpt>
      <trkpt lat="42.1816" lon="9.07865">
        <ele>1108.6</ele>
        <time>2015-06-25T06:20:52Z</time>
      </trkpt>
      <trkpt lat="42.18164" lon="9.07853">
        <ele>1109.6</ele>
        <time>2015-06-25T06:21:06Z</time>
      </trkpt>
      <trkpt lat="42.18167" lon="9.07846">
        <ele>1110.6</ele>
        <time>2015-06-25T06:21:17Z</time>
      </trkpt>
      <trkpt lat="42.18171" lon="9.07838">
        <ele>1112</ele>
        <time>2015-06-25T06:21:32Z</time>
      </trkpt>
      <trkpt lat="42.18174" lon="9.07831">
        <ele>1112.8</ele>
        <time>2015-06-25T06:21:42Z</time>
      </trkpt>
      <trkpt lat="42.18178" lon="9.07817">
        <ele>1114.4</ele>
        <time>2015-06-25T06:21:56Z</time>
      </trkpt>
      <trkpt lat="42.18183" lon="9.0781">
        <ele>1115</ele>
        <time>2015-06-25T06:22:08Z</time>
      </trkpt>
      <trkpt lat="42.18189" lon="9.07805">
        <ele>1116</ele>
        <time>2015-06-25T06:22:19Z</time>
      </trkpt>
      <trkpt lat="42.18195" lon="9.07797">
        <ele>1117.6</ele>
        <time>2015-06-25T06:22:31Z</time>
      </trkpt>
      <trkpt lat="42.18199" lon="9.07795">
        <ele>1118.8</ele>
        <time>2015-06-25T06:22:44Z</time>
      </trkpt>
      <trkpt lat="42.18202" lon="9.07789">
        <ele>1119.8</ele>
        <time>2015-06-25T06:22:55Z</time>
      </trkpt>
      <trkpt lat="42.18209" lon="9.07783">
        <ele>1120.8</ele>
        <time>2015-06-25T06:23:07Z</time>
      </trkpt>
      <trkpt lat="42.18215" lon="9.07773">
        <ele>1122</ele>
        <time>2015-06-25T06:23:20Z</time>
      </trkpt>
      <trkpt lat="42.18221" lon="9.07769">
        <ele>1123</ele>
        <time>2015-06-25T06:23:29Z</time>
      </trkpt>
      <trkpt lat="42.18227" lon="9.07762">
        <ele>1124.6</ele>
        <time>2015-06-25T06:23:41Z</time>
      </trkpt>
      <trkpt lat="42.18233" lon="9.07758">
        <ele>1125.6</ele>
        <time>2015-06-25T06:23:52Z</time>
      </trkpt>
      <trkpt lat="42.18239" lon="9.07756">
        <ele>1126.6</ele>
        <time>2015-06-25T06:24:05Z</time>
      </trkpt>
      <trkpt lat="42.18244" lon="9.07754">
        <ele>1127.6</ele>
        <time>2015-06-25T06:24:13Z</time>
      </trkpt>
      <trkpt lat="42.18259" lon="9.07739">
        <ele>1129.2</ele>
        <time>2015-06-25T06:24:37Z</time>
      </trkpt>
      <trkpt lat="42.18262" lon="9.07735">
        <ele>1129.8</ele>
        <time>2015-06-25T06:24:46Z</time>
      </trkpt>
      <trkpt lat="42.18267" lon="9.07732">
        <ele>1130.8</ele>
        <time>2015-06-25T06:24:55Z</time>
      </trkpt>
      <trkpt lat="42.18273" lon="9.07729">
        <ele>1132.6</ele>
        <time>2015-06-25T06:25:06Z</time>
      </trkpt>
      <trkpt lat="42.18277" lon="9.07726">
        <ele>1133.2</ele>
        <time>2015-06-25T06:25:15Z</time>
      </trkpt>
      <trkpt lat="42.18282" lon="9.07721">
        <ele>1134.4</ele>
        <time>2015-06-25T06:25:25Z</time>
      </trkpt>
      <trkpt lat="42.18291" lon="9.07716">
        <ele>1135.6</ele>
        <time>2015-06-25T06:25:41Z</time>
      </trkpt>
      <trkpt lat="42.18292" lon="9.07716">
        <ele>1135.8</ele>
        <time>2015-06-25T06:25:43Z</time>
      </trkpt>
      <trkpt lat="42.18296" lon="9.07706">
        <ele>1136.4</ele>
        <time>2015-06-25T06:25:54Z</time>
      </trkpt>
      <trkpt lat="42.18298" lon="9.07699">
        <ele>1137.2</ele>
        <time>2015-06-25T06:26:00Z</time>
      </trkpt>
      <trkpt lat="42.183" lon="9.07696">
        <ele>1137.8</ele>
        <time>2015-06-25T06:26:04Z</time>
      </trkpt>
      <trkpt lat="42.18305" lon="9.07689">
        <ele>1138.6</ele>
        <time>2015-06-25T06:26:14Z</time>
      </trkpt>
      <trkpt lat="42.18309" lon="9.07686">
        <ele>1139</ele>
        <time>2015-06-25T06:26:20Z</time>
      </trkpt>
      <trkpt lat="42.18315" lon="9.07683">
        <ele>1139.8</ele>
        <time>2015-06-25T06:26:28Z</time>
      </trkpt>
      <trkpt lat="42.18322" lon="9.0768">
        <ele>1141.2</ele>
        <time>2015-06-25T06:26:41Z</time>
      </trkpt>
      <trkpt lat="42.1833" lon="9.07671">
        <ele>1142.6</ele>
        <time>2015-06-25T06:26:56Z</time>
      </trkpt>
      <trkpt lat="42.18336" lon="9.07664">
        <ele>1143.2</ele>
        <time>2015-06-25T06:27:09Z</time>
      </trkpt>
      <trkpt lat="42.18339" lon="9.07659">
        <ele>1143.8</ele>
        <time>2015-06-25T06:27:15Z</time>
      </trkpt>
      <trkpt lat="42.18342" lon="9.07655">
        <ele>1144.4</ele>
        <time>2015-06-25T06:27:20Z</time>
      </trkpt>
      <trkpt lat="42.18352" lon="9.07648">
        <ele>1145.6</ele>
        <time>2015-06-25T06:27:35Z</time>
      </trkpt>
      <trkpt lat="42.18358" lon="9.07641">
        <ele>1146.6</ele>
        <time>2015-06-25T06:27:46Z</time>
      </trkpt>
      <trkpt lat="42.18365" lon="9.07639">
        <ele>1147.6</ele>
        <time>2015-06-25T06:27:58Z</time>
      </trkpt>
      <trkpt lat="42.18369" lon="9.07638">
        <ele>1148.6</ele>
        <time>2015-06-25T06:28:08Z</time>
      </trkpt>
      <trkpt lat="42.18381" lon="9.07615">
        <ele>1149.8</ele>
        <time>2015-06-25T06:28:33Z</time>
      </trkpt>
      <trkpt lat="42.18385" lon="9.07615">
        <ele>1149</ele>
        <time>2015-06-25T06:32:07Z</time>
      </trkpt>
      <trkpt lat="42.18384" lon="9.07613">
        <ele>1149.6</ele>
        <time>2015-06-25T06:33:29Z</time>
      </trkpt>
      <trkpt lat="42.18383" lon="9.07599">
        <ele>1149</ele>
        <time>2015-06-25T06:37:32Z</time>
      </trkpt>
      <trkpt lat="42.18393" lon="9.07608">
        <ele>1149.8</ele>
        <time>2015-06-25T06:37:54Z</time>
      </trkpt>
      <trkpt lat="42.18397" lon="9.07609">
        <ele>1150.2</ele>
        <time>2015-06-25T06:37:58Z</time>
      </trkpt>
      <trkpt lat="42.184" lon="9.0761">
        <ele>1150.8</ele>
        <time>2015-06-25T06:38:01Z</time>
      </trkpt>
      <trkpt lat="42.18402" lon="9.0761">
        <ele>1151.4</ele>
        <time>2015-06-25T06:38:04Z</time>
      </trkpt>
      <trkpt lat="42.18404" lon="9.07609">
        <ele>1151.6</ele>
        <time>2015-06-25T06:38:06Z</time>
      </trkpt>
      <trkpt lat="42.18407" lon="9.07608">
        <ele>1152.6</ele>
        <time>2015-06-25T06:38:10Z</time>
      </trkpt>
      <trkpt lat="42.18407" lon="9.07607">
        <ele>1152.8</ele>
        <time>2015-06-25T06:38:11Z</time>
      </trkpt>
      <trkpt lat="42.18405" lon="9.07597">
        <ele>1154</ele>
        <time>2015-06-25T06:38:25Z</time>
      </trkpt>
      <trkpt lat="42.18406" lon="9.07583">
        <ele>1154.2</ele>
        <time>2015-06-25T06:38:38Z</time>
      </trkpt>
      <trkpt lat="42.1841" lon="9.07612">
        <ele>1154.6</ele>
        <time>2015-06-25T06:40:52Z</time>
      </trkpt>
      <trkpt lat="42.1841" lon="9.07612">
        <ele>1154.6</ele>
        <time>2015-06-25T06:40:53Z</time>
      </trkpt>
      <trkpt lat="42.18406" lon="9.07627">
        <ele>1154.4</ele>
        <time>2015-06-25T06:41:08Z</time>
      </trkpt>
      <trkpt lat="42.18399" lon="9.07626">
        <ele>1153.4</ele>
        <time>2015-06-25T06:41:16Z</time>
      </trkpt>
      <trkpt lat="42.18397" lon="9.07623">
        <ele>1153.2</ele>
        <time>2015-06-25T06:41:18Z</time>
      </trkpt>
      <trkpt lat="42.18391" lon="9.07617">
        <ele>1152.6</ele>
        <time>2015-06-25T06:41:25Z</time>
      </trkpt>
      <trkpt lat="42.18387" lon="9.07617">
        <ele>1152</ele>
        <time>2015-06-25T06:41:29Z</time>
      </trkpt>
      <trkpt lat="42.18384" lon="9.07617">
        <ele>1151.4</ele>
        <time>2015-06-25T06:41:32Z</time>
      </trkpt>
      <trkpt lat="42.18381" lon="9.07617">
        <ele>1151.2</ele>
        <time>2015-06-25T06:41:36Z</time>
      </trkpt>
      <trkpt lat="42.18379" lon="9.07616">
        <ele>1149.6</ele>
        <time>2015-06-25T06:41:49Z</time>
      </trkpt>
      <trkpt lat="42.18368" lon="9.07631">
        <ele>1148.8</ele>
        <time>2015-06-25T06:43:02Z</time>
      </trkpt>
      <trkpt lat="42.18368" lon="9.07632">
        <ele>1148.8</ele>
        <time>2015-06-25T06:43:04Z</time>
      </trkpt>
      <trkpt lat="42.18374" lon="9.07624">
        <ele>1148.8</ele>
        <time>2015-06-25T06:43:12Z</time>
      </trkpt>
      <trkpt lat="42.18378" lon="9.07616">
        <ele>1148.8</ele>
        <time>2015-06-25T06:43:18Z</time>
      </trkpt>
      <trkpt lat="42.18385" lon="9.0762">
        <ele>1148.6</ele>
        <time>2015-06-25T06:46:46Z</time>
      </trkpt>
      <trkpt lat="42.18389" lon="9.07629">
        <ele>1149</ele>
        <time>2015-06-25T06:46:56Z</time>
      </trkpt>
      <trkpt lat="42.18391" lon="9.07634">
        <ele>1150</ele>
        <time>2015-06-25T06:47:04Z</time>
      </trkpt>
      <trkpt lat="42.18396" lon="9.07634">
        <ele>1151.6</ele>
        <time>2015-06-25T06:47:13Z</time>
      </trkpt>
      <trkpt lat="42.18404" lon="9.07631">
        <ele>1152.8</ele>
        <time>2015-06-25T06:47:25Z</time>
      </trkpt>
      <trkpt lat="42.18409" lon="9.0763">
        <ele>1153.6</ele>
        <time>2015-06-25T06:47:34Z</time>
      </trkpt>
      <trkpt lat="42.18417" lon="9.07627">
        <ele>1154.6</ele>
        <time>2015-06-25T06:47:50Z</time>
      </trkpt>
      <trkpt lat="42.18425" lon="9.0763">
        <ele>1155.8</ele>
        <time>2015-06-25T06:48:00Z</time>
      </trkpt>
      <trkpt lat="42.18434" lon="9.07629">
        <ele>1157.2</ele>
        <time>2015-06-25T06:48:11Z</time>
      </trkpt>
      <trkpt lat="42.18441" lon="9.07627">
        <ele>1158</ele>
        <time>2015-06-25T06:48:26Z</time>
      </trkpt>
      <trkpt lat="42.18448" lon="9.07627">
        <ele>1159.2</ele>
        <time>2015-06-25T06:48:34Z</time>
      </trkpt>
      <trkpt lat="42.18455" lon="9.07624">
        <ele>1160.4</ele>
        <time>2015-06-25T06:48:44Z</time>
      </trkpt>
      <trkpt lat="42.18459" lon="9.07623">
        <ele>1161</ele>
        <time>2015-06-25T06:48:52Z</time>
      </trkpt>
      <trkpt lat="42.18466" lon="9.07621">
        <ele>1162.8</ele>
        <time>2015-06-25T06:49:10Z</time>
      </trkpt>
      <trkpt lat="42.18487" lon="9.07614">
        <ele>1164</ele>
        <time>2015-06-25T06:49:38Z</time>
      </trkpt>
      <trkpt lat="42.18501" lon="9.07608">
        <ele>1164.8</ele>
        <time>2015-06-25T06:49:57Z</time>
      </trkpt>
      <trkpt lat="42.18514" lon="9.07601">
        <ele>1166.2</ele>
        <time>2015-06-25T06:50:14Z</time>
      </trkpt>
      <trkpt lat="42.18524" lon="9.07598">
        <ele>1167</ele>
        <time>2015-06-25T06:50:25Z</time>
      </trkpt>
      <trkpt lat="42.18524" lon="9.07596">
        <ele>1167.2</ele>
        <time>2015-06-25T06:50:26Z</time>
      </trkpt>
      <trkpt lat="42.18535" lon="9.07583">
        <ele>1168.6</ele>
        <time>2015-06-25T06:50:44Z</time>
      </trkpt>
      <trkpt lat="42.18544" lon="9.07578">
        <ele>1169.4</ele>
        <time>2015-06-25T06:50:56Z</time>
      </trkpt>
      <trkpt lat="42.18552" lon="9.0758">
        <ele>1170.4</ele>
        <time>2015-06-25T06:51:11Z</time>
      </trkpt>
      <trkpt lat="42.18558" lon="9.07579">
        <ele>1171.4</ele>
        <time>2015-06-25T06:51:21Z</time>
      </trkpt>
      <trkpt lat="42.18563" lon="9.07577">
        <ele>1172</ele>
        <time>2015-06-25T06:51:26Z</time>
      </trkpt>
      <trkpt lat="42.18568" lon="9.07575">
        <ele>1172.8</ele>
        <time>2015-06-25T06:51:34Z</time>
      </trkpt>
      <trkpt lat="42.18575" lon="9.07564">
        <ele>1173.8</ele>
        <time>2015-06-25T06:51:51Z</time>
      </trkpt>
      <trkpt lat="42.1858" lon="9.07562">
        <ele>1174.4</ele>
        <time>2015-06-25T06:52:00Z</time>
      </trkpt>
      <trkpt lat="42.18585" lon="9.0756">
        <ele>1175.6</ele>
        <time>2015-06-25T06:52:10Z</time>
      </trkpt>
      <trkpt lat="42.1859" lon="9.0756">
        <ele>1176.6</ele>
        <time>2015-06-25T06:52:19Z</time>
      </trkpt>
      <trkpt lat="42.18593" lon="9.07561">
        <ele>1177</ele>
        <time>2015-06-25T06:52:23Z</time>
      </trkpt>
      <trkpt lat="42.18597" lon="9.07562">
        <ele>1177.6</ele>
        <time>2015-06-25T06:52:28Z</time>
      </trkpt>
      <trkpt lat="42.18602" lon="9.07562">
        <ele>1178.8</ele>
        <time>2015-06-25T06:52:36Z</time>
      </trkpt>
      <trkpt lat="42.18607" lon="9.07564">
        <ele>1179.8</ele>
        <time>2015-06-25T06:52:46Z</time>
      </trkpt>
      <trkpt lat="42.18612" lon="9.07563">
        <ele>1181.2</ele>
        <time>2015-06-25T06:52:56Z</time>
      </trkpt>
      <trkpt lat="42.18615" lon="9.07563">
        <ele>1182.2</ele>
        <time>2015-06-25T06:53:05Z</time>
      </trkpt>
      <trkpt lat="42.18622" lon="9.07563">
        <ele>1183.2</ele>
        <time>2015-06-25T06:53:16Z</time>
      </trkpt>
      <trkpt lat="42.18627" lon="9.07563">
        <ele>1183.6</ele>
        <time>2015-06-25T06:53:20Z</time>
      </trkpt>
      <trkpt lat="42.1863" lon="9.07563">
        <ele>1184</ele>
        <time>2015-06-25T06:53:24Z</time>
      </trkpt>
      <trkpt lat="42.18633" lon="9.07564">
        <ele>1184</ele>
        <time>2015-06-25T06:53:27Z</time>
      </trkpt>
      <trkpt lat="42.18634" lon="9.07564">
        <ele>1184.2</ele>
        <time>2015-06-25T06:53:29Z</time>
      </trkpt>
      <trkpt lat="42.18638" lon="9.07567">
        <ele>1184.4</ele>
        <time>2015-06-25T06:53:36Z</time>
      </trkpt>
      <trkpt lat="42.18646" lon="9.07568">
        <ele>1185.2</ele>
        <time>2015-06-25T06:53:48Z</time>
      </trkpt>
      <trkpt lat="42.18647" lon="9.07568">
        <ele>1185.2</ele>
        <time>2015-06-25T06:53:49Z</time>
      </trkpt>
      <trkpt lat="42.18655" lon="9.07563">
        <ele>1186.4</ele>
        <time>2015-06-25T06:54:00Z</time>
      </trkpt>
      <trkpt lat="42.18657" lon="9.07563">
        <ele>1186.6</ele>
        <time>2015-06-25T06:54:02Z</time>
      </trkpt>
      <trkpt lat="42.18666" lon="9.07564">
        <ele>1187.2</ele>
        <time>2015-06-25T06:54:12Z</time>
      </trkpt>
      <trkpt lat="42.18672" lon="9.07562">
        <ele>1188.4</ele>
        <time>2015-06-25T06:54:22Z</time>
      </trkpt>
      <trkpt lat="42.18676" lon="9.07562">
        <ele>1189.4</ele>
        <time>2015-06-25T06:54:30Z</time>
      </trkpt>
      <trkpt lat="42.18681" lon="9.07564">
        <ele>1190.2</ele>
        <time>2015-06-25T06:54:38Z</time>
      </trkpt>
      <trkpt lat="42.18688" lon="9.07566">
        <ele>1191.4</ele>
        <time>2015-06-25T06:54:48Z</time>
      </trkpt>
      <trkpt lat="42.18695" lon="9.07568">
        <ele>1192.6</ele>
        <time>2015-06-25T06:54:57Z</time>
      </trkpt>
      <trkpt lat="42.187" lon="9.07571">
        <ele>1193.6</ele>
        <time>2015-06-25T06:55:07Z</time>
      </trkpt>
      <trkpt lat="42.18702" lon="9.07569">
        <ele>1194.2</ele>
        <time>2015-06-25T06:55:12Z</time>
      </trkpt>
      <trkpt lat="42.18707" lon="9.07568">
        <ele>1195.8</ele>
        <time>2015-06-25T06:55:22Z</time>
      </trkpt>
      <trkpt lat="42.18713" lon="9.07566">
        <ele>1197</ele>
        <time>2015-06-25T06:55:31Z</time>
      </trkpt>
      <trkpt lat="42.18715" lon="9.07566">
        <ele>1197.2</ele>
        <time>2015-06-25T06:55:33Z</time>
      </trkpt>
      <trkpt lat="42.18722" lon="9.07567">
        <ele>1198</ele>
        <time>2015-06-25T06:55:44Z</time>
      </trkpt>
      <trkpt lat="42.18725" lon="9.07567">
        <ele>1198.6</ele>
        <time>2015-06-25T06:55:52Z</time>
      </trkpt>
      <trkpt lat="42.18728" lon="9.07566">
        <ele>1200</ele>
        <time>2015-06-25T06:56:00Z</time>
      </trkpt>
      <trkpt lat="42.18729" lon="9.07561">
        <ele>1200.4</ele>
        <time>2015-06-25T06:56:04Z</time>
      </trkpt>
      <trkpt lat="42.18733" lon="9.07559">
        <ele>1201.2</ele>
        <time>2015-06-25T06:56:12Z</time>
      </trkpt>
      <trkpt lat="42.18741" lon="9.07557">
        <ele>1202</ele>
        <time>2015-06-25T06:56:22Z</time>
      </trkpt>
      <trkpt lat="42.18742" lon="9.07557">
        <ele>1202</ele>
        <time>2015-06-25T06:56:23Z</time>
      </trkpt>
      <trkpt lat="42.18745" lon="9.07556">
        <ele>1202.4</ele>
        <time>2015-06-25T06:56:27Z</time>
      </trkpt>
      <trkpt lat="42.1875" lon="9.07556">
        <ele>1203.2</ele>
        <time>2015-06-25T06:56:36Z</time>
      </trkpt>
      <trkpt lat="42.18757" lon="9.07553">
        <ele>1203.8</ele>
        <time>2015-06-25T06:56:43Z</time>
      </trkpt>
      <trkpt lat="42.1876" lon="9.07551">
        <ele>1204</ele>
        <time>2015-06-25T06:56:48Z</time>
      </trkpt>
      <trkpt lat="42.18761" lon="9.0755">
        <ele>1204.2</ele>
        <time>2015-06-25T06:56:51Z</time>
      </trkpt>
      <trkpt lat="42.18764" lon="9.07547">
        <ele>1204.6</ele>
        <time>2015-06-25T06:56:55Z</time>
      </trkpt>
      <trkpt lat="42.18765" lon="9.07547">
        <ele>1205</ele>
        <time>2015-06-25T06:56:58Z</time>
      </trkpt>
      <trkpt lat="42.18771" lon="9.07548">
        <ele>1206</ele>
        <time>2015-06-25T06:57:07Z</time>
      </trkpt>
      <trkpt lat="42.18774" lon="9.07549">
        <ele>1207</ele>
        <time>2015-06-25T06:57:15Z</time>
      </trkpt>
      <trkpt lat="42.1878" lon="9.07546">
        <ele>1207.6</ele>
        <time>2015-06-25T06:57:24Z</time>
      </trkpt>
      <trkpt lat="42.18786" lon="9.07544">
        <ele>1208.4</ele>
        <time>2015-06-25T06:57:47Z</time>
      </trkpt>
      <trkpt lat="42.18786" lon="9.07544">
        <ele>1208.4</ele>
        <time>2015-06-25T06:57:48Z</time>
      </trkpt>
      <trkpt lat="42.18792" lon="9.07538">
        <ele>1209.2</ele>
        <time>2015-06-25T06:58:00Z</time>
      </trkpt>
      <trkpt lat="42.188" lon="9.07535">
        <ele>1210.6</ele>
        <time>2015-06-25T06:58:13Z</time>
      </trkpt>
      <trkpt lat="42.18805" lon="9.07536">
        <ele>1211.6</ele>
        <time>2015-06-25T06:58:23Z</time>
      </trkpt>
      <trkpt lat="42.18811" lon="9.07535">
        <ele>1212.2</ele>
        <time>2015-06-25T06:58:32Z</time>
      </trkpt>
      <trkpt lat="42.18815" lon="9.07532">
        <ele>1213.4</ele>
        <time>2015-06-25T06:58:40Z</time>
      </trkpt>
      <trkpt lat="42.1882" lon="9.07534">
        <ele>1215</ele>
        <time>2015-06-25T06:58:54Z</time>
      </trkpt>
      <trkpt lat="42.18825" lon="9.07538">
        <ele>1215.6</ele>
        <time>2015-06-25T06:59:03Z</time>
      </trkpt>
      <trkpt lat="42.18828" lon="9.07539">
        <ele>1216.6</ele>
        <time>2015-06-25T06:59:13Z</time>
      </trkpt>
      <trkpt lat="42.18828" lon="9.07538">
        <ele>1217.6</ele>
        <time>2015-06-25T06:59:20Z</time>
      </trkpt>
      <trkpt lat="42.18834" lon="9.0753">
        <ele>1218.8</ele>
        <time>2015-06-25T06:59:31Z</time>
      </trkpt>
      <trkpt lat="42.18844" lon="9.07515">
        <ele>1219.2</ele>
        <time>2015-06-25T06:59:50Z</time>
      </trkpt>
      <trkpt lat="42.18853" lon="9.07505">
        <ele>1220.2</ele>
        <time>2015-06-25T07:00:00Z</time>
      </trkpt>
      <trkpt lat="42.1886" lon="9.07495">
        <ele>1221.2</ele>
        <time>2015-06-25T07:00:18Z</time>
      </trkpt>
      <trkpt lat="42.18863" lon="9.07486">
        <ele>1222</ele>
        <time>2015-06-25T07:00:30Z</time>
      </trkpt>
      <trkpt lat="42.18864" lon="9.07481">
        <ele>1222.4</ele>
        <time>2015-06-25T07:00:34Z</time>
      </trkpt>
      <trkpt lat="42.18868" lon="9.07474">
        <ele>1223.4</ele>
        <time>2015-06-25T07:00:43Z</time>
      </trkpt>
      <trkpt lat="42.18872" lon="9.07463">
        <ele>1224.2</ele>
        <time>2015-06-25T07:00:54Z</time>
      </trkpt>
      <trkpt lat="42.18879" lon="9.07455">
        <ele>1225.4</ele>
        <time>2015-06-25T07:01:05Z</time>
      </trkpt>
      <trkpt lat="42.18881" lon="9.07447">
        <ele>1226.2</ele>
        <time>2015-06-25T07:01:14Z</time>
      </trkpt>
      <trkpt lat="42.18885" lon="9.07439">
        <ele>1227.4</ele>
        <time>2015-06-25T07:01:25Z</time>
      </trkpt>
      <trkpt lat="42.18888" lon="9.07433">
        <ele>1228.6</ele>
        <time>2015-06-25T07:01:35Z</time>
      </trkpt>
      <trkpt lat="42.18893" lon="9.07425">
        <ele>1229.8</ele>
        <time>2015-06-25T07:01:49Z</time>
      </trkpt>
      <trkpt lat="42.18896" lon="9.07415">
        <ele>1231</ele>
        <time>2015-06-25T07:02:03Z</time>
      </trkpt>
      <trkpt lat="42.18899" lon="9.07409">
        <ele>1231.8</ele>
        <time>2015-06-25T07:02:14Z</time>
      </trkpt>
      <trkpt lat="42.18901" lon="9.07399">
        <ele>1232.6</ele>
        <time>2015-06-25T07:02:31Z</time>
      </trkpt>
      <trkpt lat="42.18903" lon="9.07391">
        <ele>1234</ele>
        <time>2015-06-25T07:02:43Z</time>
      </trkpt>
      <trkpt lat="42.18902" lon="9.07384">
        <ele>1235.4</ele>
        <time>2015-06-25T07:03:12Z</time>
      </trkpt>
      <trkpt lat="42.18907" lon="9.0737">
        <ele>1236.2</ele>
        <time>2015-06-25T07:03:27Z</time>
      </trkpt>
      <trkpt lat="42.18911" lon="9.07361">
        <ele>1237</ele>
        <time>2015-06-25T07:03:41Z</time>
      </trkpt>
      <trkpt lat="42.18915" lon="9.07353">
        <ele>1238</ele>
        <time>2015-06-25T07:03:57Z</time>
      </trkpt>
      <trkpt lat="42.18915" lon="9.0735">
        <ele>1238.2</ele>
        <time>2015-06-25T07:04:00Z</time>
      </trkpt>
      <trkpt lat="42.18917" lon="9.07346">
        <ele>1238.8</ele>
        <time>2015-06-25T07:04:04Z</time>
      </trkpt>
      <trkpt lat="42.18921" lon="9.07338">
        <ele>1239.2</ele>
        <time>2015-06-25T07:04:12Z</time>
      </trkpt>
      <trkpt lat="42.18922" lon="9.07329">
        <ele>1239.8</ele>
        <time>2015-06-25T07:04:20Z</time>
      </trkpt>
      <trkpt lat="42.18923" lon="9.07315">
        <ele>1240.4</ele>
        <time>2015-06-25T07:04:31Z</time>
      </trkpt>
      <trkpt lat="42.18926" lon="9.07307">
        <ele>1241.2</ele>
        <time>2015-06-25T07:04:43Z</time>
      </trkpt>
      <trkpt lat="42.18927" lon="9.07298">
        <ele>1242.2</ele>
        <time>2015-06-25T07:04:52Z</time>
      </trkpt>
      <trkpt lat="42.1893" lon="9.07279">
        <ele>1243.2</ele>
        <time>2015-06-25T07:05:08Z</time>
      </trkpt>
      <trkpt lat="42.18929" lon="9.07267">
        <ele>1244.4</ele>
        <time>2015-06-25T07:05:20Z</time>
      </trkpt>
      <trkpt lat="42.18932" lon="9.07259">
        <ele>1245.2</ele>
        <time>2015-06-25T07:05:29Z</time>
      </trkpt>
      <trkpt lat="42.18935" lon="9.07253">
        <ele>1245.8</ele>
        <time>2015-06-25T07:05:33Z</time>
      </trkpt>
      <trkpt lat="42.18934" lon="9.07249">
        <ele>1246.4</ele>
        <time>2015-06-25T07:05:39Z</time>
      </trkpt>
      <trkpt lat="42.18931" lon="9.0724">
        <ele>1247.6</ele>
        <time>2015-06-25T07:05:52Z</time>
      </trkpt>
      <trkpt lat="42.18928" lon="9.07234">
        <ele>1247.8</ele>
        <time>2015-06-25T07:05:58Z</time>
      </trkpt>
      <trkpt lat="42.18928" lon="9.07232">
        <ele>1248.2</ele>
        <time>2015-06-25T07:06:00Z</time>
      </trkpt>
      <trkpt lat="42.1893" lon="9.07227">
        <ele>1248.4</ele>
        <time>2015-06-25T07:06:03Z</time>
      </trkpt>
      <trkpt lat="42.18947" lon="9.07208">
        <ele>1249.4</ele>
        <time>2015-06-25T07:06:18Z</time>
      </trkpt>
      <trkpt lat="42.18956" lon="9.07197">
        <ele>1250.6</ele>
        <time>2015-06-25T07:06:33Z</time>
      </trkpt>
      <trkpt lat="42.1896" lon="9.07189">
        <ele>1251.2</ele>
        <time>2015-06-25T07:06:44Z</time>
      </trkpt>
      <trkpt lat="42.18964" lon="9.07182">
        <ele>1252</ele>
        <time>2015-06-25T07:06:52Z</time>
      </trkpt>
      <trkpt lat="42.18967" lon="9.0718">
        <ele>1252.2</ele>
        <time>2015-06-25T07:06:55Z</time>
      </trkpt>
      <trkpt lat="42.1897" lon="9.07172">
        <ele>1253.2</ele>
        <time>2015-06-25T07:07:06Z</time>
      </trkpt>
      <trkpt lat="42.18974" lon="9.07159">
        <ele>1254</ele>
        <time>2015-06-25T07:07:19Z</time>
      </trkpt>
      <trkpt lat="42.18979" lon="9.07149">
        <ele>1255.2</ele>
        <time>2015-06-25T07:07:30Z</time>
      </trkpt>
      <trkpt lat="42.18983" lon="9.07143">
        <ele>1255.8</ele>
        <time>2015-06-25T07:07:39Z</time>
      </trkpt>
      <trkpt lat="42.18987" lon="9.07135">
        <ele>1256.8</ele>
        <time>2015-06-25T07:07:49Z</time>
      </trkpt>
      <trkpt lat="42.18989" lon="9.07129">
        <ele>1257.8</ele>
        <time>2015-06-25T07:07:59Z</time>
      </trkpt>
      <trkpt lat="42.18991" lon="9.07125">
        <ele>1258.6</ele>
        <time>2015-06-25T07:08:09Z</time>
      </trkpt>
      <trkpt lat="42.18994" lon="9.07118">
        <ele>1259.2</ele>
        <time>2015-06-25T07:08:16Z</time>
      </trkpt>
      <trkpt lat="42.18994" lon="9.07116">
        <ele>1259.4</ele>
        <time>2015-06-25T07:08:18Z</time>
      </trkpt>
      <trkpt lat="42.18994" lon="9.07111">
        <ele>1260</ele>
        <time>2015-06-25T07:08:23Z</time>
      </trkpt>
      <trkpt lat="42.18997" lon="9.07107">
        <ele>1260.4</ele>
        <time>2015-06-25T07:08:28Z</time>
      </trkpt>
      <trkpt lat="42.19001" lon="9.07098">
        <ele>1261.6</ele>
        <time>2015-06-25T07:08:40Z</time>
      </trkpt>
      <trkpt lat="42.19007" lon="9.07089">
        <ele>1262.4</ele>
        <time>2015-06-25T07:08:53Z</time>
      </trkpt>
      <trkpt lat="42.19018" lon="9.07088">
        <ele>1263.6</ele>
        <time>2015-06-25T07:09:10Z</time>
      </trkpt>
      <trkpt lat="42.19023" lon="9.07079">
        <ele>1264.2</ele>
        <time>2015-06-25T07:09:27Z</time>
      </trkpt>
      <trkpt lat="42.19026" lon="9.07073">
        <ele>1264.8</ele>
        <time>2015-06-25T07:09:36Z</time>
      </trkpt>
      <trkpt lat="42.19037" lon="9.07059">
        <ele>1266.2</ele>
        <time>2015-06-25T07:09:54Z</time>
      </trkpt>
      <trkpt lat="42.19044" lon="9.07049">
        <ele>1267</ele>
        <time>2015-06-25T07:10:10Z</time>
      </trkpt>
      <trkpt lat="42.1905" lon="9.07028">
        <ele>1267.6</ele>
        <time>2015-06-25T07:10:37Z</time>
      </trkpt>
      <trkpt lat="42.19054" lon="9.0701">
        <ele>1268.2</ele>
        <time>2015-06-25T07:10:55Z</time>
      </trkpt>
      <trkpt lat="42.19054" lon="9.07008">
        <ele>1268.4</ele>
        <time>2015-06-25T07:10:57Z</time>
      </trkpt>
      <trkpt lat="42.19054" lon="9.06995">
        <ele>1269.2</ele>
        <time>2015-06-25T07:11:08Z</time>
      </trkpt>
      <trkpt lat="42.19047" lon="9.0697">
        <ele>1270</ele>
        <time>2015-06-25T07:11:33Z</time>
      </trkpt>
      <trkpt lat="42.19051" lon="9.06955">
        <ele>1270.8</ele>
        <time>2015-06-25T07:11:47Z</time>
      </trkpt>
      <trkpt lat="42.19056" lon="9.06945">
        <ele>1271.6</ele>
        <time>2015-06-25T07:11:58Z</time>
      </trkpt>
      <trkpt lat="42.19059" lon="9.06933">
        <ele>1272.6</ele>
        <time>2015-06-25T07:12:10Z</time>
      </trkpt>
      <trkpt lat="42.19061" lon="9.06921">
        <ele>1273.4</ele>
        <time>2015-06-25T07:12:23Z</time>
      </trkpt>
      <trkpt lat="42.19062" lon="9.06913">
        <ele>1274.4</ele>
        <time>2015-06-25T07:12:32Z</time>
      </trkpt>
      <trkpt lat="42.19062" lon="9.06912">
        <ele>1274.4</ele>
        <time>2015-06-25T07:12:34Z</time>
      </trkpt>
      <trkpt lat="42.19063" lon="9.06906">
        <ele>1275.2</ele>
        <time>2015-06-25T07:12:41Z</time>
      </trkpt>
      <trkpt lat="42.19065" lon="9.06897">
        <ele>1276.4</ele>
        <time>2015-06-25T07:12:52Z</time>
      </trkpt>
      <trkpt lat="42.19065" lon="9.06888">
        <ele>1277.4</ele>
        <time>2015-06-25T07:13:03Z</time>
      </trkpt>
      <trkpt lat="42.19069" lon="9.06878">
        <ele>1278.2</ele>
        <time>2015-06-25T07:13:14Z</time>
      </trkpt>
      <trkpt lat="42.19071" lon="9.06867">
        <ele>1279.2</ele>
        <time>2015-06-25T07:13:28Z</time>
      </trkpt>
      <trkpt lat="42.19073" lon="9.06859">
        <ele>1280.2</ele>
        <time>2015-06-25T07:13:38Z</time>
      </trkpt>
      <trkpt lat="42.19078" lon="9.0685">
        <ele>1281.2</ele>
        <time>2015-06-25T07:13:48Z</time>
      </trkpt>
      <trkpt lat="42.19076" lon="9.06839">
        <ele>1282.2</ele>
        <time>2015-06-25T07:13:59Z</time>
      </trkpt>
      <trkpt lat="42.19077" lon="9.06838">
        <ele>1282.2</ele>
        <time>2015-06-25T07:14:00Z</time>
      </trkpt>
      <trkpt lat="42.19081" lon="9.06836">
        <ele>1283</ele>
        <time>2015-06-25T07:14:08Z</time>
      </trkpt>
      <trkpt lat="42.19089" lon="9.06832">
        <ele>1284</ele>
        <time>2015-06-25T07:14:18Z</time>
      </trkpt>
      <trkpt lat="42.19092" lon="9.06829">
        <ele>1284.8</ele>
        <time>2015-06-25T07:14:26Z</time>
      </trkpt>
      <trkpt lat="42.19097" lon="9.06823">
        <ele>1286</ele>
        <time>2015-06-25T07:14:34Z</time>
      </trkpt>
      <trkpt lat="42.19101" lon="9.06816">
        <ele>1287.2</ele>
        <time>2015-06-25T07:14:44Z</time>
      </trkpt>
      <trkpt lat="42.19102" lon="9.06811">
        <ele>1287.8</ele>
        <time>2015-06-25T07:14:53Z</time>
      </trkpt>
      <trkpt lat="42.19103" lon="9.0681">
        <ele>1288</ele>
        <time>2015-06-25T07:14:54Z</time>
      </trkpt>
      <trkpt lat="42.19106" lon="9.06804">
        <ele>1289.2</ele>
        <time>2015-06-25T07:15:05Z</time>
      </trkpt>
      <trkpt lat="42.19107" lon="9.06798">
        <ele>1289.8</ele>
        <time>2015-06-25T07:15:14Z</time>
      </trkpt>
      <trkpt lat="42.19112" lon="9.06791">
        <ele>1291</ele>
        <time>2015-06-25T07:15:26Z</time>
      </trkpt>
      <trkpt lat="42.19117" lon="9.06784">
        <ele>1292</ele>
        <time>2015-06-25T07:15:35Z</time>
      </trkpt>
      <trkpt lat="42.1912" lon="9.0678">
        <ele>1292.8</ele>
        <time>2015-06-25T07:15:43Z</time>
      </trkpt>
      <trkpt lat="42.19125" lon="9.06775">
        <ele>1294</ele>
        <time>2015-06-25T07:15:54Z</time>
      </trkpt>
      <trkpt lat="42.19127" lon="9.0677">
        <ele>1294.8</ele>
        <time>2015-06-25T07:16:04Z</time>
      </trkpt>
      <trkpt lat="42.19128" lon="9.06769">
        <ele>1294.8</ele>
        <time>2015-06-25T07:16:05Z</time>
      </trkpt>
      <trkpt lat="42.1913" lon="9.06765">
        <ele>1295.6</ele>
        <time>2015-06-25T07:16:11Z</time>
      </trkpt>
      <trkpt lat="42.19133" lon="9.06762">
        <ele>1296.8</ele>
        <time>2015-06-25T07:16:20Z</time>
      </trkpt>
      <trkpt lat="42.19136" lon="9.06756">
        <ele>1298.2</ele>
        <time>2015-06-25T07:16:31Z</time>
      </trkpt>
      <trkpt lat="42.19138" lon="9.06751">
        <ele>1298.6</ele>
        <time>2015-06-25T07:16:38Z</time>
      </trkpt>
      <trkpt lat="42.19141" lon="9.0675">
        <ele>1299.8</ele>
        <time>2015-06-25T07:16:48Z</time>
      </trkpt>
      <trkpt lat="42.19144" lon="9.06746">
        <ele>1300.8</ele>
        <time>2015-06-25T07:16:56Z</time>
      </trkpt>
      <trkpt lat="42.19147" lon="9.06741">
        <ele>1301.8</ele>
        <time>2015-06-25T07:17:05Z</time>
      </trkpt>
      <trkpt lat="42.19151" lon="9.06739">
        <ele>1303.2</ele>
        <time>2015-06-25T07:17:16Z</time>
      </trkpt>
      <trkpt lat="42.19153" lon="9.06737">
        <ele>1303.8</ele>
        <time>2015-06-25T07:17:24Z</time>
      </trkpt>
      <trkpt lat="42.19157" lon="9.06733">
        <ele>1305</ele>
        <time>2015-06-25T07:17:33Z</time>
      </trkpt>
      <trkpt lat="42.19162" lon="9.0673">
        <ele>1306</ele>
        <time>2015-06-25T07:17:43Z</time>
      </trkpt>
      <trkpt lat="42.19164" lon="9.06725">
        <ele>1307</ele>
        <time>2015-06-25T07:17:53Z</time>
      </trkpt>
      <trkpt lat="42.19166" lon="9.06719">
        <ele>1308.2</ele>
        <time>2015-06-25T07:18:05Z</time>
      </trkpt>
      <trkpt lat="42.1917" lon="9.06714">
        <ele>1309</ele>
        <time>2015-06-25T07:18:14Z</time>
      </trkpt>
      <trkpt lat="42.19173" lon="9.06712">
        <ele>1310</ele>
        <time>2015-06-25T07:18:24Z</time>
      </trkpt>
      <trkpt lat="42.19175" lon="9.06707">
        <ele>1310.8</ele>
        <time>2015-06-25T07:18:32Z</time>
      </trkpt>
      <trkpt lat="42.19179" lon="9.06701">
        <ele>1312.2</ele>
        <time>2015-06-25T07:18:42Z</time>
      </trkpt>
      <trkpt lat="42.19184" lon="9.06699">
        <ele>1312.8</ele>
        <time>2015-06-25T07:18:51Z</time>
      </trkpt>
      <trkpt lat="42.19186" lon="9.06694">
        <ele>1314.2</ele>
        <time>2015-06-25T07:18:59Z</time>
      </trkpt>
      <trkpt lat="42.19188" lon="9.0669">
        <ele>1315</ele>
        <time>2015-06-25T07:19:09Z</time>
      </trkpt>
      <trkpt lat="42.19192" lon="9.06686">
        <ele>1316</ele>
        <time>2015-06-25T07:19:17Z</time>
      </trkpt>
      <trkpt lat="42.19197" lon="9.06682">
        <ele>1317</ele>
        <time>2015-06-25T07:19:26Z</time>
      </trkpt>
      <trkpt lat="42.19201" lon="9.06678">
        <ele>1318</ele>
        <time>2015-06-25T07:19:36Z</time>
      </trkpt>
      <trkpt lat="42.19203" lon="9.06676">
        <ele>1319</ele>
        <time>2015-06-25T07:19:44Z</time>
      </trkpt>
      <trkpt lat="42.19204" lon="9.06675">
        <ele>1319.8</ele>
        <time>2015-06-25T07:19:50Z</time>
      </trkpt>
      <trkpt lat="42.19204" lon="9.06674">
        <ele>1320</ele>
        <time>2015-06-25T07:19:54Z</time>
      </trkpt>
      <trkpt lat="42.19206" lon="9.0667">
        <ele>1321.2</ele>
        <time>2015-06-25T07:20:04Z</time>
      </trkpt>
      <trkpt lat="42.19207" lon="9.06666">
        <ele>1321.8</ele>
        <time>2015-06-25T07:20:11Z</time>
      </trkpt>
      <trkpt lat="42.1921" lon="9.06663">
        <ele>1323</ele>
        <time>2015-06-25T07:20:19Z</time>
      </trkpt>
      <trkpt lat="42.19214" lon="9.06661">
        <ele>1324</ele>
        <time>2015-06-25T07:20:28Z</time>
      </trkpt>
      <trkpt lat="42.19218" lon="9.06657">
        <ele>1324.8</ele>
        <time>2015-06-25T07:20:38Z</time>
      </trkpt>
      <trkpt lat="42.1922" lon="9.06653">
        <ele>1326</ele>
        <time>2015-06-25T07:20:47Z</time>
      </trkpt>
      <trkpt lat="42.19225" lon="9.06648">
        <ele>1327.2</ele>
        <time>2015-06-25T07:20:57Z</time>
      </trkpt>
      <trkpt lat="42.19227" lon="9.06643">
        <ele>1328</ele>
        <time>2015-06-25T07:21:07Z</time>
      </trkpt>
      <trkpt lat="42.19232" lon="9.06639">
        <ele>1329</ele>
        <time>2015-06-25T07:21:17Z</time>
      </trkpt>
      <trkpt lat="42.19236" lon="9.06638">
        <ele>1329.8</ele>
        <time>2015-06-25T07:21:24Z</time>
      </trkpt>
      <trkpt lat="42.19243" lon="9.06628">
        <ele>1331.6</ele>
        <time>2015-06-25T07:21:42Z</time>
      </trkpt>
      <trkpt lat="42.19246" lon="9.06626">
        <ele>1332</ele>
        <time>2015-06-25T07:21:52Z</time>
      </trkpt>
      <trkpt lat="42.19248" lon="9.06622">
        <ele>1332.8</ele>
        <time>2015-06-25T07:21:59Z</time>
      </trkpt>
      <trkpt lat="42.1925" lon="9.06618">
        <ele>1334</ele>
        <time>2015-06-25T07:22:07Z</time>
      </trkpt>
      <trkpt lat="42.19253" lon="9.06606">
        <ele>1335</ele>
        <time>2015-06-25T07:22:22Z</time>
      </trkpt>
      <trkpt lat="42.19257" lon="9.06597">
        <ele>1336.2</ele>
        <time>2015-06-25T07:22:36Z</time>
      </trkpt>
      <trkpt lat="42.19261" lon="9.06589">
        <ele>1337.2</ele>
        <time>2015-06-25T07:22:46Z</time>
      </trkpt>
      <trkpt lat="42.19264" lon="9.06584">
        <ele>1338</ele>
        <time>2015-06-25T07:22:55Z</time>
      </trkpt>
      <trkpt lat="42.19268" lon="9.06581">
        <ele>1339</ele>
        <time>2015-06-25T07:23:05Z</time>
      </trkpt>
      <trkpt lat="42.1927" lon="9.06572">
        <ele>1340.2</ele>
        <time>2015-06-25T07:23:18Z</time>
      </trkpt>
      <trkpt lat="42.19273" lon="9.06566">
        <ele>1341</ele>
        <time>2015-06-25T07:23:29Z</time>
      </trkpt>
      <trkpt lat="42.19276" lon="9.06562">
        <ele>1341.8</ele>
        <time>2015-06-25T07:23:37Z</time>
      </trkpt>
      <trkpt lat="42.19279" lon="9.06557">
        <ele>1343</ele>
        <time>2015-06-25T07:23:47Z</time>
      </trkpt>
      <trkpt lat="42.19285" lon="9.06551">
        <ele>1344</ele>
        <time>2015-06-25T07:23:59Z</time>
      </trkpt>
      <trkpt lat="42.19288" lon="9.06547">
        <ele>1345.2</ele>
        <time>2015-06-25T07:24:11Z</time>
      </trkpt>
      <trkpt lat="42.1929" lon="9.06544">
        <ele>1345.8</ele>
        <time>2015-06-25T07:24:18Z</time>
      </trkpt>
      <trkpt lat="42.19294" lon="9.06543">
        <ele>1347</ele>
        <time>2015-06-25T07:24:27Z</time>
      </trkpt>
      <trkpt lat="42.19303" lon="9.06494">
        <ele>1347.8</ele>
        <time>2015-06-25T07:25:31Z</time>
      </trkpt>
      <trkpt lat="42.19307" lon="9.06484">
        <ele>1348.8</ele>
        <time>2015-06-25T07:25:44Z</time>
      </trkpt>
      <trkpt lat="42.1931" lon="9.06473">
        <ele>1349.8</ele>
        <time>2015-06-25T07:26:01Z</time>
      </trkpt>
      <trkpt lat="42.19313" lon="9.06459">
        <ele>1350.2</ele>
        <time>2015-06-25T07:26:23Z</time>
      </trkpt>
      <trkpt lat="42.19318" lon="9.06451">
        <ele>1351.4</ele>
        <time>2015-06-25T07:26:35Z</time>
      </trkpt>
      <trkpt lat="42.1933" lon="9.06427">
        <ele>1352.2</ele>
        <time>2015-06-25T07:27:11Z</time>
      </trkpt>
      <trkpt lat="42.19334" lon="9.06421">
        <ele>1353</ele>
        <time>2015-06-25T07:27:20Z</time>
      </trkpt>
      <trkpt lat="42.19338" lon="9.06412">
        <ele>1354</ele>
        <time>2015-06-25T07:27:35Z</time>
      </trkpt>
      <trkpt lat="42.19339" lon="9.06403">
        <ele>1355</ele>
        <time>2015-06-25T07:27:55Z</time>
      </trkpt>
      <trkpt lat="42.19342" lon="9.06396">
        <ele>1355.6</ele>
        <time>2015-06-25T07:28:16Z</time>
      </trkpt>
      <trkpt lat="42.19344" lon="9.06394">
        <ele>1356.6</ele>
        <time>2015-06-25T07:28:33Z</time>
      </trkpt>
      <trkpt lat="42.19349" lon="9.06374">
        <ele>1357.8</ele>
        <time>2015-06-25T07:29:00Z</time>
      </trkpt>
      <trkpt lat="42.19353" lon="9.0637">
        <ele>1358.6</ele>
        <time>2015-06-25T07:29:17Z</time>
      </trkpt>
      <trkpt lat="42.19355" lon="9.06366">
        <ele>1359.2</ele>
        <time>2015-06-25T07:29:26Z</time>
      </trkpt>
      <trkpt lat="42.19353" lon="9.06369">
        <ele>1360.2</ele>
        <time>2015-06-25T07:30:25Z</time>
      </trkpt>
      <trkpt lat="42.19359" lon="9.06372">
        <ele>1360</ele>
        <time>2015-06-25T07:30:39Z</time>
      </trkpt>
      <trkpt lat="42.19361" lon="9.06372">
        <ele>1360</ele>
        <time>2015-06-25T07:30:43Z</time>
      </trkpt>
      <trkpt lat="42.19362" lon="9.06371">
        <ele>1360</ele>
        <time>2015-06-25T07:30:45Z</time>
      </trkpt>
      <trkpt lat="42.19366" lon="9.0637">
        <ele>1361</ele>
        <time>2015-06-25T07:30:54Z</time>
      </trkpt>
      <trkpt lat="42.1937" lon="9.06369">
        <ele>1361.8</ele>
        <time>2015-06-25T07:31:00Z</time>
      </trkpt>
      <trkpt lat="42.19372" lon="9.06368">
        <ele>1363</ele>
        <time>2015-06-25T07:31:07Z</time>
      </trkpt>
      <trkpt lat="42.19377" lon="9.06366">
        <ele>1364.4</ele>
        <time>2015-06-25T07:31:17Z</time>
      </trkpt>
      <trkpt lat="42.19379" lon="9.06366">
        <ele>1365.2</ele>
        <time>2015-06-25T07:31:24Z</time>
      </trkpt>
      <trkpt lat="42.19382" lon="9.06364">
        <ele>1366.4</ele>
        <time>2015-06-25T07:31:33Z</time>
      </trkpt>
      <trkpt lat="42.19388" lon="9.0636">
        <ele>1367.4</ele>
        <time>2015-06-25T07:31:46Z</time>
      </trkpt>
      <trkpt lat="42.19393" lon="9.0636">
        <ele>1368.2</ele>
        <time>2015-06-25T07:31:55Z</time>
      </trkpt>
      <trkpt lat="42.19396" lon="9.06358">
        <ele>1369.6</ele>
        <time>2015-06-25T07:32:04Z</time>
      </trkpt>
      <trkpt lat="42.194" lon="9.06361">
        <ele>1370.8</ele>
        <time>2015-06-25T07:32:16Z</time>
      </trkpt>
      <trkpt lat="42.19402" lon="9.06363">
        <ele>1371.4</ele>
        <time>2015-06-25T07:32:23Z</time>
      </trkpt>
      <trkpt lat="42.19404" lon="9.06366">
        <ele>1372.6</ele>
        <time>2015-06-25T07:32:30Z</time>
      </trkpt>
      <trkpt lat="42.19407" lon="9.06368">
        <ele>1373.8</ele>
        <time>2015-06-25T07:32:39Z</time>
      </trkpt>
      <trkpt lat="42.19404" lon="9.06369">
        <ele>1375</ele>
        <time>2015-06-25T07:35:09Z</time>
      </trkpt>
      <trkpt lat="42.19405" lon="9.06369">
        <ele>1375.2</ele>
        <time>2015-06-25T07:37:40Z</time>
      </trkpt>
      <trkpt lat="42.19405" lon="9.06368">
        <ele>1375</ele>
        <time>2015-06-25T07:38:52Z</time>
      </trkpt>
      <trkpt lat="42.19405" lon="9.06368">
        <ele>1375</ele>
        <time>2015-06-25T07:39:54Z</time>
      </trkpt>
      <trkpt lat="42.19403" lon="9.06368">
        <ele>1375.2</ele>
        <time>2015-06-25T07:40:53Z</time>
      </trkpt>
      <trkpt lat="42.19413" lon="9.06359">
        <ele>1376.4</ele>
        <time>2015-06-25T07:41:49Z</time>
      </trkpt>
      <trkpt lat="42.19418" lon="9.0636">
        <ele>1377.4</ele>
        <time>2015-06-25T07:41:58Z</time>
      </trkpt>
      <trkpt lat="42.19422" lon="9.06361">
        <ele>1378.4</ele>
        <time>2015-06-25T07:42:06Z</time>
      </trkpt>
      <trkpt lat="42.19426" lon="9.06356">
        <ele>1379.6</ele>
        <time>2015-06-25T07:42:14Z</time>
      </trkpt>
      <trkpt lat="42.19431" lon="9.06353">
        <ele>1380.6</ele>
        <time>2015-06-25T07:42:24Z</time>
      </trkpt>
      <trkpt lat="42.19438" lon="9.06348">
        <ele>1382</ele>
        <time>2015-06-25T07:42:36Z</time>
      </trkpt>
      <trkpt lat="42.19445" lon="9.06345">
        <ele>1383</ele>
        <time>2015-06-25T07:42:49Z</time>
      </trkpt>
      <trkpt lat="42.19446" lon="9.06348">
        <ele>1384.2</ele>
        <time>2015-06-25T07:43:03Z</time>
      </trkpt>
      <trkpt lat="42.19446" lon="9.0635">
        <ele>1385.4</ele>
        <time>2015-06-25T07:43:29Z</time>
      </trkpt>
      <trkpt lat="42.19449" lon="9.06351">
        <ele>1386</ele>
        <time>2015-06-25T07:43:41Z</time>
      </trkpt>
      <trkpt lat="42.19453" lon="9.06351">
        <ele>1387.2</ele>
        <time>2015-06-25T07:43:49Z</time>
      </trkpt>
      <trkpt lat="42.19456" lon="9.0635">
        <ele>1388.2</ele>
        <time>2015-06-25T07:43:59Z</time>
      </trkpt>
      <trkpt lat="42.1946" lon="9.0635">
        <ele>1389.4</ele>
        <time>2015-06-25T07:44:09Z</time>
      </trkpt>
      <trkpt lat="42.19461" lon="9.06351">
        <ele>1390.2</ele>
        <time>2015-06-25T07:44:17Z</time>
      </trkpt>
      <trkpt lat="42.19464" lon="9.06351">
        <ele>1391.6</ele>
        <time>2015-06-25T07:44:30Z</time>
      </trkpt>
      <trkpt lat="42.19466" lon="9.06352">
        <ele>1392.4</ele>
        <time>2015-06-25T07:44:37Z</time>
      </trkpt>
      <trkpt lat="42.19467" lon="9.06351">
        <ele>1393.4</ele>
        <time>2015-06-25T07:44:45Z</time>
      </trkpt>
      <trkpt lat="42.1947" lon="9.06349">
        <ele>1394.6</ele>
        <time>2015-06-25T07:44:54Z</time>
      </trkpt>
      <trkpt lat="42.19472" lon="9.06351">
        <ele>1395.6</ele>
        <time>2015-06-25T07:45:04Z</time>
      </trkpt>
      <trkpt lat="42.19475" lon="9.06352">
        <ele>1396.6</ele>
        <time>2015-06-25T07:45:13Z</time>
      </trkpt>
      <trkpt lat="42.19478" lon="9.06354">
        <ele>1398.2</ele>
        <time>2015-06-25T07:45:25Z</time>
      </trkpt>
      <trkpt lat="42.19483" lon="9.06352">
        <ele>1399</ele>
        <time>2015-06-25T07:45:34Z</time>
      </trkpt>
      <trkpt lat="42.19485" lon="9.0635">
        <ele>1399.8</ele>
        <time>2015-06-25T07:45:43Z</time>
      </trkpt>
      <trkpt lat="42.19489" lon="9.06351">
        <ele>1400.8</ele>
        <time>2015-06-25T07:45:52Z</time>
      </trkpt>
      <trkpt lat="42.19492" lon="9.06353">
        <ele>1402.4</ele>
        <time>2015-06-25T07:46:05Z</time>
      </trkpt>
      <trkpt lat="42.19494" lon="9.06351">
        <ele>1403.4</ele>
        <time>2015-06-25T07:46:14Z</time>
      </trkpt>
      <trkpt lat="42.19497" lon="9.0635">
        <ele>1404.6</ele>
        <time>2015-06-25T07:46:23Z</time>
      </trkpt>
      <trkpt lat="42.19499" lon="9.06349">
        <ele>1405.4</ele>
        <time>2015-06-25T07:46:31Z</time>
      </trkpt>
      <trkpt lat="42.19501" lon="9.06347">
        <ele>1406.8</ele>
        <time>2015-06-25T07:46:41Z</time>
      </trkpt>
      <trkpt lat="42.19503" lon="9.06344">
        <ele>1408</ele>
        <time>2015-06-25T07:46:51Z</time>
      </trkpt>
      <trkpt lat="42.19506" lon="9.06341">
        <ele>1409</ele>
        <time>2015-06-25T07:47:02Z</time>
      </trkpt>
      <trkpt lat="42.19508" lon="9.0634">
        <ele>1409.4</ele>
        <time>2015-06-25T07:47:07Z</time>
      </trkpt>
      <trkpt lat="42.19508" lon="9.06339">
        <ele>1409.8</ele>
        <time>2015-06-25T07:47:10Z</time>
      </trkpt>
      <trkpt lat="42.1951" lon="9.06338">
        <ele>1411</ele>
        <time>2015-06-25T07:47:19Z</time>
      </trkpt>
      <trkpt lat="42.19513" lon="9.06339">
        <ele>1412</ele>
        <time>2015-06-25T07:47:31Z</time>
      </trkpt>
      <trkpt lat="42.19516" lon="9.0634">
        <ele>1413</ele>
        <time>2015-06-25T07:47:39Z</time>
      </trkpt>
      <trkpt lat="42.19519" lon="9.0634">
        <ele>1414.4</ele>
        <time>2015-06-25T07:47:48Z</time>
      </trkpt>
      <trkpt lat="42.19521" lon="9.06339">
        <ele>1415.2</ele>
        <time>2015-06-25T07:47:57Z</time>
      </trkpt>
      <trkpt lat="42.19525" lon="9.06338">
        <ele>1416.6</ele>
        <time>2015-06-25T07:48:08Z</time>
      </trkpt>
      <trkpt lat="42.19527" lon="9.0634">
        <ele>1417.2</ele>
        <time>2015-06-25T07:48:17Z</time>
      </trkpt>
      <trkpt lat="42.19529" lon="9.06342">
        <ele>1418.4</ele>
        <time>2015-06-25T07:48:25Z</time>
      </trkpt>
      <trkpt lat="42.19531" lon="9.06346">
        <ele>1419.6</ele>
        <time>2015-06-25T07:48:41Z</time>
      </trkpt>
      <trkpt lat="42.19533" lon="9.06345">
        <ele>1420.6</ele>
        <time>2015-06-25T07:48:49Z</time>
      </trkpt>
      <trkpt lat="42.19537" lon="9.06347">
        <ele>1422</ele>
        <time>2015-06-25T07:48:59Z</time>
      </trkpt>
      <trkpt lat="42.19539" lon="9.06346">
        <ele>1422.8</ele>
        <time>2015-06-25T07:49:06Z</time>
      </trkpt>
      <trkpt lat="42.1954" lon="9.06349">
        <ele>1423.8</ele>
        <time>2015-06-25T07:49:14Z</time>
      </trkpt>
      <trkpt lat="42.19543" lon="9.06349">
        <ele>1424.8</ele>
        <time>2015-06-25T07:49:21Z</time>
      </trkpt>
      <trkpt lat="42.19548" lon="9.06346">
        <ele>1426.4</ele>
        <time>2015-06-25T07:49:32Z</time>
      </trkpt>
      <trkpt lat="42.19552" lon="9.06345">
        <ele>1427.4</ele>
        <time>2015-06-25T07:49:42Z</time>
      </trkpt>
      <trkpt lat="42.19555" lon="9.06343">
        <ele>1428.4</ele>
        <time>2015-06-25T07:49:52Z</time>
      </trkpt>
      <trkpt lat="42.19556" lon="9.06344">
        <ele>1429</ele>
        <time>2015-06-25T07:49:55Z</time>
      </trkpt>
      <trkpt lat="42.19557" lon="9.06343">
        <ele>1429.4</ele>
        <time>2015-06-25T07:49:59Z</time>
      </trkpt>
      <trkpt lat="42.19561" lon="9.06341">
        <ele>1430.4</ele>
        <time>2015-06-25T07:50:07Z</time>
      </trkpt>
      <trkpt lat="42.19566" lon="9.06338">
        <ele>1431.6</ele>
        <time>2015-06-25T07:50:17Z</time>
      </trkpt>
      <trkpt lat="42.19568" lon="9.06338">
        <ele>1432.8</ele>
        <time>2015-06-25T07:50:28Z</time>
      </trkpt>
      <trkpt lat="42.1957" lon="9.06338">
        <ele>1433.8</ele>
        <time>2015-06-25T07:50:38Z</time>
      </trkpt>
      <trkpt lat="42.19574" lon="9.06339">
        <ele>1434.8</ele>
        <time>2015-06-25T07:50:47Z</time>
      </trkpt>
      <trkpt lat="42.19576" lon="9.06339">
        <ele>1435.8</ele>
        <time>2015-06-25T07:50:57Z</time>
      </trkpt>
      <trkpt lat="42.19579" lon="9.06338">
        <ele>1437</ele>
        <time>2015-06-25T07:51:07Z</time>
      </trkpt>
      <trkpt lat="42.19582" lon="9.06337">
        <ele>1438</ele>
        <time>2015-06-25T07:51:16Z</time>
      </trkpt>
      <trkpt lat="42.19587" lon="9.06333">
        <ele>1439</ele>
        <time>2015-06-25T07:51:32Z</time>
      </trkpt>
      <trkpt lat="42.19591" lon="9.06337">
        <ele>1440</ele>
        <time>2015-06-25T07:51:47Z</time>
      </trkpt>
      <trkpt lat="42.19593" lon="9.06335">
        <ele>1440.8</ele>
        <time>2015-06-25T07:51:54Z</time>
      </trkpt>
      <trkpt lat="42.19597" lon="9.06331">
        <ele>1442.6</ele>
        <time>2015-06-25T07:52:15Z</time>
      </trkpt>
      <trkpt lat="42.19601" lon="9.06333">
        <ele>1443</ele>
        <time>2015-06-25T07:52:22Z</time>
      </trkpt>
      <trkpt lat="42.19603" lon="9.06332">
        <ele>1443</ele>
        <time>2015-06-25T07:52:27Z</time>
      </trkpt>
      <trkpt lat="42.19604" lon="9.06333">
        <ele>1444.2</ele>
        <time>2015-06-25T07:52:35Z</time>
      </trkpt>
      <trkpt lat="42.19607" lon="9.06331">
        <ele>1445.4</ele>
        <time>2015-06-25T07:52:45Z</time>
      </trkpt>
      <trkpt lat="42.1961" lon="9.06331">
        <ele>1446.2</ele>
        <time>2015-06-25T07:52:53Z</time>
      </trkpt>
      <trkpt lat="42.19616" lon="9.06323">
        <ele>1447.8</ele>
        <time>2015-06-25T07:53:09Z</time>
      </trkpt>
      <trkpt lat="42.19618" lon="9.06312">
        <ele>1449</ele>
        <time>2015-06-25T07:54:03Z</time>
      </trkpt>
      <trkpt lat="42.19623" lon="9.0631">
        <ele>1450</ele>
        <time>2015-06-25T07:54:36Z</time>
      </trkpt>
      <trkpt lat="42.19624" lon="9.06305">
        <ele>1451</ele>
        <time>2015-06-25T07:55:10Z</time>
      </trkpt>
      <trkpt lat="42.19614" lon="9.06282">
        <ele>1451.6</ele>
        <time>2015-06-25T07:55:47Z</time>
      </trkpt>
      <trkpt lat="42.19615" lon="9.06276">
        <ele>1450.8</ele>
        <time>2015-06-25T07:55:52Z</time>
      </trkpt>
      <trkpt lat="42.19621" lon="9.06219">
        <ele>1451.4</ele>
        <time>2015-06-25T07:56:50Z</time>
      </trkpt>
      <trkpt lat="42.19626" lon="9.06205">
        <ele>1451.6</ele>
        <time>2015-06-25T07:57:10Z</time>
      </trkpt>
      <trkpt lat="42.19626" lon="9.06201">
        <ele>1452</ele>
        <time>2015-06-25T07:57:16Z</time>
      </trkpt>
      <trkpt lat="42.19617" lon="9.06187">
        <ele>1453</ele>
        <time>2015-06-25T07:57:44Z</time>
      </trkpt>
      <trkpt lat="42.19611" lon="9.06178">
        <ele>1453.6</ele>
        <time>2015-06-25T07:57:58Z</time>
      </trkpt>
      <trkpt lat="42.19601" lon="9.06153">
        <ele>1455</ele>
        <time>2015-06-25T07:58:43Z</time>
      </trkpt>
      <trkpt lat="42.19599" lon="9.06148">
        <ele>1455.6</ele>
        <time>2015-06-25T07:58:54Z</time>
      </trkpt>
      <trkpt lat="42.19592" lon="9.0614">
        <ele>1456.8</ele>
        <time>2015-06-25T07:59:10Z</time>
      </trkpt>
      <trkpt lat="42.19584" lon="9.06134">
        <ele>1457.6</ele>
        <time>2015-06-25T07:59:21Z</time>
      </trkpt>
      <trkpt lat="42.19575" lon="9.06124">
        <ele>1458</ele>
        <time>2015-06-25T07:59:37Z</time>
      </trkpt>
      <trkpt lat="42.19574" lon="9.06123">
        <ele>1458</ele>
        <time>2015-06-25T07:59:39Z</time>
      </trkpt>
      <trkpt lat="42.19566" lon="9.06109">
        <ele>1458.8</ele>
        <time>2015-06-25T07:59:57Z</time>
      </trkpt>
      <trkpt lat="42.19565" lon="9.06098">
        <ele>1459.6</ele>
        <time>2015-06-25T08:00:12Z</time>
      </trkpt>
      <trkpt lat="42.19564" lon="9.06089">
        <ele>1461</ele>
        <time>2015-06-25T08:00:24Z</time>
      </trkpt>
      <trkpt lat="42.19562" lon="9.06079">
        <ele>1462</ele>
        <time>2015-06-25T08:00:37Z</time>
      </trkpt>
      <trkpt lat="42.19562" lon="9.06074">
        <ele>1462.6</ele>
        <time>2015-06-25T08:00:45Z</time>
      </trkpt>
      <trkpt lat="42.1956" lon="9.06062">
        <ele>1464.2</ele>
        <time>2015-06-25T08:01:01Z</time>
      </trkpt>
      <trkpt lat="42.19558" lon="9.06045">
        <ele>1465.2</ele>
        <time>2015-06-25T08:01:18Z</time>
      </trkpt>
      <trkpt lat="42.19558" lon="9.06031">
        <ele>1466</ele>
        <time>2015-06-25T08:01:35Z</time>
      </trkpt>
      <trkpt lat="42.19557" lon="9.06022">
        <ele>1467</ele>
        <time>2015-06-25T08:01:48Z</time>
      </trkpt>
      <trkpt lat="42.19555" lon="9.06011">
        <ele>1468.4</ele>
        <time>2015-06-25T08:02:19Z</time>
      </trkpt>
      <trkpt lat="42.19554" lon="9.06003">
        <ele>1469.2</ele>
        <time>2015-06-25T08:02:30Z</time>
      </trkpt>
      <trkpt lat="42.19554" lon="9.05991">
        <ele>1470.2</ele>
        <time>2015-06-25T08:02:43Z</time>
      </trkpt>
      <trkpt lat="42.19555" lon="9.05956">
        <ele>1470.2</ele>
        <time>2015-06-25T08:03:27Z</time>
      </trkpt>
      <trkpt lat="42.1954" lon="9.05946">
        <ele>1470</ele>
        <time>2015-06-25T08:04:09Z</time>
      </trkpt>
      <trkpt lat="42.19538" lon="9.05948">
        <ele>1471</ele>
        <time>2015-06-25T08:04:16Z</time>
      </trkpt>
      <trkpt lat="42.19534" lon="9.05947">
        <ele>1472.2</ele>
        <time>2015-06-25T08:04:25Z</time>
      </trkpt>
      <trkpt lat="42.1953" lon="9.05949">
        <ele>1472.8</ele>
        <time>2015-06-25T08:04:33Z</time>
      </trkpt>
      <trkpt lat="42.19524" lon="9.05953">
        <ele>1474.4</ele>
        <time>2015-06-25T08:04:45Z</time>
      </trkpt>
      <trkpt lat="42.19524" lon="9.0595">
        <ele>1475.4</ele>
        <time>2015-06-25T08:04:54Z</time>
      </trkpt>
      <trkpt lat="42.19525" lon="9.05947">
        <ele>1476.4</ele>
        <time>2015-06-25T08:05:02Z</time>
      </trkpt>
      <trkpt lat="42.19527" lon="9.05943">
        <ele>1477.4</ele>
        <time>2015-06-25T08:05:10Z</time>
      </trkpt>
      <trkpt lat="42.19529" lon="9.05935">
        <ele>1478.8</ele>
        <time>2015-06-25T08:05:27Z</time>
      </trkpt>
      <trkpt lat="42.19528" lon="9.05934">
        <ele>1479.2</ele>
        <time>2015-06-25T08:05:32Z</time>
      </trkpt>
      <trkpt lat="42.19527" lon="9.05932">
        <ele>1479.6</ele>
        <time>2015-06-25T08:05:35Z</time>
      </trkpt>
      <trkpt lat="42.19523" lon="9.05931">
        <ele>1480.6</ele>
        <time>2015-06-25T08:05:44Z</time>
      </trkpt>
      <trkpt lat="42.19519" lon="9.05929">
        <ele>1481.6</ele>
        <time>2015-06-25T08:05:52Z</time>
      </trkpt>
      <trkpt lat="42.1952" lon="9.05925">
        <ele>1483.2</ele>
        <time>2015-06-25T08:06:02Z</time>
      </trkpt>
      <trkpt lat="42.1952" lon="9.0592">
        <ele>1484</ele>
        <time>2015-06-25T08:06:10Z</time>
      </trkpt>
      <trkpt lat="42.19522" lon="9.05914">
        <ele>1485.2</ele>
        <time>2015-06-25T08:06:19Z</time>
      </trkpt>
      <trkpt lat="42.1952" lon="9.05907">
        <ele>1486.2</ele>
        <time>2015-06-25T08:06:31Z</time>
      </trkpt>
      <trkpt lat="42.19521" lon="9.05901">
        <ele>1487.2</ele>
        <time>2015-06-25T08:06:40Z</time>
      </trkpt>
      <trkpt lat="42.19524" lon="9.05897">
        <ele>1488</ele>
        <time>2015-06-25T08:06:49Z</time>
      </trkpt>
      <trkpt lat="42.19527" lon="9.05888">
        <ele>1489.6</ele>
        <time>2015-06-25T08:07:02Z</time>
      </trkpt>
      <trkpt lat="42.19531" lon="9.05885">
        <ele>1490.4</ele>
        <time>2015-06-25T08:07:12Z</time>
      </trkpt>
      <trkpt lat="42.19535" lon="9.05881">
        <ele>1491.2</ele>
        <time>2015-06-25T08:07:22Z</time>
      </trkpt>
      <trkpt lat="42.19533" lon="9.05877">
        <ele>1492.4</ele>
        <time>2015-06-25T08:07:32Z</time>
      </trkpt>
      <trkpt lat="42.1953" lon="9.05874">
        <ele>1493.4</ele>
        <time>2015-06-25T08:07:41Z</time>
      </trkpt>
      <trkpt lat="42.19525" lon="9.05871">
        <ele>1494.6</ele>
        <time>2015-06-25T08:07:50Z</time>
      </trkpt>
      <trkpt lat="42.19523" lon="9.05866">
        <ele>1495.6</ele>
        <time>2015-06-25T08:07:59Z</time>
      </trkpt>
      <trkpt lat="42.19525" lon="9.05863">
        <ele>1496.4</ele>
        <time>2015-06-25T08:08:07Z</time>
      </trkpt>
      <trkpt lat="42.19526" lon="9.05857">
        <ele>1497.4</ele>
        <time>2015-06-25T08:08:16Z</time>
      </trkpt>
      <trkpt lat="42.19526" lon="9.05851">
        <ele>1498.8</ele>
        <time>2015-06-25T08:08:26Z</time>
      </trkpt>
      <trkpt lat="42.19529" lon="9.05845">
        <ele>1499.6</ele>
        <time>2015-06-25T08:08:34Z</time>
      </trkpt>
      <trkpt lat="42.1953" lon="9.0584">
        <ele>1501.2</ele>
        <time>2015-06-25T08:08:44Z</time>
      </trkpt>
      <trkpt lat="42.19531" lon="9.05836">
        <ele>1502.2</ele>
        <time>2015-06-25T08:08:53Z</time>
      </trkpt>
      <trkpt lat="42.19531" lon="9.0583">
        <ele>1503.4</ele>
        <time>2015-06-25T08:09:03Z</time>
      </trkpt>
      <trkpt lat="42.19532" lon="9.05828">
        <ele>1504.2</ele>
        <time>2015-06-25T08:09:11Z</time>
      </trkpt>
      <trkpt lat="42.19532" lon="9.05825">
        <ele>1505.8</ele>
        <time>2015-06-25T08:09:24Z</time>
      </trkpt>
      <trkpt lat="42.19529" lon="9.05817">
        <ele>1506.6</ele>
        <time>2015-06-25T08:09:38Z</time>
      </trkpt>
      <trkpt lat="42.19526" lon="9.05811">
        <ele>1507.4</ele>
        <time>2015-06-25T08:09:47Z</time>
      </trkpt>
      <trkpt lat="42.19521" lon="9.05801">
        <ele>1508.8</ele>
        <time>2015-06-25T08:10:01Z</time>
      </trkpt>
      <trkpt lat="42.19519" lon="9.05796">
        <ele>1509.6</ele>
        <time>2015-06-25T08:10:09Z</time>
      </trkpt>
      <trkpt lat="42.19519" lon="9.05794">
        <ele>1510.8</ele>
        <time>2015-06-25T08:10:18Z</time>
      </trkpt>
      <trkpt lat="42.19517" lon="9.05791">
        <ele>1512</ele>
        <time>2015-06-25T08:10:27Z</time>
      </trkpt>
      <trkpt lat="42.19515" lon="9.05788">
        <ele>1513</ele>
        <time>2015-06-25T08:10:36Z</time>
      </trkpt>
      <trkpt lat="42.19515" lon="9.05785">
        <ele>1513.8</ele>
        <time>2015-06-25T08:10:43Z</time>
      </trkpt>
      <trkpt lat="42.19515" lon="9.05781">
        <ele>1515.2</ele>
        <time>2015-06-25T08:10:51Z</time>
      </trkpt>
      <trkpt lat="42.19513" lon="9.05775">
        <ele>1516.2</ele>
        <time>2015-06-25T08:11:01Z</time>
      </trkpt>
      <trkpt lat="42.19511" lon="9.05772">
        <ele>1517</ele>
        <time>2015-06-25T08:11:07Z</time>
      </trkpt>
      <trkpt lat="42.19511" lon="9.05771">
        <ele>1517.6</ele>
        <time>2015-06-25T08:11:10Z</time>
      </trkpt>
      <trkpt lat="42.19511" lon="9.05766">
        <ele>1518.4</ele>
        <time>2015-06-25T08:11:18Z</time>
      </trkpt>
      <trkpt lat="42.19513" lon="9.05762">
        <ele>1519.6</ele>
        <time>2015-06-25T08:11:27Z</time>
      </trkpt>
      <trkpt lat="42.19513" lon="9.0576">
        <ele>1520.6</ele>
        <time>2015-06-25T08:11:35Z</time>
      </trkpt>
      <trkpt lat="42.19514" lon="9.05758">
        <ele>1522.2</ele>
        <time>2015-06-25T08:11:45Z</time>
      </trkpt>
      <trkpt lat="42.19519" lon="9.05758">
        <ele>1523.6</ele>
        <time>2015-06-25T08:11:56Z</time>
      </trkpt>
      <trkpt lat="42.19517" lon="9.05757">
        <ele>1524.2</ele>
        <time>2015-06-25T08:12:04Z</time>
      </trkpt>
      <trkpt lat="42.19517" lon="9.05757">
        <ele>1525.8</ele>
        <time>2015-06-25T08:12:33Z</time>
      </trkpt>
      <trkpt lat="42.1952" lon="9.05755">
        <ele>1526.2</ele>
        <time>2015-06-25T08:12:39Z</time>
      </trkpt>
      <trkpt lat="42.19521" lon="9.05752">
        <ele>1527.6</ele>
        <time>2015-06-25T08:12:48Z</time>
      </trkpt>
      <trkpt lat="42.19524" lon="9.05753">
        <ele>1528.6</ele>
        <time>2015-06-25T08:12:55Z</time>
      </trkpt>
      <trkpt lat="42.19526" lon="9.05755">
        <ele>1530.4</ele>
        <time>2015-06-25T08:13:07Z</time>
      </trkpt>
      <trkpt lat="42.19532" lon="9.05756">
        <ele>1531.2</ele>
        <time>2015-06-25T08:14:25Z</time>
      </trkpt>
      <trkpt lat="42.19533" lon="9.05753">
        <ele>1532.6</ele>
        <time>2015-06-25T08:14:34Z</time>
      </trkpt>
      <trkpt lat="42.19534" lon="9.05751">
        <ele>1533.6</ele>
        <time>2015-06-25T08:14:42Z</time>
      </trkpt>
      <trkpt lat="42.19534" lon="9.05747">
        <ele>1534.4</ele>
        <time>2015-06-25T08:14:49Z</time>
      </trkpt>
      <trkpt lat="42.19534" lon="9.05747">
        <ele>1534.8</ele>
        <time>2015-06-25T08:14:50Z</time>
      </trkpt>
      <trkpt lat="42.19534" lon="9.05743">
        <ele>1535.8</ele>
        <time>2015-06-25T08:14:58Z</time>
      </trkpt>
      <trkpt lat="42.19536" lon="9.05744">
        <ele>1537</ele>
        <time>2015-06-25T08:15:06Z</time>
      </trkpt>
      <trkpt lat="42.19539" lon="9.05746">
        <ele>1538</ele>
        <time>2015-06-25T08:15:14Z</time>
      </trkpt>
      <trkpt lat="42.19543" lon="9.05745">
        <ele>1539.4</ele>
        <time>2015-06-25T08:15:23Z</time>
      </trkpt>
      <trkpt lat="42.19543" lon="9.05743">
        <ele>1540.4</ele>
        <time>2015-06-25T08:15:32Z</time>
      </trkpt>
      <trkpt lat="42.19546" lon="9.05742">
        <ele>1541.4</ele>
        <time>2015-06-25T08:15:39Z</time>
      </trkpt>
      <trkpt lat="42.19542" lon="9.05737">
        <ele>1542.4</ele>
        <time>2015-06-25T08:15:47Z</time>
      </trkpt>
      <trkpt lat="42.19539" lon="9.05733">
        <ele>1543.6</ele>
        <time>2015-06-25T08:15:56Z</time>
      </trkpt>
      <trkpt lat="42.19537" lon="9.05734">
        <ele>1545</ele>
        <time>2015-06-25T08:16:07Z</time>
      </trkpt>
      <trkpt lat="42.1954" lon="9.0573">
        <ele>1546.4</ele>
        <time>2015-06-25T08:16:16Z</time>
      </trkpt>
      <trkpt lat="42.19541" lon="9.05733">
        <ele>1547.2</ele>
        <time>2015-06-25T08:16:27Z</time>
      </trkpt>
      <trkpt lat="42.19545" lon="9.05726">
        <ele>1548.6</ele>
        <time>2015-06-25T08:17:31Z</time>
      </trkpt>
      <trkpt lat="42.19544" lon="9.05725">
        <ele>1549.6</ele>
        <time>2015-06-25T08:17:37Z</time>
      </trkpt>
      <trkpt lat="42.19545" lon="9.05723">
        <ele>1550.8</ele>
        <time>2015-06-25T08:17:43Z</time>
      </trkpt>
      <trkpt lat="42.1954" lon="9.05719">
        <ele>1552.4</ele>
        <time>2015-06-25T08:17:55Z</time>
      </trkpt>
      <trkpt lat="42.19539" lon="9.05718">
        <ele>1553.4</ele>
        <time>2015-06-25T08:18:01Z</time>
      </trkpt>
      <trkpt lat="42.19537" lon="9.05715">
        <ele>1555</ele>
        <time>2015-06-25T08:18:11Z</time>
      </trkpt>
      <trkpt lat="42.19541" lon="9.05715">
        <ele>1555.8</ele>
        <time>2015-06-25T08:18:20Z</time>
      </trkpt>
      <trkpt lat="42.19544" lon="9.05714">
        <ele>1557.6</ele>
        <time>2015-06-25T08:18:39Z</time>
      </trkpt>
      <trkpt lat="42.19541" lon="9.05713">
        <ele>1558.6</ele>
        <time>2015-06-25T08:18:52Z</time>
      </trkpt>
      <trkpt lat="42.1954" lon="9.05713">
        <ele>1559.6</ele>
        <time>2015-06-25T08:19:01Z</time>
      </trkpt>
      <trkpt lat="42.19543" lon="9.05713">
        <ele>1560.6</ele>
        <time>2015-06-25T08:19:10Z</time>
      </trkpt>
      <trkpt lat="42.19547" lon="9.05709">
        <ele>1562.4</ele>
        <time>2015-06-25T08:19:24Z</time>
      </trkpt>
      <trkpt lat="42.19541" lon="9.05706">
        <ele>1563.2</ele>
        <time>2015-06-25T08:19:36Z</time>
      </trkpt>
      <trkpt lat="42.1954" lon="9.05689">
        <ele>1565</ele>
        <time>2015-06-25T08:20:04Z</time>
      </trkpt>
      <trkpt lat="42.1954" lon="9.0568">
        <ele>1565.8</ele>
        <time>2015-06-25T08:20:19Z</time>
      </trkpt>
      <trkpt lat="42.19537" lon="9.05673">
        <ele>1567.4</ele>
        <time>2015-06-25T08:20:36Z</time>
      </trkpt>
      <trkpt lat="42.19537" lon="9.05668">
        <ele>1568.6</ele>
        <time>2015-06-25T08:20:47Z</time>
      </trkpt>
      <trkpt lat="42.19537" lon="9.05669">
        <ele>1569.4</ele>
        <time>2015-06-25T08:20:58Z</time>
      </trkpt>
      <trkpt lat="42.19539" lon="9.0567">
        <ele>1570.2</ele>
        <time>2015-06-25T08:21:11Z</time>
      </trkpt>
      <trkpt lat="42.19538" lon="9.05664">
        <ele>1571.6</ele>
        <time>2015-06-25T08:21:21Z</time>
      </trkpt>
      <trkpt lat="42.19536" lon="9.05654">
        <ele>1573</ele>
        <time>2015-06-25T08:21:38Z</time>
      </trkpt>
      <trkpt lat="42.19537" lon="9.05648">
        <ele>1574</ele>
        <time>2015-06-25T08:21:49Z</time>
      </trkpt>
      <trkpt lat="42.19535" lon="9.05641">
        <ele>1575.2</ele>
        <time>2015-06-25T08:22:01Z</time>
      </trkpt>
      <trkpt lat="42.19535" lon="9.05632">
        <ele>1576.4</ele>
        <time>2015-06-25T08:22:14Z</time>
      </trkpt>
      <trkpt lat="42.19537" lon="9.05626">
        <ele>1577.4</ele>
        <time>2015-06-25T08:22:24Z</time>
      </trkpt>
      <trkpt lat="42.19537" lon="9.05621">
        <ele>1578.6</ele>
        <time>2015-06-25T08:22:32Z</time>
      </trkpt>
      <trkpt lat="42.19537" lon="9.0562">
        <ele>1578.8</ele>
        <time>2015-06-25T08:22:33Z</time>
      </trkpt>
      <trkpt lat="42.19538" lon="9.05616">
        <ele>1579.8</ele>
        <time>2015-06-25T08:22:42Z</time>
      </trkpt>
      <trkpt lat="42.1954" lon="9.05614">
        <ele>1581</ele>
        <time>2015-06-25T08:22:54Z</time>
      </trkpt>
      <trkpt lat="42.19543" lon="9.05612">
        <ele>1582</ele>
        <time>2015-06-25T08:23:04Z</time>
      </trkpt>
      <trkpt lat="42.19545" lon="9.05601">
        <ele>1583.6</ele>
        <time>2015-06-25T08:23:22Z</time>
      </trkpt>
      <trkpt lat="42.19546" lon="9.05588">
        <ele>1585</ele>
        <time>2015-06-25T08:23:41Z</time>
      </trkpt>
      <trkpt lat="42.19544" lon="9.05581">
        <ele>1585.6</ele>
        <time>2015-06-25T08:23:54Z</time>
      </trkpt>
      <trkpt lat="42.19544" lon="9.05579">
        <ele>1586</ele>
        <time>2015-06-25T08:23:56Z</time>
      </trkpt>
      <trkpt lat="42.19544" lon="9.05576">
        <ele>1586.8</ele>
        <time>2015-06-25T08:24:02Z</time>
      </trkpt>
      <trkpt lat="42.19544" lon="9.05572">
        <ele>1587.8</ele>
        <time>2015-06-25T08:24:12Z</time>
      </trkpt>
      <trkpt lat="42.19543" lon="9.05568">
        <ele>1589</ele>
        <time>2015-06-25T08:24:21Z</time>
      </trkpt>
      <trkpt lat="42.19542" lon="9.05563">
        <ele>1590.8</ele>
        <time>2015-06-25T08:24:31Z</time>
      </trkpt>
      <trkpt lat="42.19539" lon="9.05551">
        <ele>1591.6</ele>
        <time>2015-06-25T08:24:44Z</time>
      </trkpt>
      <trkpt lat="42.19502" lon="9.05538">
        <ele>1592.6</ele>
        <time>2015-06-25T08:26:06Z</time>
      </trkpt>
      <trkpt lat="42.19497" lon="9.05536">
        <ele>1593.2</ele>
        <time>2015-06-25T08:26:13Z</time>
      </trkpt>
      <trkpt lat="42.19497" lon="9.05535">
        <ele>1593.2</ele>
        <time>2015-06-25T08:26:14Z</time>
      </trkpt>
      <trkpt lat="42.19494" lon="9.05529">
        <ele>1594</ele>
        <time>2015-06-25T08:26:24Z</time>
      </trkpt>
      <trkpt lat="42.19492" lon="9.05522">
        <ele>1595.2</ele>
        <time>2015-06-25T08:26:33Z</time>
      </trkpt>
      <trkpt lat="42.19486" lon="9.05513">
        <ele>1596.4</ele>
        <time>2015-06-25T08:26:47Z</time>
      </trkpt>
      <trkpt lat="42.19488" lon="9.05507">
        <ele>1597.2</ele>
        <time>2015-06-25T08:26:56Z</time>
      </trkpt>
      <trkpt lat="42.1949" lon="9.05503">
        <ele>1598.2</ele>
        <time>2015-06-25T08:27:03Z</time>
      </trkpt>
      <trkpt lat="42.19489" lon="9.05495">
        <ele>1599.8</ele>
        <time>2015-06-25T08:27:21Z</time>
      </trkpt>
      <trkpt lat="42.19487" lon="9.05499">
        <ele>1601.6</ele>
        <time>2015-06-25T08:30:23Z</time>
      </trkpt>
      <trkpt lat="42.19489" lon="9.05501">
        <ele>1600.6</ele>
        <time>2015-06-25T08:31:21Z</time>
      </trkpt>
      <trkpt lat="42.1949" lon="9.05498">
        <ele>1600.8</ele>
        <time>2015-06-25T08:34:31Z</time>
      </trkpt>
      <trkpt lat="42.19494" lon="9.05495">
        <ele>1601.4</ele>
        <time>2015-06-25T08:35:32Z</time>
      </trkpt>
      <trkpt lat="42.19495" lon="9.05467">
        <ele>1602</ele>
        <time>2015-06-25T08:36:44Z</time>
      </trkpt>
      <trkpt lat="42.19494" lon="9.05463">
        <ele>1603</ele>
        <time>2015-06-25T08:36:50Z</time>
      </trkpt>
      <trkpt lat="42.19492" lon="9.05455">
        <ele>1604.6</ele>
        <time>2015-06-25T08:37:05Z</time>
      </trkpt>
      <trkpt lat="42.19494" lon="9.05453">
        <ele>1605</ele>
        <time>2015-06-25T08:37:11Z</time>
      </trkpt>
      <trkpt lat="42.19497" lon="9.05451">
        <ele>1606.4</ele>
        <time>2015-06-25T08:37:22Z</time>
      </trkpt>
      <trkpt lat="42.19501" lon="9.05451">
        <ele>1607.4</ele>
        <time>2015-06-25T08:37:31Z</time>
      </trkpt>
      <trkpt lat="42.19503" lon="9.05447">
        <ele>1608.6</ele>
        <time>2015-06-25T08:37:41Z</time>
      </trkpt>
      <trkpt lat="42.19505" lon="9.05445">
        <ele>1609.8</ele>
        <time>2015-06-25T08:37:54Z</time>
      </trkpt>
      <trkpt lat="42.19502" lon="9.05439">
        <ele>1611</ele>
        <time>2015-06-25T08:38:06Z</time>
      </trkpt>
      <trkpt lat="42.19504" lon="9.05436">
        <ele>1612</ele>
        <time>2015-06-25T08:38:17Z</time>
      </trkpt>
      <trkpt lat="42.19504" lon="9.05433">
        <ele>1613</ele>
        <time>2015-06-25T08:38:26Z</time>
      </trkpt>
      <trkpt lat="42.19504" lon="9.05429">
        <ele>1614.2</ele>
        <time>2015-06-25T08:38:39Z</time>
      </trkpt>
      <trkpt lat="42.19502" lon="9.05425">
        <ele>1615.4</ele>
        <time>2015-06-25T08:38:48Z</time>
      </trkpt>
      <trkpt lat="42.19504" lon="9.05423">
        <ele>1616.4</ele>
        <time>2015-06-25T08:38:57Z</time>
      </trkpt>
      <trkpt lat="42.19506" lon="9.05423">
        <ele>1617.6</ele>
        <time>2015-06-25T08:39:07Z</time>
      </trkpt>
      <trkpt lat="42.19507" lon="9.05419">
        <ele>1618.8</ele>
        <time>2015-06-25T08:39:17Z</time>
      </trkpt>
      <trkpt lat="42.19508" lon="9.05415">
        <ele>1619.8</ele>
        <time>2015-06-25T08:39:27Z</time>
      </trkpt>
      <trkpt lat="42.19506" lon="9.05412">
        <ele>1620.8</ele>
        <time>2015-06-25T08:39:37Z</time>
      </trkpt>
      <trkpt lat="42.19505" lon="9.05407">
        <ele>1622.2</ele>
        <time>2015-06-25T08:39:47Z</time>
      </trkpt>
      <trkpt lat="42.19507" lon="9.05408">
        <ele>1623.2</ele>
        <time>2015-06-25T08:39:57Z</time>
      </trkpt>
      <trkpt lat="42.19509" lon="9.05406">
        <ele>1624.2</ele>
        <time>2015-06-25T08:40:04Z</time>
      </trkpt>
      <trkpt lat="42.19511" lon="9.05404">
        <ele>1625.4</ele>
        <time>2015-06-25T08:40:16Z</time>
      </trkpt>
      <trkpt lat="42.19509" lon="9.054">
        <ele>1627</ele>
        <time>2015-06-25T08:40:36Z</time>
      </trkpt>
      <trkpt lat="42.19508" lon="9.05397">
        <ele>1627.4</ele>
        <time>2015-06-25T08:40:42Z</time>
      </trkpt>
      <trkpt lat="42.19508" lon="9.05395">
        <ele>1628.8</ele>
        <time>2015-06-25T08:40:52Z</time>
      </trkpt>
      <trkpt lat="42.19508" lon="9.05393">
        <ele>1629.8</ele>
        <time>2015-06-25T08:41:03Z</time>
      </trkpt>
      <trkpt lat="42.19508" lon="9.0539">
        <ele>1631.2</ele>
        <time>2015-06-25T08:41:14Z</time>
      </trkpt>
      <trkpt lat="42.19509" lon="9.05385">
        <ele>1632.4</ele>
        <time>2015-06-25T08:41:24Z</time>
      </trkpt>
      <trkpt lat="42.1951" lon="9.05383">
        <ele>1633</ele>
        <time>2015-06-25T08:41:33Z</time>
      </trkpt>
      <trkpt lat="42.19509" lon="9.05379">
        <ele>1634.4</ele>
        <time>2015-06-25T08:41:45Z</time>
      </trkpt>
      <trkpt lat="42.19508" lon="9.05372">
        <ele>1635.6</ele>
        <time>2015-06-25T08:42:01Z</time>
      </trkpt>
      <trkpt lat="42.19511" lon="9.05373">
        <ele>1636.8</ele>
        <time>2015-06-25T08:42:10Z</time>
      </trkpt>
      <trkpt lat="42.19512" lon="9.05367">
        <ele>1638.4</ele>
        <time>2015-06-25T08:42:23Z</time>
      </trkpt>
      <trkpt lat="42.19513" lon="9.05366">
        <ele>1639.2</ele>
        <time>2015-06-25T08:42:32Z</time>
      </trkpt>
      <trkpt lat="42.19512" lon="9.05363">
        <ele>1641</ele>
        <time>2015-06-25T08:42:58Z</time>
      </trkpt>
      <trkpt lat="42.19512" lon="9.05359">
        <ele>1641.6</ele>
        <time>2015-06-25T08:43:09Z</time>
      </trkpt>
      <trkpt lat="42.19512" lon="9.05356">
        <ele>1642.6</ele>
        <time>2015-06-25T08:43:17Z</time>
      </trkpt>
      <trkpt lat="42.19514" lon="9.05355">
        <ele>1643.4</ele>
        <time>2015-06-25T08:43:22Z</time>
      </trkpt>
      <trkpt lat="42.19514" lon="9.05352">
        <ele>1645.2</ele>
        <time>2015-06-25T08:43:31Z</time>
      </trkpt>
      <trkpt lat="42.19513" lon="9.05345">
        <ele>1646.2</ele>
        <time>2015-06-25T08:43:43Z</time>
      </trkpt>
      <trkpt lat="42.19514" lon="9.05343">
        <ele>1647.2</ele>
        <time>2015-06-25T08:43:52Z</time>
      </trkpt>
      <trkpt lat="42.19518" lon="9.05344">
        <ele>1648.4</ele>
        <time>2015-06-25T08:44:24Z</time>
      </trkpt>
      <trkpt lat="42.19517" lon="9.05338">
        <ele>1649.8</ele>
        <time>2015-06-25T08:44:35Z</time>
      </trkpt>
      <trkpt lat="42.19519" lon="9.05338">
        <ele>1651.4</ele>
        <time>2015-06-25T08:44:45Z</time>
      </trkpt>
      <trkpt lat="42.19522" lon="9.05337">
        <ele>1652.4</ele>
        <time>2015-06-25T08:44:58Z</time>
      </trkpt>
      <trkpt lat="42.19518" lon="9.0533">
        <ele>1653.6</ele>
        <time>2015-06-25T08:45:11Z</time>
      </trkpt>
      <trkpt lat="42.19518" lon="9.05329">
        <ele>1653.6</ele>
        <time>2015-06-25T08:45:13Z</time>
      </trkpt>
      <trkpt lat="42.19519" lon="9.05328">
        <ele>1654.4</ele>
        <time>2015-06-25T08:45:19Z</time>
      </trkpt>
      <trkpt lat="42.19522" lon="9.05328">
        <ele>1656</ele>
        <time>2015-06-25T08:45:28Z</time>
      </trkpt>
      <trkpt lat="42.19524" lon="9.05324">
        <ele>1657.2</ele>
        <time>2015-06-25T08:45:42Z</time>
      </trkpt>
      <trkpt lat="42.19526" lon="9.05321">
        <ele>1658.2</ele>
        <time>2015-06-25T08:45:50Z</time>
      </trkpt>
      <trkpt lat="42.19527" lon="9.05318">
        <ele>1659.4</ele>
        <time>2015-06-25T08:45:57Z</time>
      </trkpt>
      <trkpt lat="42.19529" lon="9.05318">
        <ele>1661</ele>
        <time>2015-06-25T08:46:08Z</time>
      </trkpt>
      <trkpt lat="42.19531" lon="9.05319">
        <ele>1662.2</ele>
        <time>2015-06-25T08:46:22Z</time>
      </trkpt>
      <trkpt lat="42.19533" lon="9.05318">
        <ele>1663.4</ele>
        <time>2015-06-25T08:46:32Z</time>
      </trkpt>
      <trkpt lat="42.19532" lon="9.05311">
        <ele>1664.8</ele>
        <time>2015-06-25T08:46:43Z</time>
      </trkpt>
      <trkpt lat="42.19535" lon="9.05308">
        <ele>1666</ele>
        <time>2015-06-25T08:46:53Z</time>
      </trkpt>
      <trkpt lat="42.19537" lon="9.05308">
        <ele>1666.8</ele>
        <time>2015-06-25T08:47:01Z</time>
      </trkpt>
      <trkpt lat="42.19539" lon="9.05305">
        <ele>1668.8</ele>
        <time>2015-06-25T08:47:16Z</time>
      </trkpt>
      <trkpt lat="42.1954" lon="9.053">
        <ele>1669.8</ele>
        <time>2015-06-25T08:47:27Z</time>
      </trkpt>
      <trkpt lat="42.1954" lon="9.05296">
        <ele>1670.4</ele>
        <time>2015-06-25T08:47:35Z</time>
      </trkpt>
      <trkpt lat="42.19542" lon="9.05294">
        <ele>1671.6</ele>
        <time>2015-06-25T08:47:45Z</time>
      </trkpt>
      <trkpt lat="42.19546" lon="9.05294">
        <ele>1672.8</ele>
        <time>2015-06-25T08:47:57Z</time>
      </trkpt>
      <trkpt lat="42.19548" lon="9.05294">
        <ele>1674</ele>
        <time>2015-06-25T08:48:05Z</time>
      </trkpt>
      <trkpt lat="42.19552" lon="9.05295">
        <ele>1674.8</ele>
        <time>2015-06-25T08:48:12Z</time>
      </trkpt>
      <trkpt lat="42.19556" lon="9.05298">
        <ele>1676.4</ele>
        <time>2015-06-25T08:48:23Z</time>
      </trkpt>
      <trkpt lat="42.19563" lon="9.05301">
        <ele>1677.8</ele>
        <time>2015-06-25T08:48:35Z</time>
      </trkpt>
      <trkpt lat="42.19561" lon="9.05293">
        <ele>1679.2</ele>
        <time>2015-06-25T08:48:48Z</time>
      </trkpt>
      <trkpt lat="42.19567" lon="9.05293">
        <ele>1680.2</ele>
        <time>2015-06-25T08:48:59Z</time>
      </trkpt>
      <trkpt lat="42.19571" lon="9.05294">
        <ele>1681.2</ele>
        <time>2015-06-25T08:49:07Z</time>
      </trkpt>
      <trkpt lat="42.19574" lon="9.0529">
        <ele>1682.4</ele>
        <time>2015-06-25T08:49:17Z</time>
      </trkpt>
      <trkpt lat="42.19571" lon="9.05284">
        <ele>1683.4</ele>
        <time>2015-06-25T08:49:27Z</time>
      </trkpt>
      <trkpt lat="42.1957" lon="9.05278">
        <ele>1684.8</ele>
        <time>2015-06-25T08:49:42Z</time>
      </trkpt>
      <trkpt lat="42.1957" lon="9.05275">
        <ele>1686</ele>
        <time>2015-06-25T08:49:52Z</time>
      </trkpt>
      <trkpt lat="42.19566" lon="9.05268">
        <ele>1687.4</ele>
        <time>2015-06-25T08:50:05Z</time>
      </trkpt>
      <trkpt lat="42.19566" lon="9.05263">
        <ele>1688.2</ele>
        <time>2015-06-25T08:50:14Z</time>
      </trkpt>
      <trkpt lat="42.19566" lon="9.05254">
        <ele>1689.8</ele>
        <time>2015-06-25T08:50:28Z</time>
      </trkpt>
      <trkpt lat="42.19567" lon="9.05255">
        <ele>1690.2</ele>
        <time>2015-06-25T08:50:35Z</time>
      </trkpt>
      <trkpt lat="42.1957" lon="9.05258">
        <ele>1691.4</ele>
        <time>2015-06-25T08:50:42Z</time>
      </trkpt>
      <trkpt lat="42.19574" lon="9.05259">
        <ele>1693</ele>
        <time>2015-06-25T08:50:51Z</time>
      </trkpt>
      <trkpt lat="42.19579" lon="9.05257">
        <ele>1694</ele>
        <time>2015-06-25T08:51:02Z</time>
      </trkpt>
      <trkpt lat="42.1958" lon="9.0525">
        <ele>1695.4</ele>
        <time>2015-06-25T08:51:13Z</time>
      </trkpt>
      <trkpt lat="42.1958" lon="9.05249">
        <ele>1695.6</ele>
        <time>2015-06-25T08:51:16Z</time>
      </trkpt>
      <trkpt lat="42.19582" lon="9.05249">
        <ele>1696.2</ele>
        <time>2015-06-25T08:51:23Z</time>
      </trkpt>
      <trkpt lat="42.19584" lon="9.05246">
        <ele>1697.6</ele>
        <time>2015-06-25T08:51:33Z</time>
      </trkpt>
      <trkpt lat="42.19585" lon="9.05242">
        <ele>1698.6</ele>
        <time>2015-06-25T08:51:42Z</time>
      </trkpt>
      <trkpt lat="42.19582" lon="9.05234">
        <ele>1700</ele>
        <time>2015-06-25T08:51:58Z</time>
      </trkpt>
      <trkpt lat="42.19582" lon="9.05233">
        <ele>1700.4</ele>
        <time>2015-06-25T08:52:03Z</time>
      </trkpt>
      <trkpt lat="42.19586" lon="9.05234">
        <ele>1702.6</ele>
        <time>2015-06-25T08:52:31Z</time>
      </trkpt>
      <trkpt lat="42.19588" lon="9.05233">
        <ele>1703.4</ele>
        <time>2015-06-25T08:52:38Z</time>
      </trkpt>
      <trkpt lat="42.19589" lon="9.05227">
        <ele>1704.6</ele>
        <time>2015-06-25T08:52:49Z</time>
      </trkpt>
      <trkpt lat="42.19589" lon="9.05222">
        <ele>1705.6</ele>
        <time>2015-06-25T08:52:57Z</time>
      </trkpt>
      <trkpt lat="42.19592" lon="9.05222">
        <ele>1707</ele>
        <time>2015-06-25T08:53:06Z</time>
      </trkpt>
      <trkpt lat="42.19596" lon="9.05221">
        <ele>1708.2</ele>
        <time>2015-06-25T08:53:16Z</time>
      </trkpt>
      <trkpt lat="42.19598" lon="9.05218">
        <ele>1709.2</ele>
        <time>2015-06-25T08:53:26Z</time>
      </trkpt>
      <trkpt lat="42.196" lon="9.05216">
        <ele>1710.2</ele>
        <time>2015-06-25T08:53:34Z</time>
      </trkpt>
      <trkpt lat="42.19599" lon="9.05211">
        <ele>1711.4</ele>
        <time>2015-06-25T08:53:43Z</time>
      </trkpt>
      <trkpt lat="42.19601" lon="9.05208">
        <ele>1712.6</ele>
        <time>2015-06-25T08:53:54Z</time>
      </trkpt>
      <trkpt lat="42.19603" lon="9.05208">
        <ele>1714</ele>
        <time>2015-06-25T08:54:04Z</time>
      </trkpt>
      <trkpt lat="42.19602" lon="9.05203">
        <ele>1714.6</ele>
        <time>2015-06-25T08:54:12Z</time>
      </trkpt>
      <trkpt lat="42.19603" lon="9.05202">
        <ele>1714.8</ele>
        <time>2015-06-25T08:54:15Z</time>
      </trkpt>
      <trkpt lat="42.19603" lon="9.05197">
        <ele>1716</ele>
        <time>2015-06-25T08:54:24Z</time>
      </trkpt>
      <trkpt lat="42.19603" lon="9.05196">
        <ele>1717.2</ele>
        <time>2015-06-25T08:54:34Z</time>
      </trkpt>
      <trkpt lat="42.19606" lon="9.05195">
        <ele>1718.8</ele>
        <time>2015-06-25T08:54:46Z</time>
      </trkpt>
      <trkpt lat="42.1961" lon="9.05193">
        <ele>1719.8</ele>
        <time>2015-06-25T08:55:00Z</time>
      </trkpt>
      <trkpt lat="42.19612" lon="9.05191">
        <ele>1720.8</ele>
        <time>2015-06-25T08:55:10Z</time>
      </trkpt>
      <trkpt lat="42.19614" lon="9.05189">
        <ele>1722</ele>
        <time>2015-06-25T08:55:20Z</time>
      </trkpt>
      <trkpt lat="42.19616" lon="9.05187">
        <ele>1723</ele>
        <time>2015-06-25T08:55:29Z</time>
      </trkpt>
      <trkpt lat="42.19618" lon="9.05183">
        <ele>1724.2</ele>
        <time>2015-06-25T08:55:39Z</time>
      </trkpt>
      <trkpt lat="42.19619" lon="9.05179">
        <ele>1725.6</ele>
        <time>2015-06-25T08:55:51Z</time>
      </trkpt>
      <trkpt lat="42.19621" lon="9.05177">
        <ele>1726.6</ele>
        <time>2015-06-25T08:56:00Z</time>
      </trkpt>
      <trkpt lat="42.1962" lon="9.05173">
        <ele>1727.6</ele>
        <time>2015-06-25T08:56:08Z</time>
      </trkpt>
      <trkpt lat="42.19621" lon="9.05167">
        <ele>1729.2</ele>
        <time>2015-06-25T08:56:21Z</time>
      </trkpt>
      <trkpt lat="42.19623" lon="9.05166">
        <ele>1729.8</ele>
        <time>2015-06-25T08:56:28Z</time>
      </trkpt>
      <trkpt lat="42.19625" lon="9.05161">
        <ele>1731.2</ele>
        <time>2015-06-25T08:56:38Z</time>
      </trkpt>
      <trkpt lat="42.19627" lon="9.05157">
        <ele>1732.4</ele>
        <time>2015-06-25T08:56:48Z</time>
      </trkpt>
      <trkpt lat="42.19627" lon="9.05149">
        <ele>1733.8</ele>
        <time>2015-06-25T08:56:59Z</time>
      </trkpt>
      <trkpt lat="42.19627" lon="9.05138">
        <ele>1735.4</ele>
        <time>2015-06-25T08:57:18Z</time>
      </trkpt>
      <trkpt lat="42.19628" lon="9.05138">
        <ele>1735.4</ele>
        <time>2015-06-25T08:57:19Z</time>
      </trkpt>
      <trkpt lat="42.19629" lon="9.05139">
        <ele>1736</ele>
        <time>2015-06-25T08:57:24Z</time>
      </trkpt>
      <trkpt lat="42.19629" lon="9.05137">
        <ele>1737.6</ele>
        <time>2015-06-25T08:57:35Z</time>
      </trkpt>
      <trkpt lat="42.19633" lon="9.05134">
        <ele>1738.6</ele>
        <time>2015-06-25T08:57:48Z</time>
      </trkpt>
      <trkpt lat="42.19635" lon="9.05132">
        <ele>1739.8</ele>
        <time>2015-06-25T08:57:58Z</time>
      </trkpt>
      <trkpt lat="42.19636" lon="9.05125">
        <ele>1741</ele>
        <time>2015-06-25T08:58:11Z</time>
      </trkpt>
      <trkpt lat="42.19638" lon="9.05123">
        <ele>1741.8</ele>
        <time>2015-06-25T08:58:18Z</time>
      </trkpt>
      <trkpt lat="42.19641" lon="9.05125">
        <ele>1743.4</ele>
        <time>2015-06-25T08:58:27Z</time>
      </trkpt>
      <trkpt lat="42.19642" lon="9.0512">
        <ele>1744.6</ele>
        <time>2015-06-25T08:58:43Z</time>
      </trkpt>
      <trkpt lat="42.19643" lon="9.05121">
        <ele>1745.8</ele>
        <time>2015-06-25T08:58:52Z</time>
      </trkpt>
      <trkpt lat="42.19644" lon="9.0512">
        <ele>1746.4</ele>
        <time>2015-06-25T08:59:00Z</time>
      </trkpt>
      <trkpt lat="42.19647" lon="9.05119">
        <ele>1747.6</ele>
        <time>2015-06-25T08:59:13Z</time>
      </trkpt>
      <trkpt lat="42.19653" lon="9.05123">
        <ele>1749.2</ele>
        <time>2015-06-25T08:59:54Z</time>
      </trkpt>
      <trkpt lat="42.19654" lon="9.05123">
        <ele>1750.6</ele>
        <time>2015-06-25T09:00:13Z</time>
      </trkpt>
      <trkpt lat="42.19655" lon="9.05119">
        <ele>1752</ele>
        <time>2015-06-25T09:00:30Z</time>
      </trkpt>
      <trkpt lat="42.19656" lon="9.05113">
        <ele>1753.2</ele>
        <time>2015-06-25T09:00:44Z</time>
      </trkpt>
      <trkpt lat="42.19657" lon="9.05111">
        <ele>1754</ele>
        <time>2015-06-25T09:00:53Z</time>
      </trkpt>
      <trkpt lat="42.19658" lon="9.0511">
        <ele>1755.2</ele>
        <time>2015-06-25T09:01:02Z</time>
      </trkpt>
      <trkpt lat="42.19659" lon="9.0511">
        <ele>1755.8</ele>
        <time>2015-06-25T09:01:06Z</time>
      </trkpt>
      <trkpt lat="42.19659" lon="9.05107">
        <ele>1756.6</ele>
        <time>2015-06-25T09:01:16Z</time>
      </trkpt>
      <trkpt lat="42.19662" lon="9.05105">
        <ele>1757.6</ele>
        <time>2015-06-25T09:01:24Z</time>
      </trkpt>
      <trkpt lat="42.19665" lon="9.05102">
        <ele>1759.4</ele>
        <time>2015-06-25T09:01:39Z</time>
      </trkpt>
      <trkpt lat="42.19665" lon="9.05102">
        <ele>1760.2</ele>
        <time>2015-06-25T09:02:03Z</time>
      </trkpt>
      <trkpt lat="42.19666" lon="9.051">
        <ele>1761.8</ele>
        <time>2015-06-25T09:02:19Z</time>
      </trkpt>
      <trkpt lat="42.19666" lon="9.05092">
        <ele>1763</ele>
        <time>2015-06-25T09:02:31Z</time>
      </trkpt>
      <trkpt lat="42.19666" lon="9.05088">
        <ele>1763.8</ele>
        <time>2015-06-25T09:02:38Z</time>
      </trkpt>
      <trkpt lat="42.19667" lon="9.05083">
        <ele>1765.2</ele>
        <time>2015-06-25T09:02:48Z</time>
      </trkpt>
      <trkpt lat="42.19667" lon="9.05081">
        <ele>1766.6</ele>
        <time>2015-06-25T09:02:59Z</time>
      </trkpt>
      <trkpt lat="42.19669" lon="9.05076">
        <ele>1767.4</ele>
        <time>2015-06-25T09:03:12Z</time>
      </trkpt>
      <trkpt lat="42.19671" lon="9.05074">
        <ele>1768.6</ele>
        <time>2015-06-25T09:03:21Z</time>
      </trkpt>
      <trkpt lat="42.19672" lon="9.05074">
        <ele>1769.8</ele>
        <time>2015-06-25T09:03:28Z</time>
      </trkpt>
      <trkpt lat="42.19674" lon="9.05069">
        <ele>1771.2</ele>
        <time>2015-06-25T09:03:39Z</time>
      </trkpt>
      <trkpt lat="42.19677" lon="9.05066">
        <ele>1773</ele>
        <time>2015-06-25T09:03:58Z</time>
      </trkpt>
      <trkpt lat="42.1968" lon="9.05066">
        <ele>1773.4</ele>
        <time>2015-06-25T09:04:04Z</time>
      </trkpt>
      <trkpt lat="42.19685" lon="9.0507">
        <ele>1775</ele>
        <time>2015-06-25T09:04:13Z</time>
      </trkpt>
      <trkpt lat="42.19688" lon="9.0507">
        <ele>1775.6</ele>
        <time>2015-06-25T09:04:20Z</time>
      </trkpt>
      <trkpt lat="42.1969" lon="9.05068">
        <ele>1777.2</ele>
        <time>2015-06-25T09:04:29Z</time>
      </trkpt>
      <trkpt lat="42.19693" lon="9.05068">
        <ele>1778.4</ele>
        <time>2015-06-25T09:04:37Z</time>
      </trkpt>
      <trkpt lat="42.19697" lon="9.0507">
        <ele>1779.8</ele>
        <time>2015-06-25T09:04:49Z</time>
      </trkpt>
      <trkpt lat="42.19699" lon="9.05071">
        <ele>1780.4</ele>
        <time>2015-06-25T09:04:57Z</time>
      </trkpt>
      <trkpt lat="42.19702" lon="9.05077">
        <ele>1782</ele>
        <time>2015-06-25T09:05:12Z</time>
      </trkpt>
      <trkpt lat="42.19706" lon="9.05078">
        <ele>1783.2</ele>
        <time>2015-06-25T09:05:20Z</time>
      </trkpt>
      <trkpt lat="42.19709" lon="9.05076">
        <ele>1785</ele>
        <time>2015-06-25T09:05:35Z</time>
      </trkpt>
      <trkpt lat="42.19711" lon="9.05076">
        <ele>1785.8</ele>
        <time>2015-06-25T09:05:44Z</time>
      </trkpt>
      <trkpt lat="42.19713" lon="9.05074">
        <ele>1787</ele>
        <time>2015-06-25T09:05:56Z</time>
      </trkpt>
      <trkpt lat="42.19717" lon="9.05072">
        <ele>1788.4</ele>
        <time>2015-06-25T09:06:10Z</time>
      </trkpt>
      <trkpt lat="42.19719" lon="9.05071">
        <ele>1789.8</ele>
        <time>2015-06-25T09:06:23Z</time>
      </trkpt>
      <trkpt lat="42.19722" lon="9.05068">
        <ele>1791.2</ele>
        <time>2015-06-25T09:06:39Z</time>
      </trkpt>
      <trkpt lat="42.19722" lon="9.05065">
        <ele>1792.4</ele>
        <time>2015-06-25T09:07:00Z</time>
      </trkpt>
      <trkpt lat="42.19722" lon="9.05064">
        <ele>1794</ele>
        <time>2015-06-25T09:07:17Z</time>
      </trkpt>
      <trkpt lat="42.19723" lon="9.05064">
        <ele>1795</ele>
        <time>2015-06-25T09:07:26Z</time>
      </trkpt>
      <trkpt lat="42.19725" lon="9.05061">
        <ele>1796.8</ele>
        <time>2015-06-25T09:07:47Z</time>
      </trkpt>
      <trkpt lat="42.19725" lon="9.05053">
        <ele>1797.8</ele>
        <time>2015-06-25T09:08:09Z</time>
      </trkpt>
      <trkpt lat="42.19727" lon="9.05054">
        <ele>1798.4</ele>
        <time>2015-06-25T09:08:18Z</time>
      </trkpt>
      <trkpt lat="42.19729" lon="9.05055">
        <ele>1799</ele>
        <time>2015-06-25T09:08:25Z</time>
      </trkpt>
      <trkpt lat="42.1973" lon="9.05049">
        <ele>1800.6</ele>
        <time>2015-06-25T09:08:33Z</time>
      </trkpt>
      <trkpt lat="42.19732" lon="9.05049">
        <ele>1802</ele>
        <time>2015-06-25T09:08:53Z</time>
      </trkpt>
      <trkpt lat="42.19735" lon="9.05053">
        <ele>1803.4</ele>
        <time>2015-06-25T09:09:05Z</time>
      </trkpt>
      <trkpt lat="42.19737" lon="9.05043">
        <ele>1804.6</ele>
        <time>2015-06-25T09:09:20Z</time>
      </trkpt>
      <trkpt lat="42.19741" lon="9.0504">
        <ele>1806</ele>
        <time>2015-06-25T09:09:33Z</time>
      </trkpt>
      <trkpt lat="42.1974" lon="9.05036">
        <ele>1807.4</ele>
        <time>2015-06-25T09:09:46Z</time>
      </trkpt>
      <trkpt lat="42.19737" lon="9.0503">
        <ele>1808.8</ele>
        <time>2015-06-25T09:09:59Z</time>
      </trkpt>
      <trkpt lat="42.19741" lon="9.05031">
        <ele>1809.6</ele>
        <time>2015-06-25T09:10:10Z</time>
      </trkpt>
      <trkpt lat="42.19745" lon="9.05032">
        <ele>1811.4</ele>
        <time>2015-06-25T09:10:25Z</time>
      </trkpt>
      <trkpt lat="42.19743" lon="9.05026">
        <ele>1812</ele>
        <time>2015-06-25T09:10:33Z</time>
      </trkpt>
      <trkpt lat="42.19742" lon="9.0502">
        <ele>1813.6</ele>
        <time>2015-06-25T09:10:42Z</time>
      </trkpt>
      <trkpt lat="42.1974" lon="9.05013">
        <ele>1814.6</ele>
        <time>2015-06-25T09:10:53Z</time>
      </trkpt>
      <trkpt lat="42.1974" lon="9.0501">
        <ele>1815.8</ele>
        <time>2015-06-25T09:11:02Z</time>
      </trkpt>
      <trkpt lat="42.19741" lon="9.05005">
        <ele>1817.4</ele>
        <time>2015-06-25T09:11:15Z</time>
      </trkpt>
      <trkpt lat="42.1974" lon="9.05001">
        <ele>1817.8</ele>
        <time>2015-06-25T09:11:19Z</time>
      </trkpt>
      <trkpt lat="42.19739" lon="9.04994">
        <ele>1818.6</ele>
        <time>2015-06-25T09:11:31Z</time>
      </trkpt>
      <trkpt lat="42.19741" lon="9.04995">
        <ele>1819.6</ele>
        <time>2015-06-25T09:11:40Z</time>
      </trkpt>
      <trkpt lat="42.19742" lon="9.04993">
        <ele>1821.2</ele>
        <time>2015-06-25T09:11:49Z</time>
      </trkpt>
      <trkpt lat="42.19742" lon="9.04989">
        <ele>1821.6</ele>
        <time>2015-06-25T09:11:55Z</time>
      </trkpt>
      <trkpt lat="42.19744" lon="9.04985">
        <ele>1823.4</ele>
        <time>2015-06-25T09:12:05Z</time>
      </trkpt>
      <trkpt lat="42.19747" lon="9.04987">
        <ele>1824</ele>
        <time>2015-06-25T09:12:13Z</time>
      </trkpt>
      <trkpt lat="42.1975" lon="9.04991">
        <ele>1825.4</ele>
        <time>2015-06-25T09:12:20Z</time>
      </trkpt>
      <trkpt lat="42.19752" lon="9.04991">
        <ele>1826.6</ele>
        <time>2015-06-25T09:12:30Z</time>
      </trkpt>
      <trkpt lat="42.19753" lon="9.04991">
        <ele>1827.8</ele>
        <time>2015-06-25T09:12:40Z</time>
      </trkpt>
      <trkpt lat="42.19753" lon="9.04997">
        <ele>1829</ele>
        <time>2015-06-25T09:12:54Z</time>
      </trkpt>
      <trkpt lat="42.19753" lon="9.05004">
        <ele>1829.2</ele>
        <time>2015-06-25T09:13:30Z</time>
      </trkpt>
      <trkpt lat="42.19753" lon="9.05014">
        <ele>1828.4</ele>
        <time>2015-06-25T09:14:05Z</time>
      </trkpt>
      <trkpt lat="42.19773" lon="9.05047">
        <ele>1827.4</ele>
        <time>2015-06-25T09:15:06Z</time>
      </trkpt>
      <trkpt lat="42.19786" lon="9.05101">
        <ele>1826.8</ele>
        <time>2015-06-25T09:16:02Z</time>
      </trkpt>
      <trkpt lat="42.19789" lon="9.05109">
        <ele>1826.6</ele>
        <time>2015-06-25T09:17:22Z</time>
      </trkpt>
      <trkpt lat="42.19789" lon="9.05111">
        <ele>1826.4</ele>
        <time>2015-06-25T09:18:15Z</time>
      </trkpt>
      <trkpt lat="42.19796" lon="9.05117">
        <ele>1827</ele>
        <time>2015-06-25T09:19:52Z</time>
      </trkpt>
      <trkpt lat="42.19813" lon="9.05147">
        <ele>1826.8</ele>
        <time>2015-06-25T09:20:24Z</time>
      </trkpt>
      <trkpt lat="42.1982" lon="9.05157">
        <ele>1825.6</ele>
        <time>2015-06-25T09:20:48Z</time>
      </trkpt>
      <trkpt lat="42.19815" lon="9.05177">
        <ele>1824.8</ele>
        <time>2015-06-25T09:21:04Z</time>
      </trkpt>
      <trkpt lat="42.1983" lon="9.05227">
        <ele>1824.2</ele>
        <time>2015-06-25T09:22:13Z</time>
      </trkpt>
      <trkpt lat="42.19837" lon="9.05235">
        <ele>1824.6</ele>
        <time>2015-06-25T09:22:39Z</time>
      </trkpt>
      <trkpt lat="42.19837" lon="9.05233">
        <ele>1824.6</ele>
        <time>2015-06-25T09:22:47Z</time>
      </trkpt>
      <trkpt lat="42.19817" lon="9.05226">
        <ele>1824.4</ele>
        <time>2015-06-25T09:23:36Z</time>
      </trkpt>
      <trkpt lat="42.19822" lon="9.0523">
        <ele>1824.2</ele>
        <time>2015-06-25T09:23:40Z</time>
      </trkpt>
      <trkpt lat="42.19822" lon="9.05235">
        <ele>1824.6</ele>
        <time>2015-06-25T09:23:53Z</time>
      </trkpt>
      <trkpt lat="42.19821" lon="9.05247">
        <ele>1824.4</ele>
        <time>2015-06-25T09:24:00Z</time>
      </trkpt>
      <trkpt lat="42.19821" lon="9.0525">
        <ele>1824.2</ele>
        <time>2015-06-25T09:24:03Z</time>
      </trkpt>
      <trkpt lat="42.19818" lon="9.05241">
        <ele>1824.2</ele>
        <time>2015-06-25T09:24:34Z</time>
      </trkpt>
      <trkpt lat="42.1981" lon="9.05245">
        <ele>1822.6</ele>
        <time>2015-06-25T09:25:37Z</time>
      </trkpt>
      <trkpt lat="42.19808" lon="9.05245">
        <ele>1822.4</ele>
        <time>2015-06-25T09:26:25Z</time>
      </trkpt>
      <trkpt lat="42.19807" lon="9.05245">
        <ele>1822.4</ele>
        <time>2015-06-25T09:27:02Z</time>
      </trkpt>
      <trkpt lat="42.19806" lon="9.05247">
        <ele>1822.4</ele>
        <time>2015-06-25T09:27:12Z</time>
      </trkpt>
    </trkseg>
  </trk>
</gpx>